Provisional Data: Catatonk Creek near Spencer, NY


Please select a monitoring station.
Please select start date.
Please select start date.

Toggle Unit: C/F Toggle Unit: C/F
Sample Time Temperature (C) Temperature (F) Specific Conductivity (mS/cm) pH   Turbidity (NTU+) DO (mg/L)
2/8/2023 12:00:00 AM 3.7 38.66 0.351 7.67 3.92 11.52
2/8/2023 12:15:00 AM 3.68 38.624 0.35 7.68 3.94 11.53
2/8/2023 12:30:00 AM 3.67 38.606 0.35 7.67 4.14 11.53
2/8/2023 12:45:00 AM 3.65 38.57 0.349 7.67 4.09 11.54
2/8/2023 1:00:00 AM 3.65 38.57 0.349 7.67 4.19 11.54
2/8/2023 1:15:00 AM 3.64 38.552 0.348 7.67 4.02 11.54
2/8/2023 1:30:00 AM 3.62 38.516 0.348 7.67 4.01 11.56
2/8/2023 1:45:00 AM 3.6 38.48 0.347 7.67 3.99 11.56
2/8/2023 2:00:00 AM 3.59 38.462 0.347 7.67 4.07 11.57
2/8/2023 2:15:00 AM 3.57 38.426 0.347 7.67 3.97 11.57
2/8/2023 2:30:00 AM 3.56 38.408 0.347 7.67 3.9 11.58
2/8/2023 2:45:00 AM 3.54 38.372 0.347 7.67 3.98 11.59
2/8/2023 3:00:00 AM 3.53 38.354 0.346 7.66 3.87 11.6
2/8/2023 3:15:00 AM 3.54 38.372 0.346 7.66 3.99 11.59
2/8/2023 3:30:00 AM 3.52 38.336 0.346 7.67 3.83 11.61
2/8/2023 3:45:00 AM 3.51 38.318 0.346 7.66 3.77 11.61
2/8/2023 4:00:00 AM 3.5 38.3 0.346 7.66 3.68 11.61
2/8/2023 4:15:00 AM 3.5 38.3 0.346 7.66 3.76 11.61
2/8/2023 4:30:00 AM 3.49 38.282 0.346 7.66 3.66 11.61
2/8/2023 4:45:00 AM 3.48 38.264 0.346 7.66 3.64 11.61
2/8/2023 5:00:00 AM 3.48 38.264 0.346 7.66 3.65 11.62
2/8/2023 5:15:00 AM 3.48 38.264 0.346 7.66 3.49 11.61
2/8/2023 5:30:00 AM 3.47 38.246 0.346 7.66 3.46 11.62
2/8/2023 5:45:00 AM 3.45 38.21 0.346 7.66 3.65 11.63
2/8/2023 6:00:00 AM 3.45 38.21 0.346 7.66 3.63 11.63
2/8/2023 6:15:00 AM 3.44 38.192 0.346 7.66 3.64 11.64
2/8/2023 6:30:00 AM 3.43 38.174 0.346 7.66 3.54 11.63
2/8/2023 6:45:00 AM 3.42 38.156 0.346 7.66 5.79 11.64
2/8/2023 7:00:00 AM 3.42 38.156 0.346 7.66 4.71 11.63
2/8/2023 7:15:00 AM 3.42 38.156 0.346 7.66 4.6 11.62
2/8/2023 7:30:00 AM 3.43 38.174 0.346 7.66 3.92 11.61
2/8/2023 7:45:00 AM 3.4 38.12 0.346 7.67 3.84 11.66
2/8/2023 8:00:00 AM 3.41 38.138 0.346 7.67 7.01 11.68
2/8/2023 8:15:00 AM 3.43 38.174 0.347 7.66 3.88 11.69
2/8/2023 8:30:00 AM 3.41 38.138 0.347 7.67 5.43 11.71
2/8/2023 8:45:00 AM 3.41 38.138 0.346 7.67 3.93 11.73
2/8/2023 9:00:00 AM 3.42 38.156 0.346 7.67 4.17 11.78
2/8/2023 9:15:00 AM 3.42 38.156 0.346 7.68 4.05 11.82
2/8/2023 9:30:00 AM 3.44 38.192 0.346 7.68 9.65 11.85
2/8/2023 9:45:00 AM 3.48 38.264 0.346 7.68 10.29 11.9
2/8/2023 10:00:00 AM 3.57 38.426 0.346 7.69 3.86 11.95
2/8/2023 10:15:00 AM 3.68 38.624 0.346 7.69 3.64 12.01
2/8/2023 10:30:00 AM 3.75 38.75 0.346 7.69 3.85 12.04
2/8/2023 10:45:00 AM 3.78 38.804 0.346 7.7 4.12 12.08
2/8/2023 11:00:00 AM 3.85 38.93 0.346 7.7 3.99 12.11
2/8/2023 11:15:00 AM 4 39.2 0.346 7.7 3.84 12.14
2/8/2023 11:30:00 AM 4.14 39.452 0.346 7.71 3.77 12.18
2/8/2023 11:45:00 AM 4.27 39.686 0.346 7.71 10.28 12.19
2/8/2023 12:00:00 PM 4.4 39.92 0.346 7.71 6.32 12.21
2/8/2023 12:15:00 PM 4.51 40.118 0.346 7.71 5.93 12.22
2/8/2023 12:30:00 PM 4.61 40.298 0.346 7.72 8.52 12.23
2/8/2023 12:45:00 PM 4.75 40.55 0.347 7.72 9.15 12.22
2/8/2023 1:00:00 PM 4.85 40.73 0.347 7.72 8.85 12.25
2/8/2023 1:15:00 PM 4.95 40.91 0.345 7.72 8.91 12.25
2/8/2023 1:30:00 PM 5.06 41.108 0.345 7.73 9.12 12.26
2/8/2023 1:45:00 PM 5.17 41.306 0.346 7.72 9.77 12.26
2/8/2023 2:00:00 PM 5.25 41.45 0.346 7.73 9.02 12.22
2/8/2023 2:15:00 PM 5.34 41.612 0.347 7.73 9.31 12.24
2/8/2023 2:30:00 PM 5.42 41.756 0.347 7.74 6.05 12.22
2/8/2023 2:45:00 PM 5.49 41.882 0.347 7.74 4.3 12.2
2/8/2023 3:00:00 PM 5.56 42.008 0.348 7.74 4.45 12.18
2/8/2023 3:15:00 PM 5.61 42.098 0.348 7.74 5.05 12.17
2/8/2023 3:30:00 PM 5.65 42.17 0.347 7.74 4.75 12.14
2/8/2023 3:45:00 PM 5.68 42.224 0.347 7.74 4.28 12.1
2/8/2023 4:00:00 PM 5.69 42.242 0.347 7.74 4.18 12.07
2/8/2023 4:15:00 PM 5.69 42.242 0.348 7.74 4.09 12.02
2/8/2023 4:30:00 PM 5.68 42.224 0.347 7.74 4.97 11.99
2/8/2023 4:45:00 PM 5.66 42.188 0.347 7.73 4.92 11.95
2/8/2023 5:00:00 PM 5.62 42.116 0.347 7.73 4.74 11.91
2/8/2023 5:15:00 PM 5.57 42.026 0.347 7.73 4.96 11.87
2/8/2023 5:30:00 PM 5.51 41.918 0.347 7.72 4.7 11.81
2/8/2023 5:45:00 PM 5.45 41.81 0.346 7.71 5.17 11.75
2/8/2023 6:00:00 PM 5.38 41.684 0.346 7.71 4.94 11.7
2/8/2023 6:15:00 PM 5.32 41.576 0.346 7.7 4.77 11.66
2/8/2023 6:30:00 PM 5.23 41.414 0.345 7.7 4.92 11.64
2/8/2023 6:45:00 PM 5.16 41.288 0.347 7.7 4.62 11.6
2/8/2023 7:00:00 PM 5.06 41.108 0.344 7.69 4.91 11.58
2/8/2023 7:15:00 PM 4.98 40.964 0.345 7.69 4.69 11.55
2/8/2023 7:30:00 PM 4.89 40.802 0.345 7.68 5.16 11.53
2/8/2023 7:45:00 PM 4.81 40.658 0.345 7.67 5.17 11.51
2/8/2023 8:00:00 PM 4.71 40.478 0.346 7.67 5.11 11.51
2/8/2023 8:15:00 PM 4.62 40.316 0.347 7.67 5.03 11.49
2/8/2023 8:30:00 PM 4.53 40.154 0.349 7.67 5.24 11.48
2/8/2023 8:45:00 PM 4.45 40.01 0.348 7.66 5.44 11.47
2/8/2023 9:00:00 PM 4.34 39.812 0.347 7.66 5.33 11.46
2/8/2023 9:15:00 PM 4.26 39.668 0.347 7.65 5.47 11.45
2/8/2023 9:30:00 PM 4.19 39.542 0.346 7.64 5.84 11.44
2/8/2023 9:45:00 PM 4.08 39.344 0.342 7.64 5.8 11.46
2/8/2023 10:00:00 PM 3.97 39.146 0.338 7.64 6.12 11.49
2/8/2023 10:15:00 PM 3.88 38.984 0.335 7.63 5.75 11.52
2/8/2023 10:30:00 PM 3.78 38.804 0.331 7.63 5.53 11.55
2/8/2023 10:45:00 PM 3.7 38.66 0.33 7.63 5.36 11.58
2/8/2023 11:00:00 PM 3.6 38.48 0.326 7.63 5.34 11.62
2/8/2023 11:15:00 PM 3.53 38.354 0.324 7.63 5.41 11.65
2/8/2023 11:30:00 PM 3.43 38.174 0.322 7.63 4.91 11.68
2/8/2023 11:45:00 PM 3.36 38.048 0.321 7.63 4.96 11.7
2/9/2023 12:00:00 AM 3.29 37.922 0.32 7.63 4.9 11.73
2/9/2023 12:15:00 AM 3.24 37.832 0.319 7.63 4.62 11.76
2/9/2023 12:30:00 AM 3.16 37.688 0.318 7.63 4.68 11.78
2/9/2023 12:45:00 AM 3.12 37.616 0.318 7.63 4.37 11.8
2/9/2023 1:00:00 AM 3.06 37.508 0.317 7.63 4.54 11.83
2/9/2023 1:15:00 AM 3.01 37.418 0.316 7.63 4.42 11.84
2/9/2023 1:30:00 AM 2.97 37.346 0.316 7.63 4.43 11.86
2/9/2023 1:45:00 AM 2.9 37.22 0.315 7.63 4.57 11.86
2/9/2023 2:00:00 AM 2.86 37.148 0.314 7.63 4.47 11.87
2/9/2023 2:15:00 AM 2.8 37.04 0.315 7.63 4.45 11.9
2/9/2023 2:30:00 AM 2.76 36.968 0.315 7.63 4.3 11.91
2/9/2023 2:45:00 AM 2.71 36.878 0.315 7.63 4.48 11.94
2/9/2023 3:00:00 AM 2.66 36.788 0.314 7.63 4.39 11.96
2/9/2023 3:15:00 AM 2.61 36.698 0.315 7.63 4.4 11.98
2/9/2023 3:30:00 AM 2.58 36.644 0.315 7.63 4.44 11.98
2/9/2023 3:45:00 AM 2.52 36.536 0.314 7.63 4.55 12.01
2/9/2023 4:00:00 AM 2.5 36.5 0.315 7.63 4.55 12.01
2/9/2023 4:15:00 AM 2.47 36.446 0.315 7.63 4.24 12
2/9/2023 4:30:00 AM 2.44 36.392 0.315 7.63 4.24 12.02
2/9/2023 4:45:00 AM 2.43 36.374 0.316 7.63 4.19 12.04
2/9/2023 5:00:00 AM 2.42 36.356 0.317 7.64 4.38 12.03
2/9/2023 5:15:00 AM 2.4 36.32 0.316 7.63 4.59 12.05
2/9/2023 5:30:00 AM 2.39 36.302 0.317 7.64 4.77 12.05
2/9/2023 5:45:00 AM 2.38 36.284 0.317 7.64 4.48 12.05
2/9/2023 6:00:00 AM 2.39 36.302 0.318 7.64 4.28 12.05
2/9/2023 6:15:00 AM 2.39 36.302 0.318 7.64 4.42 12.05
2/9/2023 6:30:00 AM 2.38 36.284 0.319 7.64 4.41 12.05
2/9/2023 6:45:00 AM 2.4 36.32 0.319 7.64 4.23 12.04
2/9/2023 7:00:00 AM 2.39 36.302 0.32 7.63 4.21 12.05
2/9/2023 7:15:00 AM 2.4 36.32 0.32 7.64 4.12 12.04
2/9/2023 7:30:00 AM 2.41 36.338 0.32 7.64 4.07 12.06
2/9/2023 7:45:00 AM 2.4 36.32 0.321 7.64 4.24 12.07
2/9/2023 8:00:00 AM 2.42 36.356 0.322 7.64 3.99 12.08
2/9/2023 8:15:00 AM 2.42 36.356 0.321 7.64 4.15 12.11
2/9/2023 8:30:00 AM 2.44 36.392 0.322 7.65 4.2 12.12
2/9/2023 8:45:00 AM 2.46 36.428 0.321 7.65 4.23 12.12
2/9/2023 9:00:00 AM 2.47 36.446 0.32 7.65 4.34 12.15
2/9/2023 9:15:00 AM 2.49 36.482 0.32 7.65 4.57 12.17
2/9/2023 9:30:00 AM 2.53 36.554 0.321 7.65 4.1 12.2
2/9/2023 9:45:00 AM 2.57 36.626 0.32 7.65 4.02 12.22
2/9/2023 10:00:00 AM 2.63 36.734 0.321 7.66 3.97 12.26
2/9/2023 10:15:00 AM 2.67 36.806 0.324 7.66 3.92 12.29
2/9/2023 10:30:00 AM 2.71 36.878 0.332 7.66 4.09 12.29
2/9/2023 10:45:00 AM 2.76 36.968 0.344 7.66 4.01 12.31
2/9/2023 11:00:00 AM 2.82 37.076 0.358 7.67 4.21 12.34
2/9/2023 11:15:00 AM 2.89 37.202 0.374 7.67 4.15 12.35
2/9/2023 11:30:00 AM 2.94 37.292 0.391 7.68 4.74 12.38
2/9/2023 11:45:00 AM 2.99 37.382 0.408 7.68 5.72 12.39
2/9/2023 12:00:00 PM 3.05 37.49 0.417 7.68 6.22 12.4
2/9/2023 12:15:00 PM 3.15 37.67 0.414 7.68 6.78 12.39
2/9/2023 12:30:00 PM 3.2 37.76 0.405 7.68 6.38 12.4
2/9/2023 12:45:00 PM 3.28 37.904 0.393 7.68 6.19 12.44
2/9/2023 1:00:00 PM 3.37 38.066 0.382 7.69 5.87 12.45
2/9/2023 1:15:00 PM 3.47 38.246 0.371 7.69 5.34 12.46
2/9/2023 1:30:00 PM 3.56 38.408 0.362 7.69 4.8 12.49
2/9/2023 1:45:00 PM 3.63 38.534 0.355 7.69 4.9 12.48
2/9/2023 2:00:00 PM 3.73 38.714 0.353 7.69 4.71 12.45
2/9/2023 2:15:00 PM 3.76 38.768 0.347 7.7 4.45 12.46
2/9/2023 2:30:00 PM 3.83 38.894 0.345 7.7 4.58 12.45
2/9/2023 2:45:00 PM 3.88 38.984 0.342 7.69 4.3 12.41
2/9/2023 3:00:00 PM 3.93 39.074 0.344 7.7 4.33 12.35
2/9/2023 3:15:00 PM 3.95 39.11 0.34 7.7 4.3 12.37
2/9/2023 3:30:00 PM 4.01 39.218 0.34 7.7 4.19 12.33
2/9/2023 3:45:00 PM 4.05 39.29 0.338 7.69 4.45 12.33
2/9/2023 4:00:00 PM 4.07 39.326 0.338 7.69 4.64 12.28
2/9/2023 4:15:00 PM 4.12 39.416 0.337 7.69 4.8 12.22
2/9/2023 4:30:00 PM 4.15 39.47 0.337 7.68 5.01 12.17
2/9/2023 4:45:00 PM 4.16 39.488 0.336 7.68 5.48 12.15
2/9/2023 5:00:00 PM 4.19 39.542 0.336 7.67 5.64 12.12
2/9/2023 5:15:00 PM 4.17 39.506 0.338 7.67 6.14 12.08
2/9/2023 5:30:00 PM 4.15 39.47 0.341 7.67 6.32 12.04
2/9/2023 5:45:00 PM 4.13 39.434 0.343 7.66 6.56 12
2/9/2023 6:00:00 PM 4.1 39.38 0.34 7.65 7.15 11.96
2/9/2023 6:15:00 PM 4.04 39.272 0.337 7.65 6.92 11.93
2/9/2023 6:30:00 PM 3.99 39.182 0.333 7.64 7.3 11.93
2/9/2023 6:45:00 PM 3.94 39.092 0.333 7.64 7.27 11.91
2/9/2023 7:00:00 PM 3.9 39.02 0.327 7.63 7.02 11.9
2/9/2023 7:15:00 PM 3.85 38.93 0.325 7.63 7.96 11.89
2/9/2023 7:30:00 PM 3.82 38.876 0.321 7.62 6.72 11.84
2/9/2023 7:45:00 PM 3.77 38.786 0.318 7.62 6.81 11.87
2/9/2023 8:00:00 PM 3.73 38.714 0.317 7.62 6.4 11.84
2/9/2023 8:15:00 PM 3.74 38.732 0.316 7.61 6.26 11.82
2/9/2023 8:30:00 PM 3.66 38.588 0.314 7.6 6.5 11.81
2/9/2023 8:45:00 PM 3.57 38.426 0.311 7.61 6.71 11.88
2/9/2023 9:00:00 PM 3.51 38.318 0.306 7.6 6.6 11.9
2/9/2023 9:15:00 PM 3.51 38.318 0.307 7.6 6.49 11.89
2/9/2023 9:30:00 PM 3.51 38.318 0.305 7.59 6.97 11.86
2/9/2023 9:45:00 PM 3.48 38.264 0.301 7.59 6.89 11.86
2/9/2023 10:00:00 PM 3.42 38.156 0.297 7.59 6.92 11.89
2/9/2023 10:15:00 PM 3.43 38.174 0.298 7.59 6.97 11.84
2/9/2023 10:30:00 PM 3.39 38.102 0.294 7.58 7.37 11.89
2/9/2023 10:45:00 PM 3.35 38.03 0.29 7.58 7.03 11.92
2/9/2023 11:00:00 PM 3.34 38.012 0.289 7.58 7.57 11.9
2/9/2023 11:15:00 PM 3.36 38.048 0.289 7.57 7.22 11.85
2/9/2023 11:30:00 PM 3.3 37.94 0.289 7.57 7.29 11.9
2/9/2023 11:45:00 PM 3.25 37.85 0.281 7.57 7.49 11.93
2/10/2023 12:00:00 AM 3.25 37.85 0.281 7.57 7.27 11.94
2/10/2023 12:15:00 AM 3.22 37.796 0.279 7.57 7.26 11.96
2/10/2023 12:30:00 AM 3.14 37.652 0.275 7.57 7.46 12.01
2/10/2023 12:45:00 AM 3.15 37.67 0.275 7.56 7.39 11.99
2/10/2023 1:00:00 AM 3.17 37.706 0.276 7.56 7.35 11.96
2/10/2023 1:15:00 AM 3.13 37.634 0.273 7.56 7.16 11.99
2/10/2023 1:30:00 AM 3.06 37.508 0.271 7.55 7.4 12.01
2/10/2023 1:45:00 AM 3.04 37.472 0.271 7.55 7.85 12.04
2/10/2023 2:00:00 AM 3 37.4 0.269 7.55 7.73 12.07
2/10/2023 2:15:00 AM 3.01 37.418 0.27 7.55 7.71 12.06
2/10/2023 2:30:00 AM 2.91 37.238 0.266 7.56 8.6 12.11
2/10/2023 2:45:00 AM 2.84 37.112 0.264 7.56 7.7 12.14
2/10/2023 3:00:00 AM 2.82 37.076 0.262 7.55 8.66 12.17
2/10/2023 3:15:00 AM 2.88 37.184 0.265 7.54 8.46 12.15
2/10/2023 3:30:00 AM 2.82 37.076 0.263 7.55 8.1 12.17
2/10/2023 3:45:00 AM 2.82 37.076 0.26 7.55 8.07 12.17
2/10/2023 4:00:00 AM 2.84 37.112 0.261 7.54 8.14 12.15
2/10/2023 4:15:00 AM 2.82 37.076 0.261 7.55 8.27 12.18
2/10/2023 4:30:00 AM 2.77 36.986 0.257 7.55 8.74 12.22
2/10/2023 4:45:00 AM 2.75 36.95 0.258 7.55 8.3 12.23
2/10/2023 5:00:00 AM 2.75 36.95 0.258 7.55 8.5 12.21
2/10/2023 5:15:00 AM 2.74 36.932 0.258 7.55 9.76 12.24
2/10/2023 5:30:00 AM 2.71 36.878 0.256 7.54 8.66 12.25
2/10/2023 5:45:00 AM 2.72 36.896 0.256 7.54 8.49 12.27
2/10/2023 6:00:00 AM 2.69 36.842 0.255 7.54 8.48 12.28
2/10/2023 6:15:00 AM 2.71 36.878 0.257 7.55 8.67 12.27
2/10/2023 6:30:00 AM 2.71 36.878 0.255 7.54 8.72 12.24
2/10/2023 6:45:00 AM 2.67 36.806 0.252 7.54 8.89 12.27
2/10/2023 7:00:00 AM 2.63 36.734 0.25 7.54 9.16 12.32
2/10/2023 7:15:00 AM 2.61 36.698 0.248 7.54 7.97 12.34
2/10/2023 7:30:00 AM 2.6 36.68 0.247 7.54 9.43 12.34
2/10/2023 7:45:00 AM 2.6 36.68 0.245 7.53 8.83 12.35
2/10/2023 8:00:00 AM 2.57 36.626 0.244 7.53 8.82 12.38
2/10/2023 8:15:00 AM 2.56 36.608 0.242 7.53 8.26 12.39
2/10/2023 8:30:00 AM 2.54 36.572 0.24 7.53 9.06 12.41
2/10/2023 8:45:00 AM 2.53 36.554 0.238 7.53 8.52 12.44
2/10/2023 9:00:00 AM 2.52 36.536 0.237 7.53 11.61 12.47
2/10/2023 9:15:00 AM 2.51 36.518 0.235 7.53 8.53 12.51
2/10/2023 9:30:00 AM 2.5 36.5 0.233 7.53 8.17 12.54
2/10/2023 9:45:00 AM 2.51 36.518 0.232 7.53 8.71 12.57
2/10/2023 10:00:00 AM 2.5 36.5 0.23 7.53 9.13 12.62
2/10/2023 10:15:00 AM 2.51 36.518 0.229 7.53 8.95 12.65
2/10/2023 10:30:00 AM 2.52 36.536 0.228 7.53 8.99 12.7
2/10/2023 10:45:00 AM 2.52 36.536 0.227 7.53 8.84 12.73
2/10/2023 11:00:00 AM 2.52 36.536 0.225 7.53 9.69 12.75
2/10/2023 11:15:00 AM 2.51 36.518 0.223 7.54 9.56 12.79
2/10/2023 11:30:00 AM 2.51 36.518 0.221 7.53 10.75 12.81
2/10/2023 11:45:00 AM 2.52 36.536 0.221 7.54 9.36 12.84
2/10/2023 12:00:00 PM 2.52 36.536 0.218 7.53 9.99 12.89
2/10/2023 12:15:00 PM 2.52 36.536 0.217 7.53 9.56 12.93
2/10/2023 12:30:00 PM 2.54 36.572 0.216 7.54 10.25 12.96
2/10/2023 12:45:00 PM 2.55 36.59 0.215 7.54 10.1 13
2/10/2023 1:00:00 PM 2.56 36.608 0.213 7.54 9.91 13.04
2/10/2023 1:15:00 PM 2.59 36.662 0.213 7.54 10.18 13.03
2/10/2023 1:30:00 PM 2.57 36.626 0.212 7.54 10.36 13.05
2/10/2023 1:45:00 PM 2.57 36.626 0.212 7.54 10.59 13.07
2/10/2023 2:00:00 PM 2.58 36.644 0.21 7.54 10.91 13.06
2/10/2023 2:15:00 PM 2.57 36.626 0.209 7.54 10.52 13.07
2/10/2023 2:30:00 PM 2.56 36.608 0.208 7.54 10.96 13.07
2/10/2023 2:45:00 PM 2.58 36.644 0.209 7.53 10.73 13.07
2/10/2023 3:00:00 PM 2.59 36.662 0.207 7.53 10.9 13.07
2/10/2023 3:15:00 PM 2.58 36.644 0.206 7.53 10.87 13.08
2/10/2023 3:30:00 PM 2.57 36.626 0.206 7.53 11.35 13.06
2/10/2023 3:45:00 PM 2.58 36.644 0.207 7.53 11.47 13.05
2/10/2023 4:00:00 PM 2.57 36.626 0.205 7.53 11 13.05
2/10/2023 4:15:00 PM 2.55 36.59 0.204 7.52 11.84 13.04
2/10/2023 4:30:00 PM 2.54 36.572 0.204 7.52 11.02 13
2/10/2023 4:45:00 PM 2.52 36.536 0.204 7.52 12.18 13.01
2/10/2023 5:00:00 PM 2.5 36.5 0.203 7.51 13.51 12.99
2/10/2023 5:15:00 PM 2.51 36.518 0.203 7.51 11.4 12.96
2/10/2023 5:30:00 PM 2.5 36.5 0.205 7.5 11.84 12.93
2/10/2023 5:45:00 PM 2.45 36.41 0.202 7.5 11.58 12.94
2/10/2023 6:00:00 PM 2.43 36.374 0.202 7.49 11.09 12.92
2/10/2023 6:15:00 PM 2.43 36.374 0.202 7.49 11.68 12.9
2/10/2023 6:30:00 PM 2.39 36.302 0.202 7.49 12.15 12.9
2/10/2023 6:45:00 PM 2.36 36.248 0.202 7.49 12.28 12.88
2/10/2023 7:00:00 PM 2.34 36.212 0.202 7.49 12.55 12.87
2/10/2023 7:15:00 PM 2.34 36.212 0.202 7.48 12.4 12.86
2/10/2023 7:30:00 PM 2.3 36.14 0.201 7.48 12.41 12.84
2/10/2023 7:45:00 PM 2.3 36.14 0.201 7.47 12.45 12.81
2/10/2023 8:00:00 PM 2.26 36.068 0.2 7.47 12.48 12.83
2/10/2023 8:15:00 PM 2.25 36.05 0.2 7.47 11.4 12.8
2/10/2023 8:30:00 PM 2.24 36.032 0.2 7.47 12.15 12.81
2/10/2023 8:45:00 PM 2.2 35.96 0.2 7.47 11.46 12.81
2/10/2023 9:00:00 PM 2.18 35.924 0.2 7.46 11.27 12.81
2/10/2023 9:15:00 PM 2.14 35.852 0.201 7.47 11.86 12.81
2/10/2023 9:30:00 PM 2.12 35.816 0.201 7.47 11.27 12.79
2/10/2023 9:45:00 PM 2.08 35.744 0.201 7.47 11.28 12.8
2/10/2023 10:00:00 PM 2.07 35.726 0.202 7.46 10.68 12.79
2/10/2023 10:15:00 PM 2.05 35.69 0.202 7.46 10.53 12.78
2/10/2023 10:30:00 PM 2.01 35.618 0.201 7.47 10.77 12.8
2/10/2023 10:45:00 PM 1.97 35.546 0.201 7.47 11.21 12.8
2/10/2023 11:00:00 PM 1.96 35.528 0.203 7.47 11.06 12.8
2/10/2023 11:15:00 PM 1.93 35.474 0.202 7.47 10.26 12.8
2/10/2023 11:30:00 PM 1.93 35.474 0.205 7.47 10.87 12.79
2/10/2023 11:45:00 PM 1.9 35.42 0.203 7.47 9.99 12.79
2/11/2023 12:00:00 AM 1.88 35.384 0.203 7.47 9.93 12.8
2/11/2023 12:15:00 AM 1.85 35.33 0.204 7.47 9.81 12.8
2/11/2023 12:30:00 AM 1.84 35.312 0.205 7.47 10.2 12.79
2/11/2023 12:45:00 AM 1.8 35.24 0.205 7.47 10.08 12.79
2/11/2023 1:00:00 AM 1.76 35.168 0.206 7.47 10.21 12.8
2/11/2023 1:15:00 AM 1.74 35.132 0.207 7.48 10.28 12.8
2/11/2023 1:30:00 AM 1.73 35.114 0.208 7.48 10.06 12.77
2/11/2023 1:45:00 AM 1.71 35.078 0.209 7.48 9.52 12.79
2/11/2023 2:00:00 AM 1.7 35.06 0.21 7.48 9.38 12.78
2/11/2023 2:15:00 AM 1.7 35.06 0.211 7.48 10.75 12.79
2/11/2023 2:30:00 AM 1.69 35.042 0.21 7.48 9.31 12.77
2/11/2023 2:45:00 AM 1.67 35.006 0.212 7.48 9.69 12.77
2/11/2023 3:00:00 AM 1.66 34.988 0.212 7.48 9.82 12.77
2/11/2023 3:15:00 AM 1.62 34.916 0.211 7.48 9.46 12.77
2/11/2023 3:30:00 AM 1.61 34.898 0.214 7.49 9.67 12.78
2/11/2023 3:45:00 AM 1.58 34.844 0.215 7.49 8.88 12.78
2/11/2023 4:00:00 AM 1.55 34.79 0.216 7.5 8.71 12.79
2/11/2023 4:15:00 AM 1.55 34.79 0.218 7.5 8.67 12.8
2/11/2023 4:30:00 AM 1.54 34.772 0.219 7.5 9.68 12.79
2/11/2023 4:45:00 AM 1.52 34.736 0.219 7.5 8.79 12.79
2/11/2023 5:00:00 AM 1.51 34.718 0.218 7.5 8.81 12.8
2/11/2023 5:15:00 AM 1.51 34.718 0.219 7.5 8.46 12.8
2/11/2023 5:30:00 AM 1.51 34.718 0.218 7.5 8.24 12.84
2/11/2023 5:45:00 AM 1.49 34.682 0.219 7.5 8.59 12.82
2/11/2023 6:00:00 AM 1.47 34.646 0.217 7.49 8.4 12.83
2/11/2023 6:15:00 AM 1.53 34.754 0.222 7.49 8.96 12.78
2/11/2023 6:30:00 AM 1.51 34.718 0.22 7.49 8.4 12.79
2/11/2023 6:45:00 AM 1.49 34.682 0.22 7.5 8.35 12.8
2/11/2023 7:00:00 AM 1.47 34.646 0.221 7.5 8.15 12.81
2/11/2023 7:15:00 AM 1.48 34.664 0.224 7.5 8.53 12.79
2/11/2023 7:30:00 AM 1.5 34.7 0.225 7.51 8.11 12.79
2/11/2023 7:45:00 AM 1.49 34.682 0.226 7.51 8.13 12.8
2/11/2023 8:00:00 AM 1.5 34.7 0.228 7.51 8.79 12.81
2/11/2023 8:15:00 AM 1.51 34.718 0.229 7.51 8.63 12.8
2/11/2023 8:30:00 AM 1.51 34.718 0.229 7.52 8.49 12.84
2/11/2023 8:45:00 AM 1.52 34.736 0.23 7.52 8.16 12.86
2/11/2023 9:00:00 AM 1.53 34.754 0.231 7.53 7.73 12.89
2/11/2023 9:15:00 AM 1.54 34.772 0.232 7.54 7.68 12.92
2/11/2023 9:30:00 AM 1.58 34.844 0.232 7.54 9.61 12.94
2/11/2023 9:45:00 AM 1.63 34.934 0.234 7.54 8.18 12.96
2/11/2023 10:00:00 AM 1.64 34.952 0.233 7.54 7.85 12.99
2/11/2023 10:15:00 AM 1.68 35.024 0.234 7.55 7.77 13.03
2/11/2023 10:30:00 AM 1.72 35.096 0.235 7.56 8.42 13.06
2/11/2023 10:45:00 AM 1.76 35.168 0.235 7.56 7.51 13.08
2/11/2023 11:00:00 AM 1.84 35.312 0.237 7.57 7.39 13.12
2/11/2023 11:15:00 AM 1.87 35.366 0.237 7.58 7.24 13.14
2/11/2023 11:30:00 AM 1.93 35.474 0.238 7.58 7.3 13.16
2/11/2023 11:45:00 AM 1.99 35.582 0.237 7.59 7.32 13.18
2/11/2023 12:00:00 PM 2.07 35.726 0.239 7.59 7.6 13.2
2/11/2023 12:15:00 PM 2.12 35.816 0.239 7.59 7.57 13.22
2/11/2023 12:30:00 PM 2.2 35.96 0.24 7.6 7.7 13.22
2/11/2023 12:45:00 PM 2.28 36.104 0.24 7.6 7.47 13.24
2/11/2023 1:00:00 PM 2.35 36.23 0.241 7.6 7.5 13.25
2/11/2023 1:15:00 PM 2.46 36.428 0.241 7.61 7.43 13.26
2/11/2023 1:30:00 PM 2.53 36.554 0.242 7.61 7.31 13.26
2/11/2023 1:45:00 PM 2.62 36.716 0.243 7.62 7.5 13.25
2/11/2023 2:00:00 PM 2.74 36.932 0.243 7.62 7.48 13.26
2/11/2023 2:15:00 PM 2.88 37.184 0.244 7.62 7.58 13.25
2/11/2023 2:30:00 PM 2.95 37.31 0.245 7.63 7.73 13.25
2/11/2023 2:45:00 PM 3.08 37.544 0.247 7.63 8.01 13.24
2/11/2023 3:00:00 PM 3.16 37.688 0.247 7.63 8.09 13.21
2/11/2023 3:15:00 PM 3.18 37.724 0.248 7.63 8.18 13.2
2/11/2023 3:30:00 PM 3.21 37.778 0.248 7.63 8.66 13.17
2/11/2023 3:45:00 PM 3.22 37.796 0.249 7.64 8.17 13.15
2/11/2023 4:00:00 PM 3.22 37.796 0.25 7.64 8.11 13.11
2/11/2023 4:15:00 PM 3.21 37.778 0.25 7.64 8.17 13.08
2/11/2023 4:30:00 PM 3.2 37.76 0.251 7.64 8.02 13.05
2/11/2023 4:45:00 PM 3.19 37.742 0.251 7.63 7.94 13.01
2/11/2023 5:00:00 PM 3.17 37.706 0.251 7.63 8.22 12.98
2/11/2023 5:15:00 PM 3.15 37.67 0.251 7.63 8.59 12.93
2/11/2023 5:30:00 PM 3.15 37.67 0.252 7.62 8.09 12.88
2/11/2023 5:45:00 PM 3.11 37.598 0.252 7.62 12.41 12.83
2/11/2023 6:00:00 PM 3.07 37.526 0.251 7.61 8.09 12.79
2/11/2023 6:15:00 PM 3.03 37.454 0.25 7.6 8.04 12.75
2/11/2023 6:30:00 PM 3.02 37.436 0.252 7.6 8.03 12.7
2/11/2023 6:45:00 PM 2.97 37.346 0.251 7.59 8.23 12.65
2/11/2023 7:00:00 PM 2.92 37.256 0.251 7.59 8.02 12.64
2/11/2023 7:15:00 PM 2.87 37.166 0.25 7.59 8.19 12.61
2/11/2023 7:30:00 PM 2.83 37.094 0.25 7.59 8.37 12.58
2/11/2023 7:45:00 PM 2.82 37.076 0.255 7.58 8.48 12.55
2/11/2023 8:00:00 PM 2.76 36.968 0.253 7.58 8.29 12.54
2/11/2023 8:15:00 PM 2.74 36.932 0.256 7.58 8.24 12.53
2/11/2023 8:30:00 PM 2.68 36.824 0.256 7.58 8.09 12.5
2/11/2023 8:45:00 PM 2.63 36.734 0.258 7.58 7.38 12.48
2/11/2023 9:00:00 PM 2.57 36.626 0.257 7.58 8.21 12.47
2/11/2023 9:15:00 PM 2.51 36.518 0.257 7.58 7.69 12.47
2/11/2023 9:30:00 PM 2.46 36.428 0.257 7.57 7.52 12.46
2/11/2023 9:45:00 PM 2.43 36.374 0.258 7.57 7.76 12.44
2/11/2023 10:00:00 PM 2.38 36.284 0.259 7.57 7.02 12.43
2/11/2023 10:15:00 PM 2.36 36.248 0.261 7.56 7.23 12.4
2/11/2023 10:30:00 PM 2.32 36.176 0.261 7.57 7.03 12.41
2/11/2023 10:45:00 PM 2.27 36.086 0.26 7.57 6.78 12.42
2/11/2023 11:00:00 PM 2.23 36.014 0.261 7.57 7.25 12.41
2/11/2023 11:15:00 PM 2.18 35.924 0.26 7.57 7.87 12.43
2/11/2023 11:30:00 PM 2.15 35.87 0.259 7.56 7.13 12.43
2/11/2023 11:45:00 PM 2.13 35.834 0.261 7.56 7.39 12.41
2/12/2023 12:00:00 AM 2.11 35.798 0.261 7.57 7.19 12.41
2/12/2023 12:15:00 AM 2.04 35.672 0.26 7.57 7.2 12.43
2/12/2023 12:30:00 AM 2.01 35.618 0.262 7.56 7.36 12.43
2/12/2023 12:45:00 AM 1.97 35.546 0.261 7.57 7.14 12.43
2/12/2023 1:00:00 AM 1.93 35.474 0.262 7.57 6.99 12.45
2/12/2023 1:15:00 AM 1.9 35.42 0.264 7.57 6.75 12.46
2/12/2023 1:30:00 AM 1.87 35.366 0.265 7.57 7.51 12.47
2/12/2023 1:45:00 AM 1.84 35.312 0.265 7.57 6.61 12.47
2/12/2023 2:00:00 AM 1.81 35.258 0.266 7.57 6.49 12.5
2/12/2023 2:15:00 AM 1.85 35.33 0.271 7.57 6.21 12.44
2/12/2023 2:30:00 AM 1.76 35.168 0.266 7.58 6.28 12.47
2/12/2023 2:45:00 AM 1.72 35.096 0.266 7.58 6.19 12.49
2/12/2023 3:00:00 AM 1.78 35.204 0.271 7.57 6.14 12.47
2/12/2023 3:15:00 AM 1.65 34.97 0.265 7.57 7.17 12.5
2/12/2023 3:30:00 AM 1.6 34.88 0.265 7.57 6.51 12.53
2/12/2023 3:45:00 AM 1.57 34.826 0.265 7.58 6.15 12.55
2/12/2023 4:00:00 AM 1.55 34.79 0.265 7.57 6.23 12.56
2/12/2023 4:15:00 AM 1.51 34.718 0.266 7.58 6.18 12.54
2/12/2023 4:30:00 AM 1.48 34.664 0.267 7.58 6.27 12.53
2/12/2023 4:45:00 AM 1.44 34.592 0.266 7.58 6.33 12.57
2/12/2023 5:00:00 AM 1.41 34.538 0.267 7.58 6.23 12.57
2/12/2023 5:15:00 AM 1.37 34.466 0.267 7.58 5.98 12.6
2/12/2023 5:30:00 AM 1.35 34.43 0.267 7.58 6.06 12.6
2/12/2023 5:45:00 AM 1.33 34.394 0.269 7.58 5.9 12.59
2/12/2023 6:00:00 AM 1.32 34.376 0.27 7.58 6.25 12.58
2/12/2023 6:15:00 AM 1.29 34.322 0.269 7.59 5.95 12.6
2/12/2023 6:30:00 AM 1.28 34.304 0.271 7.59 6.14 12.58
2/12/2023 6:45:00 AM 1.24 34.232 0.271 7.59 5.85 12.61
2/12/2023 7:00:00 AM 1.24 34.232 0.273 7.59 5.86 12.59
2/12/2023 7:15:00 AM 1.21 34.178 0.274 7.59 5.6 12.59
2/12/2023 7:30:00 AM 1.2 34.16 0.274 7.59 5.9 12.61
2/12/2023 7:45:00 AM 1.19 34.142 0.275 7.59 5.84 12.61
2/12/2023 8:00:00 AM 1.18 34.124 0.276 7.59 7.07 12.61
2/12/2023 8:15:00 AM 1.18 34.124 0.276 7.59 5.89 12.65
2/12/2023 8:30:00 AM 1.2 34.16 0.277 7.6 5.94 12.68
2/12/2023 8:45:00 AM 1.22 34.196 0.278 7.6 6.3 12.69
2/12/2023 9:00:00 AM 1.26 34.268 0.279 7.61 6.11 12.72
2/12/2023 9:15:00 AM 1.31 34.358 0.279 7.61 6.35 12.76
2/12/2023 9:30:00 AM 1.39 34.502 0.282 7.61 6.32 12.79
2/12/2023 9:45:00 AM 1.45 34.61 0.281 7.61 5.61 12.83
2/12/2023 10:00:00 AM 1.55 34.79 0.282 7.61 6.03 12.83
2/12/2023 10:15:00 AM 1.62 34.916 0.282 7.62 5.76 12.87
2/12/2023 10:30:00 AM 1.73 35.114 0.284 7.62 5.86 12.87
2/12/2023 10:45:00 AM 1.82 35.276 0.284 7.62 6.23 12.91
2/12/2023 11:00:00 AM 1.92 35.456 0.284 7.63 5.95 12.93
2/12/2023 11:15:00 AM 2.05 35.69 0.284 7.63 5.91 12.96
2/12/2023 11:30:00 AM 2.21 35.978 0.285 7.63 5.57 12.96
2/12/2023 11:45:00 AM 2.36 36.248 0.285 7.63 5.53 12.99
2/12/2023 12:00:00 PM 2.52 36.536 0.286 7.64 5.41 12.98
2/12/2023 12:15:00 PM 2.7 36.86 0.287 7.65 5.7 12.97
2/12/2023 12:30:00 PM 2.91 37.238 0.293 7.65 5.75 12.95
2/12/2023 12:45:00 PM 3.06 37.508 0.289 7.65 5.65 12.96
2/12/2023 1:00:00 PM 3.25 37.85 0.29 7.65 5.59 12.95
2/12/2023 1:15:00 PM 3.42 38.156 0.292 7.65 6.03 12.92
2/12/2023 1:30:00 PM 3.6 38.48 0.292 7.65 5.78 12.87
2/12/2023 1:45:00 PM 3.77 38.786 0.293 7.66 6.27 12.81
2/12/2023 2:00:00 PM 3.92 39.056 0.294 7.67 6.39 12.82
2/12/2023 2:15:00 PM 4.05 39.29 0.294 7.67 6.32 12.81
2/12/2023 2:30:00 PM 4.2 39.56 0.294 7.68 6.39 12.77
2/12/2023 2:45:00 PM 4.31 39.758 0.294 7.68 6.17 12.75
2/12/2023 3:00:00 PM 4.43 39.974 0.294 7.69 10.76 12.72
2/12/2023 3:15:00 PM 4.53 40.154 0.296 7.67 6.53 12.68
2/12/2023 3:30:00 PM 4.59 40.262 0.296 7.68 6.45 12.66
2/12/2023 3:45:00 PM 4.67 40.406 0.299 7.68 6.36 12.62
2/12/2023 4:00:00 PM 4.7 40.46 0.298 7.69 6.28 12.58
2/12/2023 4:15:00 PM 4.7 40.46 0.294 7.69 6.35 12.54
2/12/2023 4:30:00 PM 4.69 40.442 0.293 7.69 6.24 12.51
2/12/2023 4:45:00 PM 4.67 40.406 0.29 7.69 6.63 12.49
2/12/2023 5:00:00 PM 4.67 40.406 0.288 7.68 6.25 12.43
2/12/2023 5:15:00 PM 4.65 40.37 0.29 7.68 6.31 12.4
2/12/2023 5:30:00 PM 4.62 40.316 0.29 7.68 5.96 12.34
2/12/2023 5:45:00 PM 4.53 40.154 0.282 7.68 5.97 12.3
2/12/2023 6:00:00 PM 4.48 40.064 0.28 7.67 6.05 12.23
2/12/2023 6:15:00 PM 4.46 40.028 0.279 7.66 6.1 12.19
2/12/2023 6:30:00 PM 4.4 39.92 0.278 7.64 6.4 12.15
2/12/2023 6:45:00 PM 4.31 39.758 0.273 7.63 6.54 12.12
2/12/2023 7:00:00 PM 4.28 39.704 0.276 7.63 7.02 12.06
2/12/2023 7:15:00 PM 4.21 39.578 0.273 7.62 6.87 12.03
2/12/2023 7:30:00 PM 4.14 39.452 0.27 7.61 6.47 12.03
2/12/2023 7:45:00 PM 4.09 39.362 0.27 7.61 6.45 11.98
2/12/2023 8:00:00 PM 3.97 39.146 0.269 7.6 6.46 12
2/12/2023 8:15:00 PM 3.92 39.056 0.271 7.6 6.71 11.99
2/12/2023 8:30:00 PM 3.86 38.948 0.265 7.59 6.59 11.94
2/12/2023 8:45:00 PM 3.75 38.75 0.265 7.58 6.5 11.98
2/12/2023 9:00:00 PM 3.69 38.642 0.266 7.58 6.98 11.93
2/12/2023 9:15:00 PM 3.63 38.534 0.265 7.56 6.29 11.93
2/12/2023 9:30:00 PM 3.54 38.372 0.265 7.57 6.46 11.96
2/12/2023 9:45:00 PM 3.51 38.318 0.265 7.57 6.1 11.92
2/12/2023 10:00:00 PM 3.44 38.192 0.264 7.55 5.59 11.93
2/12/2023 10:15:00 PM 3.36 38.048 0.263 7.57 5.77 11.97
2/12/2023 10:30:00 PM 3.32 37.976 0.264 7.57 5.48 11.91
2/12/2023 10:45:00 PM 3.27 37.886 0.266 7.56 5.33 11.94
2/12/2023 11:00:00 PM 3.27 37.886 0.269 7.55 5.39 11.92
2/12/2023 11:15:00 PM 3.2 37.76 0.265 7.55 5.4 11.93
2/12/2023 11:30:00 PM 3.12 37.616 0.263 7.55 5.31 11.95
2/12/2023 11:45:00 PM 3.06 37.508 0.263 7.55 5.25 11.97
2/13/2023 12:00:00 AM 3.05 37.49 0.265 7.55 5.05 11.96
2/13/2023 12:15:00 AM 2.95 37.31 0.264 7.55 4.84 11.99
2/13/2023 12:30:00 AM 2.91 37.238 0.267 7.55 4.98 12
2/13/2023 12:45:00 AM 2.86 37.148 0.266 7.55 4.83 12
2/13/2023 1:00:00 AM 2.81 37.058 0.267 7.55 5.19 12.02
2/13/2023 1:15:00 AM 2.7 36.86 0.265 7.55 4.94 12.05
2/13/2023 1:30:00 AM 2.65 36.77 0.264 7.55 5.16 12.07
2/13/2023 1:45:00 AM 2.62 36.716 0.265 7.55 5.2 12.07
2/13/2023 2:00:00 AM 2.52 36.536 0.265 7.56 4.86 12.11
2/13/2023 2:15:00 AM 2.52 36.536 0.266 7.55 5 12.08
2/13/2023 2:30:00 AM 2.46 36.428 0.267 7.55 5.02 12.11
2/13/2023 2:45:00 AM 2.4 36.32 0.265 7.56 4.84 12.12
2/13/2023 3:00:00 AM 2.38 36.284 0.268 7.56 5.17 12.1
2/13/2023 3:15:00 AM 2.29 36.122 0.266 7.56 5.11 12.14
2/13/2023 3:30:00 AM 2.25 36.05 0.268 7.56 5.17 12.15
2/13/2023 3:45:00 AM 2.21 35.978 0.267 7.56 4.93 12.15
2/13/2023 4:00:00 AM 2.18 35.924 0.267 7.56 5.12 12.17
2/13/2023 4:15:00 AM 2.14 35.852 0.268 7.56 5.11 12.18
2/13/2023 4:30:00 AM 2.1 35.78 0.27 7.57 5.3 12.17
2/13/2023 4:45:00 AM 2.07 35.726 0.27 7.57 5.4 12.16
2/13/2023 5:00:00 AM 2.01 35.618 0.268 7.57 5.34 12.19
2/13/2023 5:15:00 AM 1.99 35.582 0.269 7.57 5.2 12.22
2/13/2023 5:30:00 AM 2.01 35.618 0.273 7.56 5.07 12.16
2/13/2023 5:45:00 AM 1.91 35.438 0.271 7.57 5.32 12.22
2/13/2023 6:00:00 AM 1.87 35.366 0.269 7.57 5.09 12.24
2/13/2023 6:15:00 AM 1.82 35.276 0.268 7.57 5.27 12.22
2/13/2023 6:30:00 AM 1.81 35.258 0.272 7.58 5.04 12.24
2/13/2023 6:45:00 AM 1.75 35.15 0.27 7.57 5.38 12.28
2/13/2023 7:00:00 AM 1.69 35.042 0.269 7.58 5.14 12.27
2/13/2023 7:15:00 AM 1.66 34.988 0.269 7.58 6.02 12.28
2/13/2023 7:30:00 AM 1.62 34.916 0.269 7.56 5.46 12.3
2/13/2023 7:45:00 AM 1.63 34.934 0.271 7.58 5.92 12.31
2/13/2023 8:00:00 AM 1.57 34.826 0.27 7.59 6.08 12.37
2/13/2023 8:15:00 AM 1.59 34.862 0.272 7.58 6.15 12.36
2/13/2023 8:30:00 AM 1.59 34.862 0.276 7.58 6.04 12.44
2/13/2023 8:45:00 AM 1.58 34.844 0.271 7.59 6.06 12.44
2/13/2023 9:00:00 AM 1.6 34.88 0.271 7.59 6.46 12.49
2/13/2023 9:15:00 AM 1.65 34.97 0.271 7.6 6.63 12.5
2/13/2023 9:30:00 AM 1.71 35.078 0.272 7.6 6.04 12.58
2/13/2023 9:45:00 AM 1.8 35.24 0.273 7.59 5.99 12.59
2/13/2023 10:00:00 AM 1.88 35.384 0.272 7.61 5.72 12.63
2/13/2023 10:15:00 AM 1.97 35.546 0.274 7.6 5.85 12.69
2/13/2023 10:30:00 AM 2.07 35.726 0.272 7.61 5.67 12.67
2/13/2023 10:45:00 AM 2.19 35.942 0.273 7.62 5.72 12.72
2/13/2023 11:00:00 AM 2.32 36.176 0.273 7.62 6.22 12.75
2/13/2023 11:15:00 AM 2.48 36.464 0.274 7.62 5.17 12.75
2/13/2023 11:30:00 AM 2.61 36.698 0.274 7.62 5.31 12.78
2/13/2023 11:45:00 AM 2.79 37.022 0.275 7.63 5.43 12.77
2/13/2023 12:00:00 PM 2.95 37.31 0.273 7.63 5.27 12.77
2/13/2023 12:15:00 PM 3.14 37.652 0.276 7.63 5.57 12.8
2/13/2023 12:30:00 PM 3.34 38.012 0.278 7.63 5.37 12.79
2/13/2023 12:45:00 PM 3.49 38.282 0.274 7.64 5.74 12.79
2/13/2023 1:00:00 PM 3.63 38.534 0.274 7.64 6.26 12.77
2/13/2023 1:15:00 PM 3.82 38.876 0.28 7.63 5.29 12.72
2/13/2023 1:30:00 PM 3.87 38.966 0.275 7.64 5.65 12.74
2/13/2023 1:45:00 PM 3.99 39.182 0.278 7.64 5.42 12.69
2/13/2023 2:00:00 PM 4.04 39.272 0.276 7.65 5.14 12.68
2/13/2023 2:15:00 PM 4.1 39.38 0.275 7.65 5.44 12.66
2/13/2023 2:30:00 PM 4.16 39.488 0.276 7.65 5.43 12.65
2/13/2023 2:45:00 PM 4.25 39.65 0.276 7.65 5.42 12.62
2/13/2023 3:00:00 PM 4.34 39.812 0.277 7.66 4.87 12.6
2/13/2023 3:15:00 PM 4.39 39.902 0.275 7.65 5.28 12.59
2/13/2023 3:30:00 PM 4.45 40.01 0.275 7.65 5.47 12.57
2/13/2023 3:45:00 PM 4.48 40.064 0.276 7.67 5.31 12.53
2/13/2023 4:00:00 PM 4.5 40.1 0.275 7.67 5.58 12.47
2/13/2023 4:15:00 PM 4.53 40.154 0.273 7.67 5.35 12.45
2/13/2023 4:30:00 PM 4.57 40.226 0.275 7.66 5.58 12.42
2/13/2023 4:45:00 PM 4.55 40.19 0.274 7.66 7.08 12.37
2/13/2023 5:00:00 PM 4.54 40.172 0.274 7.66 5.54 12.29
2/13/2023 5:15:00 PM 4.53 40.154 0.275 7.66 5.76 12.25
2/13/2023 5:30:00 PM 4.55 40.19 0.282 7.64 5.54 12.19
2/13/2023 5:45:00 PM 4.55 40.19 0.277 7.64 5.51 12.1
2/13/2023 6:00:00 PM 4.52 40.136 0.275 7.64 5.51 12.09
2/13/2023 6:15:00 PM 4.49 40.082 0.275 7.63 5.29 12.03
2/13/2023 6:30:00 PM 4.48 40.064 0.274 7.63 4.95 11.97
2/13/2023 6:45:00 PM 4.45 40.01 0.272 7.61 5.47 11.9
2/13/2023 7:00:00 PM 4.47 40.046 0.276 7.61 5.27 11.84
2/13/2023 7:15:00 PM 4.41 39.938 0.274 7.61 5.23 11.84
2/13/2023 7:30:00 PM 4.43 39.974 0.273 7.61 5.14 11.81
2/13/2023 7:45:00 PM 4.32 39.776 0.27 7.6 5.29 11.8
2/13/2023 8:00:00 PM 4.32 39.776 0.269 7.6 5.12 11.77
2/13/2023 8:15:00 PM 4.33 39.794 0.273 7.59 5.61 11.73
2/13/2023 8:30:00 PM 4.28 39.704 0.271 7.59 5.51 11.71
2/13/2023 8:45:00 PM 4.24 39.632 0.269 7.58 5.48 11.7
2/13/2023 9:00:00 PM 4.17 39.506 0.267 7.59 5.23 11.7
2/13/2023 9:15:00 PM 4.13 39.434 0.268 7.57 5.38 11.72
2/13/2023 9:30:00 PM 4.07 39.326 0.267 7.57 5.36 11.72
2/13/2023 9:45:00 PM 4.01 39.218 0.268 7.57 7.12 11.71
2/13/2023 10:00:00 PM 3.96 39.128 0.268 7.57 5.62 11.71
2/13/2023 10:15:00 PM 3.89 39.002 0.27 7.57 5.37 11.74
2/13/2023 10:30:00 PM 3.84 38.912 0.267 7.57 5.46 11.73
2/13/2023 10:45:00 PM 3.78 38.804 0.268 7.56 5.39 11.75
2/13/2023 11:00:00 PM 3.72 38.696 0.266 7.57 5.52 11.77
2/13/2023 11:15:00 PM 3.7 38.66 0.27 7.56 5.42 11.78
2/13/2023 11:30:00 PM 3.64 38.552 0.267 7.56 5.57 11.77
2/13/2023 11:45:00 PM 3.6 38.48 0.265 7.56 5.4 11.79
2/14/2023 12:00:00 AM 3.56 38.408 0.267 7.56 5.26 11.8
2/14/2023 12:15:00 AM 3.56 38.408 0.268 7.56 5.59 11.78
2/14/2023 12:30:00 AM 3.55 38.39 0.268 7.56 5.38 11.77
2/14/2023 12:45:00 AM 3.52 38.336 0.268 7.55 5.22 11.81
2/14/2023 1:00:00 AM 3.49 38.282 0.266 7.56 5.18 11.79
2/14/2023 1:15:00 AM 3.44 38.192 0.264 7.55 5.4 11.83
2/14/2023 1:30:00 AM 3.43 38.174 0.266 7.55 5.72 11.83
2/14/2023 1:45:00 AM 3.34 38.012 0.266 7.55 5.58 11.86
2/14/2023 2:00:00 AM 3.27 37.886 0.265 7.56 5.48 11.9
2/14/2023 2:15:00 AM 3.25 37.85 0.266 7.56 5.27 11.87
2/14/2023 2:30:00 AM 3.2 37.76 0.269 7.56 5.24 11.9
2/14/2023 2:45:00 AM 3.16 37.688 0.274 7.56 5.25 11.9
2/14/2023 3:00:00 AM 3.08 37.544 0.27 7.56 5.2 11.94
2/14/2023 3:15:00 AM 3.05 37.49 0.269 7.56 5.2 11.94
2/14/2023 3:30:00 AM 3.03 37.454 0.272 7.56 5.03 11.94
2/14/2023 3:45:00 AM 3.02 37.436 0.273 7.56 5.13 11.94
2/14/2023 4:00:00 AM 2.91 37.238 0.268 7.57 5.2 11.99
2/14/2023 4:15:00 AM 2.88 37.184 0.266 7.57 5.23 12.01
2/14/2023 4:30:00 AM 2.85 37.13 0.266 7.56 5.09 11.97
2/14/2023 4:45:00 AM 2.8 37.04 0.265 7.56 5.21 12.01
2/14/2023 5:00:00 AM 2.81 37.058 0.268 7.56 5.15 12
2/14/2023 5:15:00 AM 2.76 36.968 0.266 7.56 5.24 12.01
2/14/2023 5:30:00 AM 2.7 36.86 0.268 7.56 5.37 12.04
2/14/2023 5:45:00 AM 2.67 36.806 0.267 7.57 5.03 12.05
2/14/2023 6:00:00 AM 2.62 36.716 0.266 7.56 5.34 12.06
2/14/2023 6:15:00 AM 2.57 36.626 0.266 7.56 5.27 12.09
2/14/2023 6:30:00 AM 2.54 36.572 0.265 7.57 5.5 12.12
2/14/2023 6:45:00 AM 2.48 36.464 0.264 7.57 5.92 12.14
2/14/2023 7:00:00 AM 2.44 36.392 0.264 7.56 5.44 12.12
2/14/2023 7:15:00 AM 2.39 36.302 0.264 7.56 5.78 12.15
2/14/2023 7:30:00 AM 2.34 36.212 0.265 7.56 5.58 12.18
2/14/2023 7:45:00 AM 2.33 36.194 0.264 7.57 5.73 12.19
2/14/2023 8:00:00 AM 2.31 36.158 0.263 7.57 6.38 12.22
2/14/2023 8:15:00 AM 2.28 36.104 0.264 7.57 5.98 12.29
2/14/2023 8:30:00 AM 2.29 36.122 0.264 7.57 5.69 12.3
2/14/2023 8:45:00 AM 2.3 36.14 0.264 7.58 5.5 12.33
2/14/2023 9:00:00 AM 2.34 36.212 0.265 7.58 5.69 12.37
2/14/2023 9:15:00 AM 2.38 36.284 0.266 7.58 5.54 12.45
2/14/2023 9:30:00 AM 2.43 36.374 0.266 7.59 5.38 12.47
2/14/2023 9:45:00 AM 2.53 36.554 0.265 7.59 5.28 12.52
2/14/2023 10:00:00 AM 2.58 36.644 0.264 7.6 5.72 12.56
2/14/2023 10:15:00 AM 2.66 36.788 0.263 7.59 5.44 12.6
2/14/2023 10:30:00 AM 2.75 36.95 0.263 7.6 5.28 12.63
2/14/2023 10:45:00 AM 2.84 37.112 0.262 7.6 5.32 12.68
2/14/2023 11:00:00 AM 2.97 37.346 0.264 7.61 5.12 12.71
2/14/2023 11:15:00 AM 3.07 37.526 0.262 7.61 5.16 12.74
2/14/2023 11:30:00 AM 3.2 37.76 0.264 7.61 5.3 12.76
2/14/2023 11:45:00 AM 3.34 38.012 0.265 7.61 5.2 12.77
2/14/2023 12:00:00 PM 3.5 38.3 0.265 7.62 5.16 12.79
2/14/2023 12:15:00 PM 3.65 38.57 0.265 7.63 5.23 12.82
2/14/2023 12:30:00 PM 3.85 38.93 0.265 7.63 5 12.78
2/14/2023 12:45:00 PM 4.01 39.218 0.265 7.63 5.02 12.81
2/14/2023 1:00:00 PM 4.17 39.506 0.264 7.64 4.97 12.8
2/14/2023 1:15:00 PM 4.32 39.776 0.262 7.63 5.06 12.79
2/14/2023 1:30:00 PM 4.47 40.046 0.263 7.64 5.06 12.78
2/14/2023 1:45:00 PM 4.6 40.28 0.263 7.64 5.11 12.77
2/14/2023 2:00:00 PM 4.74 40.532 0.263 7.65 5.79 12.75
2/14/2023 2:15:00 PM 4.86 40.748 0.262 7.65 4.74 12.72
2/14/2023 2:30:00 PM 5 41 0.264 7.66 4.79 12.67
2/14/2023 2:45:00 PM 5.09 41.162 0.264 7.66 4.97 12.65
2/14/2023 3:00:00 PM 5.19 41.342 0.264 7.66 69.35 12.63
2/14/2023 3:15:00 PM 5.27 41.486 0.265 7.67 5.18 12.6
2/14/2023 3:30:00 PM 5.32 41.576 0.265 7.66 5.08 12.54
2/14/2023 3:45:00 PM 5.37 41.666 0.265 7.67 4.94 12.52
2/14/2023 4:00:00 PM 5.41 41.738 0.265 7.67 5.05 12.46
2/14/2023 4:15:00 PM 5.41 41.738 0.265 7.67 5.14 12.42
2/14/2023 4:30:00 PM 5.43 41.774 0.265 7.67 17547.22 12.38
2/14/2023 4:45:00 PM 5.43 41.774 0.266 7.66 5.11 12.31
2/14/2023 5:00:00 PM 5.45 41.81 0.267 7.66 5.32 12.26
2/14/2023 5:15:00 PM 5.41 41.738 0.265 7.67 4.93 12.23
2/14/2023 5:30:00 PM 5.42 41.756 0.27 7.66 5.29 12.11
2/14/2023 5:45:00 PM 5.38 41.684 0.269 7.66 5.16 12.07
2/14/2023 6:00:00 PM 5.31 41.558 0.267 7.66 5.23 12.02
2/14/2023 6:15:00 PM 5.32 41.576 0.272 7.64 5.09 11.87
2/14/2023 6:30:00 PM 5.22 41.396 0.267 7.65 5.21 11.89
2/14/2023 6:45:00 PM 5.21 41.378 0.273 7.64 5.4 11.84
2/14/2023 7:00:00 PM 5.13 41.234 0.27 7.64 5.39 11.81
2/14/2023 7:15:00 PM 5.1 41.18 0.273 7.63 7.05 11.75
2/14/2023 7:30:00 PM 5.04 41.072 0.27 7.62 6.01 11.73
2/14/2023 7:45:00 PM 5.02 41.036 0.273 7.62 5.44 11.7
2/14/2023 8:00:00 PM 4.94 40.892 0.271 7.62 5.49 11.68
2/14/2023 8:15:00 PM 4.88 40.784 0.272 7.62 5.33 11.67
2/14/2023 8:30:00 PM 4.83 40.694 0.274 7.61 5.7 11.65
2/14/2023 8:45:00 PM 4.77 40.586 0.274 7.61 5.42 11.62
2/14/2023 9:00:00 PM 4.7 40.46 0.273 7.62 5.44 11.6
2/14/2023 9:15:00 PM 4.64 40.352 0.273 7.6 5.49 11.61
2/14/2023 9:30:00 PM 4.59 40.262 0.274 7.6 5.27 11.59
2/14/2023 9:45:00 PM 4.51 40.118 0.273 7.59 5.51 11.6
2/14/2023 10:00:00 PM 4.45 40.01 0.272 7.59 5.42 11.61
2/14/2023 10:15:00 PM 4.38 39.884 0.271 7.58 5.75 11.62
2/14/2023 10:30:00 PM 4.33 39.794 0.27 7.57 5.67 11.59
2/14/2023 10:45:00 PM 4.31 39.758 0.27 7.57 6.02 11.59
2/14/2023 11:00:00 PM 4.24 39.632 0.268 7.56 7.05 11.62
2/14/2023 11:15:00 PM 4.24 39.632 0.268 7.52 5.39 11.58
2/14/2023 11:30:00 PM 4.2 39.56 0.267 7.55 5.67 11.57
2/14/2023 11:45:00 PM 4.18 39.524 0.27 7.53 5.78 11.57
2/15/2023 12:00:00 AM 4.13 39.434 0.265 7.53 5.86 11.6
2/15/2023 12:15:00 AM 4.13 39.434 0.272 7.5 5.56 11.56
2/15/2023 12:30:00 AM 4.07 39.326 0.266 7.54 5.57 11.62
2/15/2023 12:45:00 AM 4.05 39.29 0.269 7.54 5.62 11.61
2/15/2023 1:00:00 AM 4.03 39.254 0.278 7.55 5.59 11.62
2/15/2023 1:15:00 AM 4.03 39.254 0.281 7.53 5.95 11.61
2/15/2023 1:30:00 AM 3.97 39.146 0.275 7.54 5.65 11.65
2/15/2023 1:45:00 AM 3.97 39.146 0.275 7.54 5.9 11.61
2/15/2023 2:00:00 AM 3.88 38.984 0.275 7.55 5.67 11.67
2/15/2023 2:15:00 AM 3.86 38.948 0.272 7.54 5.35 11.65
2/15/2023 2:30:00 AM 3.84 38.912 0.269 7.54 5.26 11.68
2/15/2023 2:45:00 AM 3.82 38.876 0.27 7.54 5.17 11.67
2/15/2023 3:00:00 AM 3.86 38.948 0.281 7.53 5.36 11.66
2/15/2023 3:15:00 AM 3.78 38.804 0.269 7.54 5.53 11.71
2/15/2023 3:30:00 AM 3.83 38.894 0.273 7.54 5.37 11.68
2/15/2023 3:45:00 AM 3.8 38.84 0.271 7.54 5.23 11.64
2/15/2023 4:00:00 AM 3.79 38.822 0.271 7.54 5.28 11.69
2/15/2023 4:15:00 AM 3.78 38.804 0.273 7.53 5.24 11.71
2/15/2023 4:30:00 AM 3.77 38.786 0.273 7.54 5.58 11.69
2/15/2023 4:45:00 AM 3.81 38.858 0.273 7.53 5.4 11.68
2/15/2023 5:00:00 AM 3.76 38.768 0.271 7.54 5.59 11.72
2/15/2023 5:15:00 AM 3.83 38.894 0.284 7.54 5.39 11.66
2/15/2023 5:30:00 AM 3.74 38.732 0.274 7.54 5.98 11.7
2/15/2023 5:45:00 AM 3.81 38.858 0.274 7.53 5.7 11.67
2/15/2023 6:00:00 AM 3.78 38.804 0.275 7.53 5.68 11.69
2/15/2023 6:15:00 AM 3.83 38.894 0.274 7.54 5.68 11.63
2/15/2023 6:30:00 AM 3.78 38.804 0.271 7.52 11.86 11.68
2/15/2023 6:45:00 AM 3.86 38.948 0.29 7.52 5.43 11.61
2/15/2023 7:00:00 AM 3.81 38.858 0.276 7.53 5.53 11.63
2/15/2023 7:15:00 AM 3.81 38.858 0.27 7.52 5.23 11.62
2/15/2023 7:30:00 AM 3.79 38.822 0.271 7.52 5.23 11.68
2/15/2023 7:45:00 AM 3.84 38.912 0.273 7.52 5.23 11.68
2/15/2023 8:00:00 AM 3.83 38.894 0.271 7.52 5.14 11.69
2/15/2023 8:15:00 AM 3.95 39.11 0.284 7.54 4.97 11.67
2/15/2023 8:30:00 AM 3.91 39.038 0.274 7.54 5.34 11.76
2/15/2023 8:45:00 AM 3.93 39.074 0.276 7.54 23.07 11.8
2/15/2023 9:00:00 AM 4.01 39.218 0.278 7.54 215.85 11.82
2/15/2023 9:15:00 AM 4.02 39.236 0.272 7.56 5.94 11.91
2/15/2023 9:30:00 AM 4.1 39.38 0.275 7.55 5.15 11.94
2/15/2023 9:45:00 AM 4.22 39.596 0.278 7.56 5.63 11.89
2/15/2023 10:00:00 AM 4.27 39.686 0.275 7.57 5.13 12.01
2/15/2023 10:15:00 AM 4.4 39.92 0.276 7.58 5.04 12
2/15/2023 10:30:00 AM 4.53 40.154 0.278 7.58 5.21 12.05
2/15/2023 10:45:00 AM 4.64 40.352 0.275 7.59 5.28 12.11
2/15/2023 11:00:00 AM 4.75 40.55 0.276 7.6 6.73 12.09
2/15/2023 11:15:00 AM 4.91 40.838 0.277 7.61 4.98 12.14
2/15/2023 11:30:00 AM 5.04 41.072 0.277 7.61 5.07 12.2
2/15/2023 11:45:00 AM 5.21 41.378 0.278 7.61 5.19 12.23
2/15/2023 12:00:00 PM 5.41 41.738 0.284 7.62 5.11 12.2
2/15/2023 12:15:00 PM 5.58 42.044 0.277 7.63 5.14 12.26
2/15/2023 12:30:00 PM 5.79 42.422 0.294 7.63 4.64 12.2
2/15/2023 12:45:00 PM 5.95 42.71 0.279 7.65 5.25 12.23
2/15/2023 1:00:00 PM 6.13 43.034 0.277 7.65 4.36 12.2
2/15/2023 1:15:00 PM 6.33 43.394 0.283 7.67 4.62 12.16
2/15/2023 1:30:00 PM 6.48 43.664 0.279 7.66 4.32 12.2
2/15/2023 1:45:00 PM 6.66 43.988 0.284 7.64 4.27 12.12
2/15/2023 2:00:00 PM 6.79 44.222 0.286 7.68 5.33 12.12
2/15/2023 2:15:00 PM 6.93 44.474 0.282 7.68 4.61 12.11
2/15/2023 2:30:00 PM 7.1 44.78 0.288 7.66 4.44 11.98
2/15/2023 2:45:00 PM 7.18 44.924 0.277 7.68 4.43 12.03
2/15/2023 3:00:00 PM 7.27 45.086 0.278 7.7 4.46 12.06
2/15/2023 3:15:00 PM 7.37 45.266 0.282 7.68 4.23 11.97
2/15/2023 3:30:00 PM 7.44 45.392 0.276 7.68 4.17 12.01
2/15/2023 3:45:00 PM 7.51 45.518 0.282 7.68 4.19 11.91
2/15/2023 4:00:00 PM 7.54 45.572 0.275 7.69 4.31 11.85
2/15/2023 4:15:00 PM 7.58 45.644 0.292 7.69 4.09 11.85
2/15/2023 4:30:00 PM 7.61 45.698 0.283 7.67 4.03 11.72
2/15/2023 4:45:00 PM 7.64 45.752 0.282 7.67 4.73 11.62
2/15/2023 5:00:00 PM 7.64 45.752 0.289 7.67 4.61 11.62
2/15/2023 5:15:00 PM 7.63 45.734 0.282 7.66 5.67 11.56
2/15/2023 5:30:00 PM 7.6 45.68 0.275 7.67 4.33 11.48
2/15/2023 5:45:00 PM 7.59 45.662 0.277 7.66 5.08 11.45
2/15/2023 6:00:00 PM 7.58 45.644 0.277 7.64 4.36 11.34
2/15/2023 6:15:00 PM 7.56 45.608 0.283 7.63 3.98 11.24
2/15/2023 6:30:00 PM 7.49 45.482 0.27 7.62 4.5 11.21
2/15/2023 6:45:00 PM 7.49 45.482 0.277 7.61 4.32 11.09
2/15/2023 7:00:00 PM 7.42 45.356 0.271 7.61 4.63 11.14
2/15/2023 7:15:00 PM 7.42 45.356 0.281 7.6 4.46 11.04
2/15/2023 7:30:00 PM 7.34 45.212 0.269 7.59 4.6 11.01
2/15/2023 7:45:00 PM 7.34 45.212 0.276 7.59 4.54 10.97
2/15/2023 8:00:00 PM 7.3 45.14 0.281 7.57 4.31 10.92
2/15/2023 8:15:00 PM 7.26 45.068 0.284 7.56 4.54 10.74
2/15/2023 8:30:00 PM 7.19 44.942 0.276 7.55 4.72 10.85
2/15/2023 8:45:00 PM 7.07 44.726 0.268 7.55 4.29 10.84
2/15/2023 9:00:00 PM 7 44.6 0.268 7.56 4.72 10.87
2/15/2023 9:15:00 PM 6.94 44.492 0.274 7.56 4.59 10.82
2/15/2023 9:30:00 PM 6.89 44.402 0.275 7.54 5.13 10.86
2/15/2023 9:45:00 PM 6.79 44.222 0.281 7.51 4.76 10.83
2/15/2023 10:00:00 PM 6.66 43.988 0.261 7.54 4.84 10.86
2/15/2023 10:15:00 PM 6.61 43.898 0.268 7.53 5.08 10.9
2/15/2023 10:30:00 PM 6.58 43.844 0.287 7.55 4.92 10.89
2/15/2023 10:45:00 PM 6.54 43.772 0.272 7.53 5.6 10.82
2/15/2023 11:00:00 PM 6.48 43.664 0.267 7.52 4.75 10.87
2/15/2023 11:15:00 PM 6.4 43.52 0.262 7.51 4.68 10.83
2/15/2023 11:30:00 PM 6.37 43.466 0.269 7.51 5.13 10.85
2/15/2023 11:45:00 PM 6.35 43.43 0.27 7.54 5.84 10.84
2/16/2023 12:00:00 AM 6.29 43.322 0.271 7.54 5.54 10.9
2/16/2023 12:15:00 AM 6.24 43.232 0.268 7.52 5.35 10.89
2/16/2023 12:30:00 AM 6.24 43.232 0.271 7.52 5.15 10.88
2/16/2023 12:45:00 AM 6.21 43.178 0.271 7.52 5.57 10.9
2/16/2023 1:00:00 AM 6.06 42.908 0.266 7.51 5.7 10.94
2/16/2023 1:15:00 AM 6.06 42.908 0.267 7.53 6.2 10.85
2/16/2023 1:30:00 AM 5.98 42.764 0.273 7.51 5.99 10.96
2/16/2023 1:45:00 AM 5.94 42.692 0.271 7.51 5.49 10.95
2/16/2023 2:00:00 AM 5.83 42.494 0.267 7.51 9.37 10.99
2/16/2023 2:15:00 AM 5.77 42.386 0.258 7.48 5.76 11.03
2/16/2023 2:30:00 AM 5.73 42.314 0.262 7.47 5.27 10.94
2/16/2023 2:45:00 AM 5.65 42.17 0.259 7.48 5.51 11.03
2/16/2023 3:00:00 AM 5.66 42.188 0.257 7.46 5.7 10.95
2/16/2023 3:15:00 AM 5.57 42.026 0.259 7.46 5.59 11
2/16/2023 3:30:00 AM 5.53 41.954 0.27 7.47 5.21 11.04
2/16/2023 3:45:00 AM 5.58 42.044 0.287 7.47 5.49 10.94
2/16/2023 4:00:00 AM 5.39 41.702 0.258 7.49 5.28 11.03
2/16/2023 4:15:00 AM 5.4 41.72 0.259 7.44 5.75 11.02
2/16/2023 4:30:00 AM 5.29 41.522 0.257 7.47 5.36 11.09
2/16/2023 4:45:00 AM 5.2 41.36 0.258 7.51 5.28 11.13
2/16/2023 5:00:00 AM 5.18 41.324 0.262 7.48 5.87 11.11
2/16/2023 5:15:00 AM 5.09 41.162 0.267 7.5 8.01 11.09
2/16/2023 5:30:00 AM 5.11 41.198 0.261 7.47 5.01 11.06
2/16/2023 5:45:00 AM 5.08 41.144 0.264 7.48 5.68 11.04
2/16/2023 6:00:00 AM 4.98 40.964 0.261 7.44 5.61 11.11
2/16/2023 6:15:00 AM 5 41 0.268 7.45 5.46 11.12
2/16/2023 6:30:00 AM 4.94 40.892 0.26 7.44 5.37 11.14
2/16/2023 6:45:00 AM 4.9 40.82 0.268 7.45 5.72 11.01
2/16/2023 7:00:00 AM 4.86 40.748 0.266 7.48 6.22 11.11
2/16/2023 7:15:00 AM 4.81 40.658 0.263 7.46 5.74 11.21
2/16/2023 7:30:00 AM 4.66 40.388 0.255 7.48 5.37 11.25
2/16/2023 7:45:00 AM 4.76 40.568 0.269 7.47 8.27 11.24
2/16/2023 8:00:00 AM 4.64 40.352 0.273 7.44 5.83 11.32
2/16/2023 8:15:00 AM 4.81 40.658 0.297 7.48 6.97 11.22
2/16/2023 8:30:00 AM 4.57 40.226 0.258 7.47 5.67 11.41
2/16/2023 8:45:00 AM 4.63 40.334 0.258 7.48 5.37 11.34
2/16/2023 9:00:00 AM 4.74 40.532 0.275 7.44 5.64 11.48
2/16/2023 9:15:00 AM 4.75 40.55 0.26 7.47 5.04 11.51
2/16/2023 9:30:00 AM 4.71 40.478 0.266 7.5 5.28 11.65
2/16/2023 9:45:00 AM 4.68 40.424 0.265 7.48 4.66 11.64
2/16/2023 10:00:00 AM 4.76 40.568 0.276 7.41 4.87 11.67
2/16/2023 10:15:00 AM 4.77 40.586 0.266 7.53 4.61 11.71
2/16/2023 10:30:00 AM 4.68 40.424 0.266 7.54 5.34 11.9
2/16/2023 10:45:00 AM 4.81 40.658 0.272 7.55 5.51 11.86
2/16/2023 11:00:00 AM 4.83 40.694 0.281 7.53 4.55 11.81
2/16/2023 11:15:00 AM 5.02 41.036 0.289 7.54 4.77 11.82
2/16/2023 11:30:00 AM 5.01 41.018 0.281 7.56 4.17 11.88
2/16/2023 11:45:00 AM 5 41 0.287 7.58 4.05 11.97
2/16/2023 12:00:00 PM 4.95 40.91 0.266 7.57 4.6 12.15
2/16/2023 12:15:00 PM 5.23 41.414 0.277 7.56 4.62 11.91
2/16/2023 12:30:00 PM 5.09 41.162 0.266 7.54 5.05 12.11
2/16/2023 12:45:00 PM 5.25 41.45 0.281 7.51 4.23 12.06
2/16/2023 1:00:00 PM 5.47 41.846 0.288 7.56 4.94 11.7
2/16/2023 1:15:00 PM 5.27 41.486 0.264 7.61 4.54 12.11
2/16/2023 1:30:00 PM 5.44 41.792 0.282 7.57 4.29 12.05
2/16/2023 1:45:00 PM 5.5 41.9 0.271 7.53 4.41 11.96
2/16/2023 2:00:00 PM 5.5 41.9 0.28 7.6 4.33 12.06
2/16/2023 2:15:00 PM 5.62 42.116 0.274 7.56 4.48 11.94
2/16/2023 2:30:00 PM 5.51 41.918 0.266 7.6 4.59 12.16
2/16/2023 2:45:00 PM 5.51 41.918 0.261 7.63 5.23 12.29
2/16/2023 3:00:00 PM 5.59 42.062 0.263 7.6 5.09 12.27
2/16/2023 3:15:00 PM 5.76 42.368 0.272 7.61 4.64 12.1
2/16/2023 3:30:00 PM 5.73 42.314 0.264 7.62 4.79 12.13
2/16/2023 3:45:00 PM 5.88 42.584 0.282 7.61 4.51 12.03
2/16/2023 4:00:00 PM 6 42.8 0.273 7.59 3.92 11.83
2/16/2023 4:15:00 PM 6.03 42.854 0.281 7.6 5.07 11.79
2/16/2023 4:30:00 PM 5.99 42.782 0.279 7.59 5.7 11.88
2/16/2023 4:45:00 PM 6.01 42.818 0.301 7.61 5.02 11.84
2/16/2023 5:00:00 PM 5.98 42.764 0.274 7.57 4.43 11.84
2/16/2023 5:15:00 PM 5.93 42.674 0.268 7.61 5.01 11.89
2/16/2023 5:30:00 PM 5.91 42.638 0.265 7.58 4.85 11.89
2/16/2023 5:45:00 PM 6 42.8 0.274 7.58 4.78 11.76
2/16/2023 6:00:00 PM 6 42.8 0.279 7.54 4.57 11.6
2/16/2023 6:15:00 PM 5.97 42.746 0.266 7.55 4.54 11.67
2/16/2023 6:30:00 PM 6.02 42.836 0.267 7.51 4.6 11.51
2/16/2023 6:45:00 PM 6.15 43.07 0.305 7.51 4.23 11.43
2/16/2023 7:00:00 PM 6.06 42.908 0.27 7.54 4.52 11.44
2/16/2023 7:15:00 PM 5.99 42.782 0.27 7.58 4.52 11.43
2/16/2023 7:30:00 PM 6.08 42.944 0.281 7.56 4.18 11.36
2/16/2023 7:45:00 PM 6.04 42.872 0.282 7.55 8.05 11.24
2/16/2023 8:00:00 PM 6.05 42.89 0.281 7.54 5.25 11.28
2/16/2023 8:15:00 PM 6.06 42.908 0.284 7.52 4.83 11.19
2/16/2023 8:30:00 PM 6.01 42.818 0.281 7.51 4.79 11.19
2/16/2023 8:45:00 PM 6.09 42.962 0.285 7.52 4.79 11.04
2/16/2023 9:00:00 PM 6.1 42.98 0.311 7.54 4.49 11.01
2/16/2023 9:15:00 PM 5.96 42.728 0.278 7.54 4.86 11.2
2/16/2023 9:30:00 PM 6.07 42.926 0.278 7.5 4.95 11.06
2/16/2023 9:45:00 PM 6.02 42.836 0.278 7.53 5.1 11.16
2/16/2023 10:00:00 PM 6.07 42.926 0.281 7.51 4.09 11
2/16/2023 10:15:00 PM 6.15 43.07 0.28 7.51 4.49 10.89
2/16/2023 10:30:00 PM 6.2 43.16 0.284 7.52 4.78 10.87
2/16/2023 10:45:00 PM 6.2 43.16 0.295 7.5 4.63 10.92
2/16/2023 11:00:00 PM 6.09 42.962 0.273 7.51 4.45 11.03
2/16/2023 11:15:00 PM 6.19 43.142 0.284 7.51 4.7 10.92
2/16/2023 11:30:00 PM 6.18 43.124 0.291 7.52 4.81 10.94
2/16/2023 11:45:00 PM 6.22 43.196 0.291 7.52 4.99 10.87
2/17/2023 12:00:00 AM 6.18 43.124 0.281 7.51 5.03 10.89
2/17/2023 12:15:00 AM 6.23 43.214 0.286 7.51 5.15 10.91
2/17/2023 12:30:00 AM 6.21 43.178 0.286 7.52 4.73 10.84
2/17/2023 12:45:00 AM 6.32 43.376 0.3 7.52 4.45 10.81
2/17/2023 1:00:00 AM 6.28 43.304 0.284 7.53 4.74 10.78
2/17/2023 1:15:00 AM 6.35 43.43 0.31 7.5 4.27 10.8
2/17/2023 1:30:00 AM 6.29 43.322 0.292 7.48 4.99 10.81
2/17/2023 1:45:00 AM 6.37 43.466 0.29 7.51 4.84 10.78
2/17/2023 2:00:00 AM 6.3 43.34 0.287 7.5 4.53 10.86
2/17/2023 2:15:00 AM 6.27 43.286 0.28 7.51 4.53 10.7
2/17/2023 2:30:00 AM 6.41 43.538 0.295 7.51 4.03 10.68
2/17/2023 2:45:00 AM 6.34 43.412 0.293 7.5 4.41 10.51
2/17/2023 3:00:00 AM 6.33 43.394 0.292 7.49 4.97 10.55
2/17/2023 3:15:00 AM 6.34 43.412 0.284 7.49 4.71 10.7
2/17/2023 3:30:00 AM 6.39 43.502 0.291 7.5 4.95 10.55
2/17/2023 3:45:00 AM 6.39 43.502 0.287 7.5 4.97 10.5
2/17/2023 4:00:00 AM 6.41 43.538 0.293 7.5 4.91 10.53
2/17/2023 4:15:00 AM 6.45 43.61 0.288 7.48 3.91 10.55
2/17/2023 4:30:00 AM 6.45 43.61 0.305 7.5 4.93 10.47
2/17/2023 4:45:00 AM 6.43 43.574 0.303 7.48 5.14 10.41
2/17/2023 5:00:00 AM 6.42 43.556 0.302 7.48 5.25 10.53
2/17/2023 5:15:00 AM 6.42 43.556 0.306 7.46 5.17 10.49
2/17/2023 5:30:00 AM 6.35 43.43 0.299 7.49 4.88 10.56
2/17/2023 5:45:00 AM 6.52 43.736 0.292 7.49 5.29 10.5
2/17/2023 6:00:00 AM 6.48 43.664 0.309 7.5 4.78 10.46
2/17/2023 6:15:00 AM 6.53 43.754 0.323 7.5 5.01 10.44
2/17/2023 6:30:00 AM 6.47 43.646 0.313 7.48 4.6 10.47
2/17/2023 6:45:00 AM 6.53 43.754 0.292 7.48 4.11 10.3
2/17/2023 7:00:00 AM 6.49 43.682 0.284 7.5 5.43 10.38
2/17/2023 7:15:00 AM 6.52 43.736 0.309 7.5 6.15 10.55
2/17/2023 7:30:00 AM 6.75 44.15 0.313 7.48 4.98 10.11
2/17/2023 7:45:00 AM 6.48 43.664 0.285 7.5 5.38 10.53
2/17/2023 8:00:00 AM 6.54 43.772 0.292 7.48 5.11 10.47
2/17/2023 8:15:00 AM 6.55 43.79 0.301 7.48 4.89 10.52
2/17/2023 8:30:00 AM 6.56 43.808 0.297 7.49 5.14 10.59
2/17/2023 8:45:00 AM 6.56 43.808 0.308 7.5 4.86 10.49
2/17/2023 9:00:00 AM 6.56 43.808 0.314 7.51 6.21 10.38
2/17/2023 9:15:00 AM 6.58 43.844 0.326 7.47 6.41 10.29
2/17/2023 9:30:00 AM 6.46 43.628 0.318 7.5 8.2 10.54
2/17/2023 9:45:00 AM 6.45 43.61 0.326 7.52 7.88 10.49
2/17/2023 10:00:00 AM 6.35 43.43 0.311 7.51 7.91 10.62
2/17/2023 10:15:00 AM 6.53 43.754 0.342 7.51 6.99 10.46
2/17/2023 10:30:00 AM 6.37 43.466 0.327 7.49 7.88 10.4
2/17/2023 10:45:00 AM 6.44 43.592 0.354 7.53 5.72 10.18
2/17/2023 11:00:00 AM 6.23 43.214 0.319 7.53 6.5 10.49
2/17/2023 11:15:00 AM 6.5 43.7 0.3 7.5 4.47 10.46
2/17/2023 11:30:00 AM 6.3 43.34 0.314 7.46 5.86 10.78
2/17/2023 11:45:00 AM 6.25 43.25 0.315 7.56 5.16 10.87
2/17/2023 12:00:00 PM 6.2 43.16 0.299 7.46 4.05 11.11
2/17/2023 12:15:00 PM 6.23 43.214 0.318 7.57 5.65 10.97
2/17/2023 12:30:00 PM 6.18 43.124 0.342 7.5 5.22 11.25
2/17/2023 12:45:00 PM 6.34 43.412 0.292 7.5 4.1 11.05
2/17/2023 1:00:00 PM 6.38 43.484 0.335 7.53 5.13 11.19
2/17/2023 1:15:00 PM 6.18 43.124 0.3 7.61 5.46 11.48
2/17/2023 1:30:00 PM 6 42.8 0.298 7.6 4.78 11.58
2/17/2023 1:45:00 PM 6 42.8 0.298 7.58 4.8 11.52
2/17/2023 2:00:00 PM 6.01 42.818 0.289 7.62 5.48 11.57
2/17/2023 2:15:00 PM 6.03 42.854 0.319 7.6 5.35 11.59
2/17/2023 2:30:00 PM 5.88 42.584 0.291 7.62 5.04 11.73
2/17/2023 2:45:00 PM 5.82 42.476 0.309 7.62 5.3 11.72
2/17/2023 3:00:00 PM 5.79 42.422 0.278 7.64 5.73 11.63
2/17/2023 3:15:00 PM 5.77 42.386 0.292 7.62 5.86 11.63
2/17/2023 3:30:00 PM 5.81 42.458 0.305 7.59 4.61 11.62
2/17/2023 3:45:00 PM 5.78 42.404 0.314 7.63 5.21 11.62
2/17/2023 4:00:00 PM 5.56 42.008 0.269 7.62 5.07 11.76
2/17/2023 4:15:00 PM 5.53 41.954 0.275 7.61 5.69 11.67
2/17/2023 4:30:00 PM 5.45 41.81 0.275 7.61 5.21 11.72
2/17/2023 4:45:00 PM 5.38 41.684 0.267 7.61 5.75 11.6
2/17/2023 5:00:00 PM 5.28 41.504 0.284 7.58 6.04 11.66
2/17/2023 5:15:00 PM 5.32 41.576 0.284 7.58 5.56 11.58
2/17/2023 5:30:00 PM 5.19 41.342 0.287 7.59 5.45 11.55
2/17/2023 5:45:00 PM 4.94 40.892 0.27 7.59 5.55 11.67
2/17/2023 6:00:00 PM 4.82 40.676 0.263 7.58 5.73 11.64
2/17/2023 6:15:00 PM 4.85 40.73 0.268 7.55 5.14 11.51
2/17/2023 6:30:00 PM 4.6 40.28 0.257 7.57 6.51 11.7
2/17/2023 6:45:00 PM 4.58 40.244 0.262 7.56 5.98 11.66
2/17/2023 7:00:00 PM 4.47 40.046 0.259 7.57 6.01 11.65
2/17/2023 7:15:00 PM 4.36 39.848 0.255 7.57 6.46 11.69
2/17/2023 7:30:00 PM 4.37 39.866 0.265 7.55 6.49 11.6
2/17/2023 7:45:00 PM 4.29 39.722 0.257 7.54 6.57 11.59
2/17/2023 8:00:00 PM 4.16 39.488 0.258 7.56 6.12 11.67
2/17/2023 8:15:00 PM 4.06 39.308 0.251 7.53 6.06 11.7
2/17/2023 8:30:00 PM 4.07 39.326 0.262 7.54 6.7 11.65
2/17/2023 8:45:00 PM 4.05 39.29 0.26 7.54 6.7 11.67
2/17/2023 9:00:00 PM 3.95 39.11 0.257 7.54 6.69 11.71
2/17/2023 9:15:00 PM 3.91 39.038 0.261 7.54 6.14 11.64
2/17/2023 9:30:00 PM 3.88 38.984 0.26 7.54 6.22 11.63
2/17/2023 9:45:00 PM 3.8 38.84 0.281 7.53 6.21 11.69
2/17/2023 10:00:00 PM 3.65 38.57 0.26 7.54 6.1 11.71
2/17/2023 10:15:00 PM 3.58 38.444 0.257 7.54 6.17 11.72
2/17/2023 10:30:00 PM 3.54 38.372 0.26 7.53 6.25 11.72
2/17/2023 10:45:00 PM 3.49 38.282 0.262 7.53 6.12 11.76
2/17/2023 11:00:00 PM 3.41 38.138 0.266 7.54 6.13 11.74
2/17/2023 11:15:00 PM 3.34 38.012 0.26 7.54 6.47 11.77
2/17/2023 11:30:00 PM 3.27 37.886 0.261 7.53 5.84 11.82
2/17/2023 11:45:00 PM 3.23 37.814 0.259 7.53 5.83 11.83
2/18/2023 12:00:00 AM 3.22 37.796 0.264 7.54 5.86 11.84
2/18/2023 12:15:00 AM 3.15 37.67 0.262 7.52 5.71 11.86
2/18/2023 12:30:00 AM 3.1 37.58 0.27 7.54 6.16 11.88
2/18/2023 12:45:00 AM 3 37.4 0.274 7.55 14.83 11.86
2/18/2023 1:00:00 AM 3.04 37.472 0.275 7.54 5.7 11.91
2/18/2023 1:15:00 AM 2.88 37.184 0.26 7.52 5.94 11.97
2/18/2023 1:30:00 AM 2.82 37.076 0.263 7.53 5.5 11.96
2/18/2023 1:45:00 AM 2.87 37.166 0.279 7.53 5.61 11.96
2/18/2023 2:00:00 AM 2.75 36.95 0.269 7.54 5.85 12.03
2/18/2023 2:15:00 AM 2.68 36.824 0.268 7.54 5.9 12.02
2/18/2023 2:30:00 AM 2.64 36.752 0.267 7.54 6.22 12.06
2/18/2023 2:45:00 AM 2.61 36.698 0.274 7.54 7.61 12.03
2/18/2023 3:00:00 AM 2.58 36.644 0.282 7.53 6.36 12.01
2/18/2023 3:15:00 AM 2.45 36.41 0.272 7.56 6.82 12.07
2/18/2023 3:30:00 AM 2.5 36.5 0.289 7.55 5.53 12.03
2/18/2023 3:45:00 AM 2.35 36.23 0.266 7.55 10.9 12.12
2/18/2023 4:00:00 AM 2.34 36.212 0.274 7.56 5.65 12.07
2/18/2023 4:15:00 AM 2.29 36.122 0.276 7.56 5.85 12.22
2/18/2023 4:30:00 AM 2.17 35.906 0.272 7.52 5.11 12.23
2/18/2023 4:45:00 AM 2.18 35.924 0.282 7.56 6.21 12.21
2/18/2023 5:00:00 AM 2.17 35.906 0.276 7.55 5.31 12.18
2/18/2023 5:15:00 AM 2.1 35.78 0.276 7.56 5.9 12.21
2/18/2023 5:30:00 AM 2.1 35.78 0.28 7.56 6.07 12.23
2/18/2023 5:45:00 AM 2.07 35.726 0.275 7.56 6.43 12.24
2/18/2023 6:00:00 AM 1.96 35.528 0.273 7.56 5.85 12.28
2/18/2023 6:15:00 AM 1.95 35.51 0.276 7.56 6.04 12.3
2/18/2023 6:30:00 AM 1.9 35.42 0.281 7.57 5.36 12.34
2/18/2023 6:45:00 AM 1.94 35.492 0.279 7.56 6.12 12.23
2/18/2023 7:00:00 AM 1.95 35.51 0.286 7.56 6.68 12.22
2/18/2023 7:15:00 AM 1.84 35.312 0.282 7.57 6.24 12.17
2/18/2023 7:30:00 AM 1.8 35.24 0.287 7.57 6.54 12.34
2/18/2023 7:45:00 AM 1.74 35.132 0.286 7.58 5.9 12.39
2/18/2023 8:00:00 AM 1.69 35.042 0.287 7.59 6.02 12.5
2/18/2023 8:15:00 AM 1.66 34.988 0.28 7.59 6.13 12.51
2/18/2023 8:30:00 AM 1.67 35.006 0.281 7.6 7.18 12.55
2/18/2023 8:45:00 AM 1.8 35.24 0.287 7.59 6.26 12.52
2/18/2023 9:00:00 AM 1.78 35.204 0.293 7.59 6.46 12.59
2/18/2023 9:15:00 AM 1.84 35.312 0.286 7.61 6.06 12.68
2/18/2023 9:30:00 AM 1.81 35.258 0.286 7.62 6.65 12.69
2/18/2023 9:45:00 AM 1.96 35.528 0.289 7.61 6.26 12.71
2/18/2023 10:00:00 AM 1.95 35.51 0.288 7.62 7.25 12.72
2/18/2023 10:15:00 AM 2.08 35.744 0.289 7.62 6.98 12.69
2/18/2023 10:30:00 AM 2.14 35.852 0.288 7.62 6.46 12.8
2/18/2023 10:45:00 AM 2.21 35.978 0.288 7.63 7.17 12.83
2/18/2023 11:00:00 AM 2.38 36.284 0.294 7.63 7.71 12.92
2/18/2023 11:15:00 AM 2.43 36.374 0.291 7.64 6.25 12.93
2/18/2023 11:30:00 AM 2.54 36.572 0.286 7.64 6.78 12.98
2/18/2023 11:45:00 AM 2.78 37.004 0.294 7.63 6.45 12.95
2/18/2023 12:00:00 PM 2.88 37.184 0.291 7.64 6.44 13.01
2/18/2023 12:15:00 PM 3.06 37.508 0.292 7.64 7.15 12.98
2/18/2023 12:30:00 PM 3.18 37.724 0.289 7.63 6.85 13.01
2/18/2023 12:45:00 PM 3.29 37.922 0.288 7.66 7.07 13.05
2/18/2023 1:00:00 PM 3.49 38.282 0.293 7.65 6.79 13.1
2/18/2023 1:15:00 PM 3.62 38.516 0.287 7.66 6.27 13.05
2/18/2023 1:30:00 PM 3.76 38.768 0.289 7.67 6.1 13.05
2/18/2023 1:45:00 PM 3.91 39.038 0.294 7.67 6.3 13
2/18/2023 2:00:00 PM 3.98 39.164 0.29 7.66 5.65 12.95
2/18/2023 2:15:00 PM 4.15 39.47 0.294 7.68 6.02 13.04
2/18/2023 2:30:00 PM 4.2 39.56 0.294 7.66 6.3 12.95
2/18/2023 2:45:00 PM 4.3 39.74 0.293 7.68 5.43 12.93
2/18/2023 3:00:00 PM 4.49 40.082 0.299 7.67 6.2 12.82
2/18/2023 3:15:00 PM 4.57 40.226 0.305 7.65 5.57 12.75
2/18/2023 3:30:00 PM 4.55 40.19 0.299 7.69 7.87 12.63
2/18/2023 3:45:00 PM 4.6 40.28 0.297 7.69 6.1 12.68
2/18/2023 4:00:00 PM 4.6 40.28 0.306 7.67 5.04 12.77
2/18/2023 4:15:00 PM 4.6 40.28 0.301 7.69 5.17 12.65
2/18/2023 4:30:00 PM 4.67 40.406 0.307 7.67 4.57 12.53
2/18/2023 4:45:00 PM 4.74 40.532 0.314 7.67 4.59 12.52
2/18/2023 5:00:00 PM 4.69 40.442 0.301 7.68 4.64 12.4
2/18/2023 5:15:00 PM 4.64 40.352 0.312 7.68 4.68 12.39
2/18/2023 5:30:00 PM 4.69 40.442 0.307 7.68 4.92 12.39
2/18/2023 5:45:00 PM 4.67 40.406 0.31 7.59 4.43 12.25
2/18/2023 6:00:00 PM 4.58 40.244 0.306 7.64 4.42 12.22
2/18/2023 6:15:00 PM 4.64 40.352 0.312 7.66 4.69 12.04
2/18/2023 6:30:00 PM 4.52 40.136 0.309 7.63 4.13 12.08
2/18/2023 6:45:00 PM 4.48 40.064 0.309 7.63 4.4 12.08
2/18/2023 7:00:00 PM 4.48 40.064 0.313 7.64 4.35 12.01
2/18/2023 7:15:00 PM 4.44 39.992 0.318 7.63 4.37 11.91
2/18/2023 7:30:00 PM 4.32 39.776 0.304 7.63 4.44 11.93
2/18/2023 7:45:00 PM 4.24 39.632 0.302 7.63 4.94 11.96
2/18/2023 9:00:00 PM 4.13 39.434 0.314 7.62 4.68 11.74
2/18/2023 9:15:00 PM 4.11 39.398 0.302 7.6 4.82 11.66
2/18/2023 9:30:00 PM 4.08 39.344 0.308 7.61 4.47 11.68
2/18/2023 9:45:00 PM 3.97 39.146 0.3 7.59 5.14 11.71
2/18/2023 10:00:00 PM 3.96 39.128 0.302 7.58 5.05 11.62
2/18/2023 10:15:00 PM 3.9 39.02 0.303 7.59 5.86 11.62
2/18/2023 10:30:00 PM 3.79 38.822 0.302 7.59 4.93 11.73
2/18/2023 10:45:00 PM 3.76 38.768 0.302 7.55 4.84 11.69
2/18/2023 11:00:00 PM 3.72 38.696 0.302 7.57 4.8 11.71
2/18/2023 11:15:00 PM 3.73 38.714 0.31 7.57 5.27 11.69
2/18/2023 11:30:00 PM 3.54 38.372 0.297 7.58 5.38 11.77
2/18/2023 11:45:00 PM 3.55 38.39 0.295 7.57 5.16 11.72
2/19/2023 12:00:00 AM 3.65 38.57 0.314 7.56 5.03 11.69
2/19/2023 12:15:00 AM 3.43 38.174 0.3 7.56 4.8 11.77
2/19/2023 12:30:00 AM 3.54 38.372 0.314 7.56 5 11.63
2/19/2023 12:45:00 AM 3.41 38.138 0.3 7.54 4.6 11.74
2/19/2023 1:00:00 AM 3.38 38.084 0.311 7.56 4.69 11.7
2/19/2023 1:15:00 AM 3.3 37.94 0.307 7.56 4.63 11.75
2/19/2023 1:30:00 AM 3.3 37.94 0.307 7.57 4.68 11.74
2/19/2023 1:45:00 AM 3.24 37.832 0.306 7.57 4.72 11.74
2/19/2023 2:00:00 AM 3.33 37.994 0.319 7.56 4.38 11.71
2/19/2023 2:15:00 AM 3.19 37.742 0.315 7.56 4.38 11.77
2/19/2023 2:30:00 AM 3.02 37.436 0.305 7.57 5.1 11.89
2/19/2023 2:45:00 AM 3.17 37.706 0.316 7.55 4.52 11.77
2/19/2023 3:00:00 AM 3.09 37.562 0.312 7.55 4.54 11.68
2/19/2023 3:15:00 AM 3 37.4 0.314 7.55 4.39 11.83
2/19/2023 3:30:00 AM 3.01 37.418 0.307 7.57 4.58 11.82
2/19/2023 3:45:00 AM 2.84 37.112 0.313 7.57 4.68 11.95
2/19/2023 4:00:00 AM 2.93 37.274 0.312 7.57 4.58 11.78
2/19/2023 4:15:00 AM 2.8 37.04 0.307 7.55 4.14 11.9
2/19/2023 4:30:00 AM 2.7 36.86 0.302 7.57 4.45 12
2/19/2023 4:45:00 AM 2.86 37.148 0.313 7.56 4.46 11.9
2/19/2023 5:00:00 AM 2.76 36.968 0.311 7.56 4.38 11.93
2/19/2023 5:15:00 AM 2.69 36.842 0.308 7.55 4.77 11.96
2/19/2023 5:30:00 AM 2.59 36.662 0.301 7.56 4.61 12.02
2/19/2023 5:45:00 AM 2.58 36.644 0.304 7.57 4.75 12.03
2/19/2023 6:00:00 AM 2.69 36.842 0.308 7.57 4.83 11.97
2/19/2023 6:15:00 AM 2.72 36.896 0.312 7.55 5.15 11.85
2/19/2023 6:30:00 AM 2.62 36.716 0.306 7.57 5.83 11.96
2/19/2023 6:45:00 AM 2.57 36.626 0.307 7.56 4.67 11.92
2/19/2023 7:00:00 AM 2.66 36.788 0.3 7.56 4.22 11.82
2/19/2023 7:15:00 AM 2.59 36.662 0.307 7.56 4.66 11.93
2/19/2023 7:30:00 AM 2.65 36.77 0.315 7.55 4.74 11.98
2/19/2023 7:45:00 AM 2.59 36.662 0.306 7.57 4.93 11.97
2/19/2023 8:00:00 AM 2.6 36.68 0.313 7.59 4.78 12.09
2/19/2023 8:15:00 AM 2.64 36.752 0.308 7.57 4.67 12.11
2/19/2023 8:30:00 AM 2.67 36.806 0.314 7.57 5.33 12.13
2/19/2023 8:45:00 AM 2.65 36.77 0.318 7.58 5.35 12.1
2/19/2023 9:00:00 AM 2.79 37.022 0.303 7.56 5.54 12.24
2/19/2023 9:15:00 AM 2.66 36.788 0.309 7.58 5.75 12.28
2/19/2023 9:30:00 AM 2.72 36.896 0.308 7.59 5.15 12.25
2/19/2023 9:45:00 AM 2.87 37.166 0.315 7.57 4.91 12.26
2/19/2023 10:00:00 AM 2.82 37.076 0.312 7.6 4.76 12.32
2/19/2023 10:15:00 AM 2.78 37.004 0.3 7.58 4.73 12.41
2/19/2023 10:30:00 AM 2.89 37.202 0.303 7.6 4.77 12.47
2/19/2023 10:45:00 AM 2.94 37.292 0.312 7.59 4.84 12.53
2/19/2023 11:00:00 AM 3.04 37.472 0.308 7.61 4.35 12.41
2/19/2023 11:15:00 AM 3.13 37.634 0.307 7.61 4.84 12.53
2/19/2023 11:30:00 AM 3.1 37.58 0.305 7.62 4.58 12.57
2/19/2023 11:45:00 AM 3.24 37.832 0.319 7.61 4.49 12.63
2/19/2023 12:00:00 PM 3.26 37.868 0.313 7.63 5.03 12.6
2/19/2023 12:15:00 PM 3.41 38.138 0.311 7.62 4.9 12.67
2/19/2023 12:30:00 PM 3.47 38.246 0.317 7.64 4.98 12.72
2/19/2023 12:45:00 PM 3.49 38.282 0.305 7.65 5.11 12.8
2/19/2023 1:00:00 PM 3.59 38.462 0.307 7.66 4.76 12.76
2/19/2023 1:15:00 PM 3.68 38.624 0.307 7.65 4.82 12.79
2/19/2023 1:30:00 PM 3.7 38.66 0.305 7.66 4.93 12.8
2/19/2023 1:45:00 PM 3.84 38.912 0.306 7.67 4.96 12.82
2/19/2023 2:00:00 PM 3.89 39.002 0.306 7.66 5.23 12.84
2/19/2023 2:15:00 PM 3.94 39.092 0.305 7.68 5.45 12.87
2/19/2023 2:30:00 PM 4.01 39.218 0.302 7.69 5.04 12.7
2/19/2023 2:45:00 PM 4.06 39.308 0.308 7.68 4.68 12.81
2/19/2023 3:00:00 PM 4.08 39.344 0.302 7.68 4.79 12.72
2/19/2023 3:15:00 PM 4.12 39.416 0.303 7.67 4.3 12.71
2/19/2023 3:30:00 PM 4.13 39.434 0.303 7.7 3.98 12.72
2/19/2023 3:45:00 PM 4.21 39.578 0.318 7.68 4.04 12.6
2/19/2023 4:00:00 PM 4.26 39.668 0.31 7.68 4.22 12.58
2/19/2023 4:15:00 PM 4.3 39.74 0.32 7.68 3.94 12.27
2/19/2023 4:30:00 PM 4.5 40.1 0.328 7.66 4.26 12.39
2/19/2023 4:45:00 PM 4.47 40.046 0.32 7.68 3.99 12.46
2/19/2023 5:00:00 PM 4.38 39.884 0.309 7.7 4.26 12.5
2/19/2023 5:15:00 PM 4.4 39.92 0.312 7.68 4.32 12.46
2/19/2023 5:30:00 PM 4.48 40.064 0.309 7.69 4.54 12.35
2/19/2023 5:45:00 PM 4.48 40.064 0.309 7.68 4.35 12.35
2/19/2023 6:00:00 PM 4.49 40.082 0.309 7.67 4.42 12.28
2/19/2023 6:15:00 PM 4.53 40.154 0.321 7.67 4.08 12.17
2/19/2023 6:30:00 PM 4.49 40.082 0.314 7.68 4.16 12.14
2/19/2023 6:45:00 PM 4.46 40.028 0.31 7.66 4.16 12.09
2/19/2023 7:00:00 PM 4.43 39.974 0.311 7.66 4.6 12.08
2/19/2023 7:15:00 PM 4.43 39.974 0.312 7.67 4.7 11.98
2/19/2023 7:30:00 PM 4.48 40.064 0.319 7.65 4.5 11.91
2/19/2023 7:45:00 PM 4.42 39.956 0.313 7.65 4.47 11.9
2/19/2023 8:00:00 PM 4.48 40.064 0.32 7.65 4.54 11.78
2/19/2023 8:15:00 PM 4.44 39.992 0.314 7.62 4.73 11.8
2/19/2023 8:30:00 PM 4.47 40.046 0.319 7.62 4.51 11.73
2/19/2023 8:45:00 PM 4.45 40.01 0.315 7.64 4.52 11.71
2/19/2023 9:00:00 PM 4.41 39.938 0.316 7.61 4.73 11.65
2/19/2023 9:15:00 PM 4.43 39.974 0.314 7.62 4.61 11.63
2/19/2023 9:30:00 PM 4.44 39.992 0.317 7.62 4.82 11.61
2/19/2023 9:45:00 PM 4.39 39.902 0.316 7.61 4.54 11.59
2/19/2023 10:00:00 PM 4.35 39.83 0.317 7.61 4.52 11.58
2/19/2023 10:15:00 PM 4.3 39.74 0.308 7.6 4.78 11.56
2/19/2023 10:30:00 PM 4.27 39.686 0.315 7.61 4.49 11.55
2/19/2023 10:45:00 PM 4.23 39.614 0.314 7.58 4.4 11.55
2/19/2023 11:00:00 PM 4.18 39.524 0.309 7.61 4.45 11.54
2/19/2023 11:15:00 PM 4.16 39.488 0.311 7.61 4.35 11.5
2/19/2023 11:30:00 PM 4.1 39.38 0.311 7.6 4.48 11.51
2/19/2023 11:45:00 PM 4.08 39.344 0.309 7.59 4.11 11.49
2/20/2023 12:00:00 AM 3.98 39.164 0.305 7.6 4.26 11.53
2/20/2023 12:15:00 AM 3.93 39.074 0.305 7.6 4.64 11.57
2/20/2023 12:30:00 AM 3.91 39.038 0.313 7.6 4.6 11.52
2/20/2023 12:45:00 AM 3.85 38.93 0.307 7.59 4.51 11.52
2/20/2023 1:00:00 AM 3.76 38.768 0.306 7.61 4.4 11.57
2/20/2023 1:15:00 AM 3.76 38.768 0.309 7.6 4.38 11.55
2/20/2023 1:30:00 AM 3.79 38.822 0.316 7.58 4.61 11.5
2/20/2023 1:45:00 AM 3.82 38.876 0.333 7.58 4.92 11.44
2/20/2023 2:00:00 AM 3.66 38.588 0.313 7.59 4.55 11.52
2/20/2023 2:15:00 AM 3.57 38.426 0.307 7.59 4.23 11.52
2/20/2023 2:30:00 AM 3.57 38.426 0.314 7.56 4.7 11.51
2/20/2023 2:45:00 AM 3.51 38.318 0.311 7.57 4.54 11.51
2/20/2023 3:00:00 AM 3.42 38.156 0.314 7.56 4.64 11.59
2/20/2023 3:15:00 AM 3.42 38.156 0.307 7.56 4.03 11.56
2/20/2023 3:30:00 AM 3.38 38.084 0.316 7.57 4.41 11.59
2/20/2023 3:45:00 AM 3.45 38.21 0.318 7.57 4.71 11.53
2/20/2023 4:00:00 AM 3.25 37.85 0.307 7.58 5.63 11.61
2/20/2023 4:15:00 AM 3.27 37.886 0.311 7.56 4.3 11.59
2/20/2023 4:30:00 AM 3.33 37.994 0.319 7.57 4.55 11.57
2/20/2023 4:45:00 AM 3.2 37.76 0.309 7.56 4.13 11.63
2/20/2023 5:00:00 AM 3.16 37.688 0.31 7.56 4.18 11.61
2/20/2023 5:15:00 AM 3.17 37.706 0.309 7.58 4.15 11.61
2/20/2023 5:30:00 AM 3.2 37.76 0.314 7.55 4.63 11.6
2/20/2023 5:45:00 AM 3.11 37.598 0.312 7.57 4.04 11.66
2/20/2023 6:00:00 AM 3.23 37.814 0.317 7.58 4.6 11.62
2/20/2023 6:15:00 AM 3.24 37.832 0.315 7.56 4.18 11.45
2/20/2023 6:30:00 AM 3.21 37.778 0.318 7.56 4.22 11.55
2/20/2023 6:45:00 AM 3.22 37.796 0.325 7.57 4.56 11.59
2/20/2023 7:00:00 AM 3.14 37.652 0.316 7.57 4.76 11.59
2/20/2023 7:15:00 AM 3.23 37.814 0.323 7.56 4.33 11.55
2/20/2023 7:30:00 AM 3.14 37.652 0.311 7.56 4.05 11.64
2/20/2023 7:45:00 AM 3.24 37.832 0.321 7.55 3.88 11.6
2/20/2023 8:00:00 AM 3.18 37.724 0.326 7.57 4.29 11.64
2/20/2023 8:15:00 AM 3.26 37.868 0.316 7.58 4.05 11.6
2/20/2023 8:30:00 AM 3.2 37.76 0.317 7.57 4.18 11.7
2/20/2023 8:45:00 AM 3.15 37.67 0.317 7.56 4.71 11.74
2/20/2023 9:00:00 AM 3.27 37.886 0.325 7.58 4.2 11.7
2/20/2023 9:15:00 AM 3.3 37.94 0.319 7.58 3.89 11.74
2/20/2023 9:30:00 AM 3.31 37.958 0.32 7.58 3.86 11.77
2/20/2023 9:45:00 AM 3.29 37.922 0.313 7.58 3.77 11.85
2/20/2023 10:00:00 AM 3.45 38.21 0.321 7.6 3.95 11.89
2/20/2023 10:15:00 AM 3.5 38.3 0.319 7.59 4.41 11.95
2/20/2023 10:30:00 AM 3.59 38.462 0.32 7.62 4.19 11.93
2/20/2023 10:45:00 AM 3.69 38.642 0.321 7.6 3.72 12.05
2/20/2023 11:00:00 AM 3.89 39.002 0.321 7.59 4.17 12
2/20/2023 11:15:00 AM 3.97 39.146 0.327 7.62 4.18 12.11
2/20/2023 11:30:00 AM 4.09 39.362 0.317 7.62 4.09 12.14
2/20/2023 11:45:00 AM 4.18 39.524 0.317 7.63 4.11 12.2
2/20/2023 12:00:00 PM 4.28 39.704 0.313 7.65 3.7 12.24
2/20/2023 12:15:00 PM 4.48 40.064 0.316 7.64 4.43 12.18
2/20/2023 12:30:00 PM 4.53 40.154 0.316 7.64 4.44 12.3
2/20/2023 12:45:00 PM 4.58 40.244 0.31 7.66 4.47 12.31
2/20/2023 1:00:00 PM 4.65 40.37 0.314 7.61 3.93 12.28
2/20/2023 1:15:00 PM 4.69 40.442 0.309 7.63 4.22 12.2
2/20/2023 1:30:00 PM 4.74 40.532 0.313 7.67 4.17 12.25
2/20/2023 1:45:00 PM 4.89 40.802 0.312 7.63 4.06 12.3
2/20/2023 2:00:00 PM 4.91 40.838 0.319 7.67 4.18 12.3
2/20/2023 2:15:00 PM 4.97 40.946 0.315 7.68 3.9 12.27
2/20/2023 2:30:00 PM 5.07 41.126 0.314 7.65 4.26 12.25
2/20/2023 2:45:00 PM 5.16 41.288 0.314 7.69 3.96 12.29
2/20/2023 3:00:00 PM 5.18 41.324 0.31 7.69 3.71 12.25
2/20/2023 3:15:00 PM 5.23 41.414 0.31 7.69 3.83 12.29
2/20/2023 3:30:00 PM 5.29 41.522 0.308 7.7 3.85 12.25
2/20/2023 3:45:00 PM 5.41 41.738 0.309 7.71 4 12.27
2/20/2023 4:00:00 PM 5.44 41.792 0.31 7.71 4.27 12.23
2/20/2023 4:15:00 PM 5.5 41.9 0.313 7.69 4.02 12.16
2/20/2023 4:30:00 PM 5.46 41.828 0.308 7.7 4.02 12.14
2/20/2023 4:45:00 PM 5.46 41.828 0.308 7.7 4.02 12.12
2/20/2023 5:00:00 PM 5.43 41.774 0.306 7.71 3.98 12.08
2/20/2023 5:15:00 PM 5.41 41.738 0.309 7.7 3.93 12.05
2/20/2023 5:30:00 PM 5.39 41.702 0.306 7.69 3.96 11.99
2/20/2023 5:45:00 PM 5.36 41.648 0.312 7.69 3.8 11.9
2/20/2023 6:00:00 PM 5.35 41.63 0.316 7.66 3.92 11.81
2/20/2023 6:15:00 PM 5.3 41.54 0.307 7.66 4.18 11.77
2/20/2023 6:30:00 PM 5.27 41.486 0.303 7.68 5.75 11.71
2/20/2023 6:45:00 PM 5.25 41.45 0.309 7.67 4.35 11.65
2/20/2023 7:00:00 PM 5.21 41.378 0.308 7.66 4.24 11.64
2/20/2023 7:15:00 PM 5.19 41.342 0.302 7.66 5.28 11.6
2/20/2023 7:30:00 PM 5.25 41.45 0.309 7.65 4.23 11.51
2/20/2023 7:45:00 PM 5.23 41.414 0.311 7.65 3.81 11.52
2/20/2023 8:00:00 PM 5.19 41.342 0.308 7.65 4.35 11.47
2/20/2023 8:15:00 PM 5.2 41.36 0.311 7.64 4.14 11.39
2/20/2023 8:30:00 PM 5.18 41.324 0.312 7.62 4.19 11.36
2/20/2023 8:45:00 PM 5.11 41.198 0.307 7.62 4.82 11.33
2/20/2023 9:00:00 PM 5.1 41.18 0.309 7.63 4.43 11.31
2/20/2023 9:15:00 PM 5 41 0.3 7.62 4.7 11.32
2/20/2023 9:30:00 PM 5.01 41.018 0.306 7.6 4.95 11.26
2/20/2023 9:45:00 PM 4.92 40.856 0.303 7.61 4.43 11.29
2/20/2023 10:00:00 PM 4.87 40.766 0.303 7.61 4.68 11.21
2/20/2023 10:15:00 PM 4.86 40.748 0.305 7.59 4.57 11.22
2/20/2023 10:30:00 PM 4.82 40.676 0.309 7.6 4.44 11.21
2/20/2023 10:45:00 PM 4.78 40.604 0.312 7.6 4.84 11.21
2/20/2023 11:00:00 PM 4.69 40.442 0.302 7.6 4.37 11.25
2/20/2023 11:15:00 PM 4.71 40.478 0.309 7.58 4.58 11.21
2/20/2023 11:30:00 PM 4.63 40.334 0.303 7.6 4.39 11.21
2/20/2023 11:45:00 PM 4.61 40.298 0.305 7.6 4.74 11.25
2/21/2023 12:00:00 AM 4.62 40.316 0.306 7.6 4.12 11.18
2/21/2023 12:15:00 AM 4.68 40.424 0.315 7.58 4.74 11.19
2/21/2023 12:30:00 AM 4.64 40.352 0.316 7.56 4.67 11.14
2/21/2023 12:45:00 AM 4.65 40.37 0.309 7.58 4.42 11.04
2/21/2023 1:00:00 AM 4.58 40.244 0.304 7.58 4.31 11.18
2/21/2023 1:15:00 AM 4.61 40.298 0.303 7.56 4.52 11.19
2/21/2023 1:30:00 AM 4.61 40.298 0.309 7.58 4.61 11.16
2/21/2023 1:45:00 AM 4.5 40.1 0.305 7.58 4.48 11.21
2/21/2023 2:00:00 AM 4.57 40.226 0.309 7.56 4.84 11.1
2/21/2023 2:15:00 AM 4.47 40.046 0.307 7.57 4.43 11.16
2/21/2023 2:30:00 AM 4.43 39.974 0.301 7.58 4.41 11.22
2/21/2023 2:45:00 AM 4.39 39.902 0.3 7.57 4.46 11.18
2/21/2023 3:00:00 AM 4.38 39.884 0.301 7.57 4.18 11.16
2/21/2023 3:15:00 AM 4.37 39.866 0.302 7.57 4.24 11.18
2/21/2023 3:30:00 AM 4.42 39.956 0.307 7.57 4.78 11.18
2/21/2023 3:45:00 AM 4.42 39.956 0.315 7.57 4.78 11.21
2/21/2023 4:00:00 AM 4.32 39.776 0.306 7.57 4.43 11.19
2/21/2023 4:15:00 AM 4.29 39.722 0.31 7.57 4.35 11.19
2/21/2023 4:30:00 AM 4.21 39.578 0.306 7.58 4.49 11.23
2/21/2023 4:45:00 AM 4.24 39.632 0.315 7.57 4.75 11.21
2/21/2023 5:00:00 AM 4.17 39.506 0.312 7.58 4.23 11.23
2/21/2023 5:15:00 AM 4.11 39.398 0.313 7.58 4.84 11.25
2/21/2023 5:30:00 AM 4.07 39.326 0.312 7.58 4.9 11.2
2/21/2023 5:45:00 AM 4 39.2 0.312 7.58 5.2 11.23
2/21/2023 6:00:00 AM 4.06 39.308 0.316 7.57 4.52 11.2
2/21/2023 6:15:00 AM 4.07 39.326 0.324 7.55 4.81 11.11
2/21/2023 6:30:00 AM 4.03 39.254 0.319 7.58 5.16 11.15
2/21/2023 6:45:00 AM 3.9 39.02 0.314 7.58 5.02 11.23
2/21/2023 7:00:00 AM 3.95 39.11 0.314 7.58 6.67 11.14
2/21/2023 7:15:00 AM 3.88 38.984 0.314 7.58 4.39 11.3
2/21/2023 7:30:00 AM 3.88 38.984 0.315 7.61 11.48 11.07
2/21/2023 7:45:00 AM 3.89 39.002 0.318 7.59 10.71 11.27
2/21/2023 8:00:00 AM 3.88 38.984 0.319 7.6 4.17 11.28
2/21/2023 8:15:00 AM 3.84 38.912 0.315 7.6 4.58 11.43
2/21/2023 8:30:00 AM 3.89 39.002 0.315 7.61 4.3 11.49
2/21/2023 8:45:00 AM 3.88 38.984 0.318 7.61 4.02 11.54
2/21/2023 9:00:00 AM 3.94 39.092 0.318 7.61 4.15 11.63
2/21/2023 9:15:00 AM 3.98 39.164 0.318 7.62 4.31 11.69
2/21/2023 9:30:00 AM 4.13 39.434 0.323 7.62 4.99 11.68
2/21/2023 9:45:00 AM 4.07 39.326 0.315 7.63 4.23 11.78
2/21/2023 10:00:00 AM 4.29 39.722 0.317 7.63 4.36 11.83
2/21/2023 10:15:00 AM 4.28 39.704 0.317 7.64 4.11 11.91
2/21/2023 10:30:00 AM 4.34 39.812 0.32 7.64 4.44 11.97
2/21/2023 10:45:00 AM 4.39 39.902 0.315 7.65 4.24 11.97
2/21/2023 11:00:00 AM 4.41 39.938 0.315 7.66 4.34 12.02
2/21/2023 11:15:00 AM 4.43 39.974 0.316 7.65 3.86 12.05
2/21/2023 11:30:00 AM 4.5 40.1 0.313 7.66 3.89 12.02
2/21/2023 11:45:00 AM 4.63 40.334 0.316 7.67 4.21 12.1
2/21/2023 12:00:00 PM 4.72 40.496 0.312 7.67 4.11 12.14
2/21/2023 12:15:00 PM 4.91 40.838 0.323 7.68 4.24 12.05
2/21/2023 12:30:00 PM 4.89 40.802 0.313 7.68 5.43 12.18
2/21/2023 12:45:00 PM 4.99 40.982 0.322 7.66 4.31 12.02
2/21/2023 1:00:00 PM 4.92 40.856 0.313 7.68 4.24 12.11
2/21/2023 1:15:00 PM 5.09 41.162 0.312 7.68 5.29 12.29
2/21/2023 1:30:00 PM 5.43 41.774 0.32 7.65 4.2 12.05
2/21/2023 1:45:00 PM 5.45 41.81 0.32 7.69 4.4 12.18
2/21/2023 2:00:00 PM 5.44 41.792 0.314 7.68 4.59 12.22
2/21/2023 2:15:00 PM 5.55 41.99 0.313 7.71 4.45 12.25
2/21/2023 2:30:00 PM 5.5 41.9 0.321 7.69 4.86 12.1
2/21/2023 2:45:00 PM 5.45 41.81 0.308 7.7 4.27 12.12
2/21/2023 3:00:00 PM 5.48 41.864 0.308 7.71 4.45 12.1
2/21/2023 3:15:00 PM 5.52 41.936 0.308 7.71 4.16 12.1
2/21/2023 3:30:00 PM 5.56 42.008 0.311 7.71 4.57 12.07
2/21/2023 3:45:00 PM 5.51 41.918 0.308 7.71 4.39 12.02
2/21/2023 4:00:00 PM 5.5 41.9 0.314 7.69 4.28 12.01
2/21/2023 4:15:00 PM 5.61 42.098 0.32 7.66 4.5 11.87
2/21/2023 4:30:00 PM 5.5 41.9 0.313 7.67 4.09 11.97
2/21/2023 4:45:00 PM 5.43 41.774 0.308 7.67 4.2 11.93
2/21/2023 5:00:00 PM 5.47 41.846 0.311 7.7 4.26 11.87
2/21/2023 5:15:00 PM 5.47 41.846 0.319 7.66 5.07 11.85
2/21/2023 5:30:00 PM 5.36 41.648 0.321 7.7 6.24 11.87
2/21/2023 5:45:00 PM 5.45 41.81 0.333 7.65 5.81 11.6
2/21/2023 6:00:00 PM 5.26 41.468 0.324 7.68 5.31 11.71
2/21/2023 6:15:00 PM 5.24 41.432 0.332 7.66 5.35 11.53
2/21/2023 6:30:00 PM 5.11 41.198 0.323 7.67 5.44 11.59
2/21/2023 6:45:00 PM 5.08 41.144 0.325 7.67 4.89 11.63
2/21/2023 7:00:00 PM 5.04 41.072 0.327 7.65 4.44 11.53
2/21/2023 7:15:00 PM 5.03 41.054 0.326 7.65 4.5 11.54
2/21/2023 7:30:00 PM 4.89 40.802 0.318 7.65 4.17 11.48
2/21/2023 7:45:00 PM 4.77 40.586 0.315 7.65 3.98 11.48
2/21/2023 8:00:00 PM 4.7 40.46 0.313 7.65 4.15 11.48
2/21/2023 8:15:00 PM 4.69 40.442 0.316 7.64 4.14 11.46
2/21/2023 8:30:00 PM 4.63 40.334 0.318 7.64 4.22 11.39
2/21/2023 8:45:00 PM 4.61 40.298 0.315 7.63 3.89 11.39
2/21/2023 9:00:00 PM 4.53 40.154 0.312 7.63 3.76 11.42
2/21/2023 9:15:00 PM 4.45 40.01 0.31 7.63 4.02 11.43
2/21/2023 9:30:00 PM 4.42 39.956 0.309 7.63 3.9 11.4
2/21/2023 9:45:00 PM 4.39 39.902 0.313 7.62 4.06 11.37
2/21/2023 10:00:00 PM 4.4 39.92 0.315 7.62 4.03 11.38
2/21/2023 10:15:00 PM 4.28 39.704 0.312 7.62 4.53 11.39
2/21/2023 10:30:00 PM 4.28 39.704 0.316 7.61 3.92 11.33
2/21/2023 10:45:00 PM 4.2 39.56 0.314 7.61 3.76 11.36
2/21/2023 11:00:00 PM 4.21 39.578 0.319 7.58 4.01 11.24
2/21/2023 11:15:00 PM 4.2 39.56 0.323 7.61 4.87 11.3
2/21/2023 11:30:00 PM 4.09 39.362 0.317 7.6 4.01 11.34
2/21/2023 11:45:00 PM 4.02 39.236 0.311 7.6 3.78 11.39
2/22/2023 12:00:00 AM 4 39.2 0.314 7.6 3.78 11.4
2/22/2023 12:15:00 AM 3.97 39.146 0.316 7.59 4.09 11.34
2/22/2023 12:30:00 AM 3.95 39.11 0.316 7.6 4 11.36
2/22/2023 12:45:00 AM 3.93 39.074 0.315 7.59 3.79 11.43
2/22/2023 1:00:00 AM 3.87 38.966 0.312 7.58 4.04 11.39
2/22/2023 1:15:00 AM 3.9 39.02 0.315 7.58 4.07 11.46
2/22/2023 1:30:00 AM 3.86 38.948 0.311 7.57 4.12 11.41
2/22/2023 1:45:00 AM 3.88 38.984 0.316 7.57 4.4 11.39
2/22/2023 2:00:00 AM 3.76 38.768 0.31 7.56 4.07 11.41
2/22/2023 2:15:00 AM 3.73 38.714 0.307 7.57 4.36 11.43
2/22/2023 2:30:00 AM 3.8 38.84 0.323 7.58 3.98 11.4
2/22/2023 2:45:00 AM 3.63 38.534 0.306 7.57 4.01 11.5
2/22/2023 3:00:00 AM 3.68 38.624 0.31 7.56 4.05 11.46
2/22/2023 3:15:00 AM 3.61 38.498 0.318 7.57 4.03 11.48
2/22/2023 3:30:00 AM 3.56 38.408 0.304 7.56 4.25 11.48
2/22/2023 3:45:00 AM 3.48 38.264 0.303 7.56 4.12 11.52
2/22/2023 4:00:00 AM 3.45 38.21 0.302 7.56 4.61 11.55
2/22/2023 4:15:00 AM 3.41 38.138 0.304 7.56 4.79 11.57
2/22/2023 4:30:00 AM 3.31 37.958 0.303 7.56 4.34 11.54
2/22/2023 4:45:00 AM 3.36 38.048 0.315 7.55 4.44 11.55
2/22/2023 5:00:00 AM 3.31 37.958 0.306 7.56 4.78 11.53
2/22/2023 5:15:00 AM 3.37 38.066 0.315 7.54 4.77 11.43
2/22/2023 5:30:00 AM 3.2 37.76 0.306 7.56 4.31 11.59
2/22/2023 5:45:00 AM 3.2 37.76 0.307 7.55 4.31 11.6
2/22/2023 6:00:00 AM 3.14 37.652 0.307 7.55 4.6 11.61
2/22/2023 6:15:00 AM 3.17 37.706 0.312 7.56 4.98 11.58
2/22/2023 6:30:00 AM 3.12 37.616 0.31 7.57 5.36 11.46
2/22/2023 6:45:00 AM 3.06 37.508 0.307 7.56 5.29 11.59
2/22/2023 7:00:00 AM 2.99 37.382 0.308 7.56 4.87 11.69
2/22/2023 7:15:00 AM 3.01 37.418 0.308 7.57 4.67 11.69
2/22/2023 7:30:00 AM 2.95 37.31 0.31 7.57 4.8 11.73
2/22/2023 7:45:00 AM 3.02 37.436 0.314 7.56 4.77 11.72
2/22/2023 8:00:00 AM 2.99 37.382 0.308 7.57 5.16 11.79
2/22/2023 8:15:00 AM 2.98 37.364 0.312 7.58 4.83 11.86
2/22/2023 8:30:00 AM 3 37.4 0.31 7.57 4.28 11.93
2/22/2023 8:45:00 AM 3.04 37.472 0.312 7.57 4.69 12.04
2/22/2023 9:00:00 AM 2.96 37.328 0.303 7.59 4.55 12.12
2/22/2023 9:15:00 AM 2.95 37.31 0.301 7.59 4.49 12.16
2/22/2023 9:30:00 AM 3.01 37.418 0.305 7.59 4.5 12.17
2/22/2023 9:45:00 AM 3.01 37.418 0.304 7.59 5 12.21
2/22/2023 10:00:00 AM 3.05 37.49 0.306 7.6 4.67 12.32
2/22/2023 10:15:00 AM 3.02 37.436 0.304 7.6 4.39 12.29
2/22/2023 10:30:00 AM 3.04 37.472 0.304 7.61 4.56 12.33
2/22/2023 10:45:00 AM 3.09 37.562 0.307 7.62 5.36 12.24
2/22/2023 11:00:00 AM 3.11 37.598 0.307 7.63 4.99 12.24
2/22/2023 11:15:00 AM 3.13 37.634 0.308 7.62 4.75 12.34
2/22/2023 11:30:00 AM 3.12 37.616 0.308 7.63 4.32 12.42
2/22/2023 11:45:00 AM 3.16 37.688 0.31 7.65 5.35 12.44
2/22/2023 12:00:00 PM 3.23 37.814 0.314 7.63 4.39 12.45
2/22/2023 12:15:00 PM 3.28 37.904 0.317 7.64 4.44 12.44
2/22/2023 12:30:00 PM 3.27 37.886 0.317 7.65 4.25 12.52
2/22/2023 12:45:00 PM 3.25 37.85 0.314 7.64 4.27 12.59
2/22/2023 1:00:00 PM 3.31 37.958 0.313 7.66 6.31 12.46
2/22/2023 1:15:00 PM 3.31 37.958 0.312 7.66 4.73 12.59
2/22/2023 1:30:00 PM 3.32 37.976 0.319 7.67 4.67 12.6
2/22/2023 1:45:00 PM 3.37 38.066 0.318 7.67 4.33 12.58
2/22/2023 2:00:00 PM 3.35 38.03 0.324 7.66 4.42 12.51
2/22/2023 2:15:00 PM 3.37 38.066 0.317 7.67 4.47 12.48
2/22/2023 2:30:00 PM 3.33 37.994 0.318 7.68 4.43 12.54
2/22/2023 2:45:00 PM 3.25 37.85 0.314 7.68 4.17 12.57
2/22/2023 3:00:00 PM 3.22 37.796 0.326 7.69 3.82 12.54
2/22/2023 3:15:00 PM 3.2 37.76 0.326 7.67 4.07 12.43
2/22/2023 3:30:00 PM 3.08 37.544 0.314 7.68 3.56 12.56
2/22/2023 3:45:00 PM 3.15 37.67 0.324 7.68 4.03 12.47
2/22/2023 4:00:00 PM 2.99 37.382 0.317 7.69 3.9 12.56
2/22/2023 4:15:00 PM 2.94 37.292 0.315 7.7 3.8 12.59
2/22/2023 4:30:00 PM 3.01 37.418 0.325 7.69 3.66 12.48
2/22/2023 4:45:00 PM 2.99 37.382 0.315 7.69 4.01 12.37
2/22/2023 5:00:00 PM 2.91 37.238 0.317 7.69 4.02 12.44
2/22/2023 5:15:00 PM 2.91 37.238 0.319 7.69 4.13 12.43
2/22/2023 5:30:00 PM 3 37.4 0.319 7.67 3.92 12.36
2/22/2023 5:45:00 PM 3.02 37.436 0.322 7.67 4.03 12.34
2/22/2023 6:00:00 PM 2.95 37.31 0.319 7.67 3.68 12.32
2/22/2023 6:15:00 PM 2.91 37.238 0.319 7.66 3.63 12.26
2/22/2023 6:30:00 PM 3.04 37.472 0.323 7.65 3.83 12.21
2/22/2023 6:45:00 PM 2.99 37.382 0.332 7.65 3.88 12.21
2/22/2023 7:00:00 PM 2.98 37.364 0.344 7.66 4.01 12.18
2/22/2023 7:15:00 PM 3.02 37.436 0.352 7.65 4.72 12.17
2/22/2023 7:30:00 PM 2.88 37.184 0.355 7.65 4.13 12.17
2/22/2023 7:45:00 PM 2.91 37.238 0.36 7.65 4.33 12.13
2/22/2023 8:00:00 PM 3.01 37.418 0.372 7.65 4.52 12.15
2/22/2023 8:15:00 PM 2.92 37.256 0.386 7.64 4.85 12.11
2/22/2023 8:30:00 PM 2.81 37.058 0.389 7.64 5.29 12.1
2/22/2023 8:45:00 PM 2.86 37.148 0.395 7.63 5.88 12.07
2/22/2023 9:00:00 PM 2.81 37.058 0.402 7.63 7.07 12.07
2/22/2023 9:15:00 PM 2.93 37.274 0.421 7.62 7.83 11.98
2/22/2023 9:30:00 PM 2.93 37.274 0.438 7.63 9.51 11.94
2/22/2023 9:45:00 PM 3.06 37.508 0.452 7.61 10.04 11.83
2/22/2023 10:00:00 PM 2.91 37.238 0.452 7.62 9.67 11.94
2/22/2023 10:15:00 PM 3.03 37.454 0.449 7.61 9.56 11.91
2/22/2023 10:30:00 PM 2.87 37.166 0.433 7.61 9.86 11.96
2/22/2023 10:45:00 PM 2.93 37.274 0.421 7.59 54.68 11.92
2/22/2023 11:00:00 PM 2.97 37.346 0.415 7.58 9.08 11.92
2/22/2023 11:15:00 PM 3.01 37.418 0.406 7.6 8.69 11.92
2/22/2023 11:30:00 PM 2.88 37.184 0.401 7.6 8.15 11.87
2/22/2023 11:45:00 PM 2.97 37.346 0.392 7.59 8.72 11.85
2/23/2023 12:00:00 AM 2.94 37.292 0.383 7.59 6.67 11.86
2/23/2023 12:15:00 AM 2.86 37.148 0.366 7.59 7.67 11.89
2/23/2023 12:30:00 AM 2.84 37.112 0.384 7.59 6.15 12.1
2/23/2023 12:45:00 AM 2.98 37.364 0.356 7.57 5.86 11.85
2/23/2023 1:00:00 AM 2.88 37.184 0.341 7.59 5.52 11.94
2/23/2023 1:15:00 AM 2.95 37.31 0.339 7.58 5.49 11.83
2/23/2023 1:30:00 AM 2.9 37.22 0.331 7.59 5.35 11.9
2/23/2023 1:45:00 AM 2.82 37.076 0.331 7.59 6.03 11.96
2/23/2023 2:00:00 AM 2.85 37.13 0.327 7.57 6.56 11.93
2/23/2023 2:15:00 AM 2.79 37.022 0.326 7.59 5.23 11.97
2/23/2023 2:30:00 AM 2.8 37.04 0.327 7.59 5.63 11.94
2/23/2023 2:45:00 AM 2.88 37.184 0.333 7.55 5.64 11.87
2/23/2023 3:00:00 AM 2.8 37.04 0.334 7.56 5.98 11.93
2/23/2023 3:15:00 AM 2.74 36.932 0.332 7.57 6.26 11.98
2/23/2023 3:30:00 AM 2.77 36.986 0.335 7.56 6.32 11.94
2/23/2023 3:45:00 AM 2.77 36.986 0.335 7.54 7.24 11.98
2/23/2023 4:00:00 AM 2.74 36.932 0.328 7.56 6.19 11.97
2/23/2023 4:15:00 AM 2.71 36.878 0.326 7.55 7.15 12.08
2/23/2023 4:30:00 AM 2.79 37.022 0.331 7.53 7.04 12.01
2/23/2023 4:45:00 AM 2.74 36.932 0.32 7.54 7.28 12.09
2/23/2023 5:00:00 AM 2.73 36.914 0.32 7.55 7.6 12.02
2/23/2023 5:15:00 AM 2.64 36.752 0.308 7.53 7.82 12.17
2/23/2023 5:30:00 AM 2.83 37.094 0.315 7.52 7.28 12.12
2/23/2023 5:45:00 AM 2.62 36.716 0.29 7.55 8.22 12.08
2/23/2023 6:00:00 AM 2.76 36.968 0.311 7.52 6.3 12.08
2/23/2023 6:15:00 AM 2.75 36.95 0.3 7.52 7.12 12.05
2/23/2023 6:30:00 AM 2.91 37.238 0.303 7.52 7.52 11.98
2/23/2023 6:45:00 AM 2.71 36.878 0.29 7.52 8.24 12.07
2/23/2023 7:00:00 AM 2.8 37.04 0.31 7.51 7.44 12.1
2/23/2023 7:15:00 AM 2.78 37.004 0.292 7.51 7.94 12.19
2/23/2023 7:30:00 AM 2.68 36.824 0.28 7.5 8.23 12.07
2/23/2023 7:45:00 AM 2.71 36.878 0.289 7.49 8.2 12.09
2/23/2023 8:00:00 AM 2.7 36.86 0.283 7.5 7.73 12.16
2/23/2023 8:15:00 AM 2.72 36.896 0.279 7.51 7.42 12.29
2/23/2023 8:30:00 AM 2.84 37.112 0.284 7.5 7.29 12.19
2/23/2023 8:45:00 AM 2.7 36.86 0.276 7.51 7.41 12.35
2/23/2023 9:00:00 AM 2.65 36.77 0.269 7.51 7.36 12.4
2/23/2023 9:15:00 AM 2.78 37.004 0.271 7.5 8.09 12.31
2/23/2023 9:30:00 AM 2.81 37.058 0.27 7.51 8.62 12.46
2/23/2023 9:45:00 AM 2.8 37.04 0.266 7.5 8.05 12.46
2/23/2023 10:00:00 AM 2.83 37.094 0.257 7.51 8.09 12.45
2/23/2023 10:15:00 AM 2.99 37.382 0.272 7.5 9.08 12.46
2/23/2023 10:30:00 AM 3.02 37.436 0.261 7.51 8.02 12.5
2/23/2023 10:45:00 AM 3.17 37.706 0.277 7.5 8.92 12.56
2/23/2023 11:00:00 AM 3.35 38.03 0.284 7.51 8.19 12.55
2/23/2023 11:15:00 AM 3.3 37.94 0.264 7.54 8.75 12.65
2/23/2023 11:30:00 AM 3.51 38.318 0.265 7.52 7.55 12.7
2/23/2023 11:45:00 AM 3.43 38.174 0.266 7.52 8.16 12.65
2/23/2023 12:00:00 PM 3.59 38.462 0.261 7.54 8.56 12.59
2/23/2023 12:15:00 PM 3.56 38.408 0.259 7.53 8.34 12.73
2/23/2023 12:30:00 PM 3.82 38.876 0.262 7.52 8.21 12.69
2/23/2023 12:45:00 PM 3.67 38.606 0.253 7.54 8.3 12.72
2/23/2023 1:00:00 PM 3.82 38.876 0.25 7.55 9.17 12.93
2/23/2023 1:15:00 PM 3.94 39.092 0.257 7.55 8.49 12.77
2/23/2023 1:30:00 PM 3.9 39.02 0.24 7.55 9.16 12.96
2/23/2023 1:45:00 PM 4.27 39.686 0.263 7.54 9.2 12.68
2/23/2023 2:00:00 PM 4.34 39.812 0.294 7.53 8.25 12.8
2/23/2023 2:15:00 PM 4.26 39.668 0.254 7.54 8.31 12.88
2/23/2023 2:30:00 PM 4.31 39.758 0.304 7.57 9.03 12.79
2/23/2023 2:45:00 PM 4.62 40.316 0.25 7.55 9.46 12.61
2/23/2023 3:00:00 PM 4.49 40.082 0.24 7.55 9.5 12.76
2/23/2023 3:15:00 PM 4.72 40.496 0.243 7.53 10.21 12.64
2/23/2023 3:30:00 PM 4.62 40.316 0.228 7.54 12.49 12.56
2/23/2023 3:45:00 PM 4.65 40.37 0.228 7.52 11.59 12.73
2/23/2023 4:00:00 PM 4.69 40.442 0.23 7.51 13.8 12.72
2/23/2023 4:15:00 PM 4.66 40.388 0.219 7.51 16.35 12.5
2/23/2023 4:30:00 PM 4.65 40.37 0.209 7.53 16.22 12.38
2/23/2023 4:45:00 PM 4.68 40.424 0.207 7.48 16.74 12.36
2/23/2023 5:00:00 PM 4.76 40.568 0.223 7.48 17.68 12.1
2/23/2023 5:15:00 PM 4.61 40.298 0.198 7.47 18.31 12.43
2/23/2023 5:30:00 PM 4.55 40.19 0.195 7.47 16.15 12.38
2/23/2023 5:45:00 PM 4.59 40.262 0.198 7.45 16.53 12.26
2/23/2023 6:00:00 PM 4.49 40.082 0.193 7.47 19.29 12.33
2/23/2023 6:15:00 PM 4.5 40.1 0.189 7.46 18.49 12.14
2/23/2023 6:30:00 PM 4.43 39.974 0.195 7.44 19.93 12.28
2/23/2023 6:45:00 PM 4.36 39.848 0.185 7.45 20.13 12.29
2/23/2023 7:00:00 PM 4.47 40.046 0.203 7.42 20.7 12.15
2/23/2023 7:15:00 PM 4.51 40.118 0.199 7.42 20.85 12.13
2/23/2023 7:30:00 PM 4.43 39.974 0.198 7.39 22.5 12.02
2/23/2023 7:45:00 PM 4.39 39.902 0.197 7.39 18.7 11.99
2/23/2023 8:00:00 PM 4.39 39.902 0.2 7.39 23.8 12
2/23/2023 8:15:00 PM 4.29 39.722 0.189 7.4 21.61 11.94
2/23/2023 8:30:00 PM 4.24 39.632 0.196 7.39 20.67 12.09
2/23/2023 8:45:00 PM 4.2 39.56 0.203 7.36 20.08 11.91
2/23/2023 9:00:00 PM 4.22 39.596 0.221 7.37 23.76 11.95
2/23/2023 9:15:00 PM 4.26 39.668 0.223 7.37 20.65 11.89
2/23/2023 9:30:00 PM 4.14 39.452 0.194 7.38 23.43 12.01
2/23/2023 9:45:00 PM 4.19 39.542 0.196 7.38 22.36 11.96
2/23/2023 10:00:00 PM 4.16 39.488 0.208 7.38 23.31 11.87
2/23/2023 10:15:00 PM 4.05 39.29 0.183 7.36 21.69 11.98
2/23/2023 10:30:00 PM 4.09 39.362 0.197 7.36 20.76 11.91
2/23/2023 10:45:00 PM 4.06 39.308 0.197 7.34 19.95 11.95
2/23/2023 11:00:00 PM 4.01 39.218 0.189 7.35 19.55 11.95
2/23/2023 11:15:00 PM 3.99 39.182 0.19 7.34 19.47 12.02
2/23/2023 11:30:00 PM 3.97 39.146 0.189 7.32 18.7 12.03
2/23/2023 11:45:00 PM 3.93 39.074 0.184 7.35 17.29 11.85
2/24/2023 12:00:00 AM 3.95 39.11 0.2 7.37 18.46 12
2/24/2023 12:15:00 AM 3.88 38.984 0.193 7.35 19.89 11.96
2/24/2023 12:30:00 AM 3.85 38.93 0.203 7.35 15.84 11.93
2/24/2023 12:45:00 AM 3.82 38.876 0.202 7.34 15.08 12
2/24/2023 1:00:00 AM 3.74 38.732 0.191 7.35 16.71 11.96
2/24/2023 1:15:00 AM 3.7 38.66 0.199 7.35 16.61 11.99
2/24/2023 1:30:00 AM 3.82 38.876 0.203 7.34 15.69 12.08
2/24/2023 1:45:00 AM 3.61 38.498 0.186 7.34 15.7 12.03
2/24/2023 2:00:00 AM 3.63 38.534 0.198 7.33 16.86 12.07
2/24/2023 2:15:00 AM 3.55 38.39 0.191 7.33 16.14 12.13
2/24/2023 2:30:00 AM 3.51 38.318 0.185 7.31 14.79 12.17
2/24/2023 2:45:00 AM 3.5 38.3 0.188 7.3 17.12 12.09
2/24/2023 3:00:00 AM 3.58 38.444 0.191 7.34 16.56 12.01
2/24/2023 3:15:00 AM 3.53 38.354 0.194 7.33 14.86 12.05
2/24/2023 3:30:00 AM 3.53 38.354 0.195 7.31 16.38 11.97
2/24/2023 3:45:00 AM 3.59 38.462 0.194 7.31 14.49 11.81
2/24/2023 4:00:00 AM 3.53 38.354 0.191 7.31 15.23 11.89
2/24/2023 4:15:00 AM 3.6 38.48 0.2 7.3 15.7 12.01
2/24/2023 4:30:00 AM 3.41 38.138 0.185 7.3 14.4 11.97
2/24/2023 4:45:00 AM 3.45 38.21 0.18 7.28 15.94 12.01
2/24/2023 5:00:00 AM 3.51 38.318 0.189 7.27 14.05 11.95
2/24/2023 5:15:00 AM 3.44 38.192 0.189 7.27 15.4 11.94
2/24/2023 5:30:00 AM 3.42 38.156 0.187 7.29 14.91 11.93
2/24/2023 5:45:00 AM 3.4 38.12 0.195 7.27 15.8 12.01
2/24/2023 6:00:00 AM 3.29 37.922 0.185 7.29 14.99 11.98
2/24/2023 6:15:00 AM 3.28 37.904 0.19 7.29 13.59 11.95
2/24/2023 6:30:00 AM 3.31 37.958 0.209 7.31 14.33 11.83
2/24/2023 6:45:00 AM 3.4 38.12 0.211 7.31 14.37 11.87
2/24/2023 7:00:00 AM 3.25 37.85 0.198 7.31 15.19 11.9
2/24/2023 7:15:00 AM 3.17 37.706 0.196 7.27 14.87 11.93
2/24/2023 7:30:00 AM 3.28 37.904 0.204 7.32 15.01 11.91
2/24/2023 7:45:00 AM 3.29 37.922 0.217 7.31 13.26 11.75
2/24/2023 8:00:00 AM 3.22 37.796 0.208 7.3 13.19 11.83
2/24/2023 8:15:00 AM 3.09 37.562 0.202 7.31 12.69 11.99
2/24/2023 8:30:00 AM 3.04 37.472 0.201 7.28 12.58 11.88
2/24/2023 8:45:00 AM 3.19 37.742 0.214 7.29 12.74 11.71
2/24/2023 9:00:00 AM 2.88 37.184 0.184 7.3 12.5 12.01
2/24/2023 9:15:00 AM 2.98 37.364 0.217 7.29 11.92 11.95
2/24/2023 9:30:00 AM 3.04 37.472 0.2 7.29 12.55 12.03
2/24/2023 9:45:00 AM 2.95 37.31 0.2 7.32 11.83 12.01
2/24/2023 10:00:00 AM 3 37.4 0.205 7.3 14.26 12.03
2/24/2023 10:15:00 AM 2.95 37.31 0.209 7.32 11.57 12.31
2/24/2023 10:30:00 AM 3.05 37.49 0.225 7.32 11.52 12.24
2/24/2023 10:45:00 AM 3.22 37.796 0.231 7.35 10.7 12.18
2/24/2023 11:00:00 AM 3.02 37.436 0.227 7.37 11.78 12.44
2/24/2023 11:15:00 AM 3.12 37.616 0.224 7.38 10.85 12.47
2/24/2023 11:30:00 AM 3.23 37.814 0.22 7.4 10.15 12.19
2/24/2023 11:45:00 AM 3.2 37.76 0.22 7.37 10.46 12.55
2/24/2023 12:00:00 PM 3.24 37.832 0.223 7.4 10.38 12.58
2/24/2023 12:15:00 PM 3.29 37.922 0.222 7.43 10.03 12.76
2/24/2023 12:30:00 PM 3.43 38.174 0.235 7.41 9.64 12.72
2/24/2023 12:45:00 PM 3.48 38.264 0.225 7.43 10.24 12.82
2/24/2023 1:00:00 PM 3.59 38.462 0.241 7.44 9.11 12.55
2/24/2023 1:15:00 PM 3.58 38.444 0.22 7.46 10.67 12.58
2/24/2023 1:30:00 PM 3.66 38.588 0.229 7.48 9.76 12.73
2/24/2023 1:45:00 PM 3.76 38.768 0.231 7.47 9.19 12.64
2/24/2023 2:00:00 PM 3.8 38.84 0.224 7.48 10.13 12.64
2/24/2023 2:15:00 PM 4.03 39.254 0.243 7.46 9.8 12.48
2/24/2023 2:30:00 PM 4.07 39.326 0.227 7.48 10.15 12.49
2/24/2023 2:45:00 PM 4.03 39.254 0.23 7.47 8.73 12.65
2/24/2023 3:00:00 PM 4.14 39.452 0.231 7.49 8.76 12.6
2/24/2023 3:15:00 PM 4.1 39.38 0.23 7.49 9.95 12.53
2/24/2023 3:30:00 PM 4.08 39.344 0.228 7.46 8.73 12.78
2/24/2023 3:45:00 PM 4.09 39.362 0.247 7.51 8.94 12.57
2/24/2023 4:00:00 PM 4.1 39.38 0.234 7.51 8.98 12.32
2/24/2023 4:15:00 PM 4.09 39.362 0.247 7.53 9.38 12.5
2/24/2023 4:30:00 PM 4.04 39.272 0.24 7.51 8.12 12.58
2/24/2023 4:45:00 PM 4.14 39.452 0.254 7.51 9.89 12.5
2/24/2023 5:00:00 PM 4.15 39.47 0.241 7.5 9.45 12.46
2/24/2023 5:15:00 PM 4.07 39.326 0.226 7.49 9.28 12.36
2/24/2023 5:30:00 PM 3.99 39.182 0.236 7.5 8.32 12.38
2/24/2023 5:45:00 PM 3.91 39.038 0.221 7.48 8.84 12.38
2/24/2023 6:00:00 PM 3.89 39.002 0.246 7.45 8.92 12.36
2/24/2023 6:15:00 PM 3.9 39.02 0.25 7.47 9.68 12.11
2/24/2023 6:30:00 PM 3.67 38.606 0.242 7.48 9.52 12.36
2/24/2023 6:45:00 PM 3.59 38.462 0.235 7.5 8.49 12.32
2/24/2023 7:00:00 PM 3.48 38.264 0.23 7.48 8.07 12.27
2/24/2023 7:15:00 PM 3.37 38.066 0.233 7.48 7.96 12.22
2/24/2023 7:30:00 PM 3.45 38.21 0.25 7.48 8.34 12.2
2/24/2023 7:45:00 PM 3.35 38.03 0.252 7.47 10.81 12.23
2/24/2023 8:00:00 PM 3.42 38.156 0.273 7.47 7.62 12.18
2/24/2023 8:15:00 PM 3.09 37.562 0.237 7.49 8.69 12.27
2/24/2023 8:30:00 PM 3.01 37.418 0.248 7.47 7.72 12.25
2/24/2023 8:45:00 PM 3.1 37.58 0.25 7.46 7.33 12.19
2/24/2023 9:00:00 PM 3.02 37.436 0.25 7.49 7.86 12.08
2/24/2023 9:15:00 PM 2.88 37.184 0.244 7.48 7.22 12.21
2/24/2023 9:30:00 PM 3.06 37.508 0.255 7.5 7.31 11.97
2/24/2023 9:45:00 PM 3.02 37.436 0.268 7.47 7.38 12.13
2/24/2023 10:00:00 PM 2.76 36.968 0.251 7.48 7.25 12.34
2/24/2023 10:15:00 PM 2.65 36.77 0.241 7.49 7.63 12.2
2/24/2023 10:30:00 PM 2.74 36.932 0.248 7.49 7.37 12.24
2/24/2023 10:45:00 PM 2.69 36.842 0.25 7.49 7.69 12.06
2/24/2023 11:00:00 PM 2.78 37.004 0.272 7.48 7.7 12.11
2/24/2023 11:15:00 PM 2.68 36.824 0.262 7.49 6.84 12.19
2/24/2023 11:30:00 PM 2.52 36.536 0.25 7.49 7.53 12.2
2/24/2023 11:45:00 PM 2.63 36.734 0.272 7.5 7.27 12.18
2/25/2023 12:00:00 AM 2.3 36.14 0.244 7.49 7.33 12.15
2/25/2023 12:15:00 AM 2.4 36.32 0.259 7.49 7.36 12.28
2/25/2023 12:30:00 AM 2.3 36.14 0.265 7.47 6.72 12.33
2/25/2023 12:45:00 AM 2.1 35.78 0.252 7.47 7.33 12.45
2/25/2023 1:00:00 AM 2.26 36.068 0.262 7.46 7.14 12.41
2/25/2023 1:15:00 AM 2.05 35.69 0.249 7.48 6.9 12.41
2/25/2023 1:30:00 AM 2.1 35.78 0.265 7.47 6.51 12.25
2/25/2023 1:45:00 AM 1.98 35.564 0.259 7.46 7.04 12.27
2/25/2023 2:00:00 AM 1.84 35.312 0.246 7.46 6.81 12.47
2/25/2023 2:15:00 AM 1.96 35.528 0.25 7.47 6.59 12.54
2/25/2023 2:30:00 AM 1.81 35.258 0.251 7.46 7.02 12.24
2/25/2023 2:45:00 AM 1.87 35.366 0.256 7.48 6.93 12.33
2/25/2023 3:00:00 AM 1.66 34.988 0.258 7.47 7.04 12.55
2/25/2023 3:15:00 AM 1.69 35.042 0.253 7.48 6.86 12.4
2/25/2023 3:30:00 AM 1.84 35.312 0.263 7.47 6.47 12.32
2/25/2023 3:45:00 AM 1.8 35.24 0.267 7.48 6.29 12.33
2/25/2023 4:00:00 AM 1.89 35.402 0.277 7.5 6.53 12.12
2/25/2023 4:15:00 AM 1.6 34.88 0.271 7.48 6.28 12.44
2/25/2023 4:30:00 AM 1.56 34.808 0.263 7.48 6.76 12.32
2/25/2023 4:45:00 AM 1.6 34.88 0.275 7.5 7.06 12.47
2/25/2023 5:00:00 AM 1.58 34.844 0.297 7.48 6.58 12.51
2/25/2023 5:15:00 AM 1.41 34.538 0.262 7.5 6.86 12.47
2/25/2023 5:30:00 AM 1.4 34.52 0.274 7.49 6.64 12.67
2/25/2023 5:45:00 AM 1.34 34.412 0.267 7.49 6.97 12.47
2/25/2023 6:00:00 AM 1.36 34.448 0.267 7.49 6.19 12.53
2/25/2023 6:15:00 AM 1.21 34.178 0.253 7.5 6.9 12.67
2/25/2023 6:30:00 AM 1.31 34.358 0.269 7.46 8.59 12.7
2/25/2023 6:45:00 AM 1.48 34.664 0.274 7.49 6.67 12.52
2/25/2023 7:00:00 AM 1.26 34.268 0.257 7.49 6.76 12.74
2/25/2023 7:15:00 AM 1.47 34.646 0.285 7.49 6.68 12.72
2/25/2023 7:30:00 AM 1.28 34.304 0.265 7.47 5.89 12.71
2/25/2023 7:45:00 AM 1.25 34.25 0.267 7.48 6.22 12.65
2/25/2023 8:00:00 AM 1.25 34.25 0.269 7.48 6.33 12.62
2/25/2023 8:15:00 AM 1.16 34.088 0.261 7.5 6.43 12.8
2/25/2023 8:30:00 AM 1.34 34.412 0.276 7.48 6.66 12.63
2/25/2023 8:45:00 AM 1.11 33.998 0.262 7.5 6.61 12.74
2/25/2023 9:00:00 AM 1.03 33.854 0.264 7.51 6.26 12.9
2/25/2023 9:15:00 AM 1.1 33.98 0.271 7.52 6.35 13.05
2/25/2023 9:30:00 AM 1.08 33.944 0.269 7.49 7 13.01
2/25/2023 9:45:00 AM 1.25 34.25 0.273 7.5 6.66 12.78
2/25/2023 10:00:00 AM 1.22 34.196 0.275 7.54 6.65 12.95
2/25/2023 10:15:00 AM 1.45 34.61 0.28 7.53 5.95 12.93
2/25/2023 10:30:00 AM 1.47 34.646 0.28 7.53 6.93 12.91
2/25/2023 10:45:00 AM 1.58 34.844 0.294 7.56 6.5 13.01
2/25/2023 11:00:00 AM 1.59 34.862 0.278 7.55 6.48 13.05
2/25/2023 11:15:00 AM 1.74 35.132 0.288 7.57 6.06 13.01
2/25/2023 11:30:00 AM 1.76 35.168 0.285 7.57 5.97 12.9
2/25/2023 11:45:00 AM 1.7 35.06 0.284 7.59 6.22 13.05
2/25/2023 12:00:00 PM 1.78 35.204 0.283 7.6 5.94 13.15
2/25/2023 12:15:00 PM 1.83 35.294 0.288 7.6 5.83 13.25
2/25/2023 12:30:00 PM 1.92 35.456 0.289 7.6 5.84 13.35
2/25/2023 12:45:00 PM 1.98 35.564 0.289 7.61 6.44 13.24
2/25/2023 1:00:00 PM 2.12 35.816 0.295 7.61 8.7 13.07
2/25/2023 1:15:00 PM 2.14 35.852 0.289 7.61 6.94 13.1
2/25/2023 1:30:00 PM 2.19 35.942 0.293 7.61 6.76 13.14
2/25/2023 1:45:00 PM 2.29 36.122 0.297 7.6 7.91 13.14
2/25/2023 2:00:00 PM 2.31 36.158 0.3 7.59 8.25 13.23
2/25/2023 2:15:00 PM 2.36 36.248 0.275 7.61 7 13.1
2/25/2023 2:30:00 PM 2.64 36.752 0.292 7.62 7 13.2
2/25/2023 2:45:00 PM 2.65 36.77 0.299 7.61 6.67 13.16
2/25/2023 3:00:00 PM 2.71 36.878 0.289 7.63 6.62 13.17
2/25/2023 3:15:00 PM 2.77 36.986 0.286 7.61 6.65 13.05
2/25/2023 3:30:00 PM 2.84 37.112 0.289 7.6 6.71 13.08
2/25/2023 3:45:00 PM 2.83 37.094 0.296 7.61 6.94 13.04
2/25/2023 4:00:00 PM 2.91 37.238 0.291 7.61 7 13.04
2/25/2023 4:15:00 PM 2.87 37.166 0.276 7.62 6.94 12.96
2/25/2023 4:30:00 PM 2.9 37.22 0.288 7.62 7.17 12.97
2/25/2023 4:45:00 PM 2.9 37.22 0.278 7.62 6.61 12.93
2/25/2023 5:00:00 PM 2.99 37.382 0.277 7.62 6.92 12.75
2/25/2023 5:15:00 PM 2.88 37.184 0.276 7.62 6.81 13
2/25/2023 5:30:00 PM 2.95 37.31 0.278 7.6 6.8 12.78
2/25/2023 5:45:00 PM 3.02 37.436 0.267 7.59 7.66 12.75
2/25/2023 6:00:00 PM 2.97 37.346 0.278 7.57 7 12.8
2/25/2023 6:15:00 PM 2.99 37.382 0.271 7.58 7.26 12.67
2/25/2023 6:30:00 PM 3 37.4 0.276 7.57 6.76 12.64
2/25/2023 6:45:00 PM 2.96 37.328 0.27 7.57 6.83 12.5
2/25/2023 7:00:00 PM 2.77 36.986 0.261 7.54 6.2 12.53
2/25/2023 7:15:00 PM 2.79 37.022 0.271 7.56 7.74 12.46
2/25/2023 7:30:00 PM 2.78 37.004 0.266 7.54 6.5 12.47
2/25/2023 7:45:00 PM 2.75 36.95 0.261 7.55 6.27 12.53
2/25/2023 8:00:00 PM 2.63 36.734 0.261 7.54 6.16 12.41
2/25/2023 8:15:00 PM 2.55 36.59 0.256 7.53 14.24 12.49
2/25/2023 8:30:00 PM 2.61 36.698 0.262 7.54 7.2 12.41
2/25/2023 8:45:00 PM 2.64 36.752 0.265 7.52 7.43 12.24
2/25/2023 9:00:00 PM 2.56 36.608 0.275 7.5 6.47 12.49
2/25/2023 9:15:00 PM 2.41 36.338 0.264 7.52 5.83 12.46
2/25/2023 9:30:00 PM 2.49 36.482 0.264 7.52 6.27 12.23
2/25/2023 9:45:00 PM 2.39 36.302 0.251 7.51 6.37 12.14
2/25/2023 10:00:00 PM 2.55 36.59 0.268 7.51 6 12.23
2/25/2023 10:15:00 PM 2.22 35.996 0.247 7.5 6.4 12.29
2/25/2023 10:30:00 PM 2.37 36.266 0.274 7.51 5.82 12.33
2/25/2023 10:45:00 PM 2.28 36.104 0.253 7.51 6.27 12.21
2/25/2023 11:00:00 PM 2.23 36.014 0.256 7.49 6.33 12.21
2/25/2023 11:15:00 PM 2.18 35.924 0.253 7.51 8.54 12.11
2/25/2023 11:30:00 PM 2.04 35.672 0.251 7.52 5.65 12.44
2/25/2023 11:45:00 PM 2.01 35.618 0.247 7.5 5.76 12.42
2/26/2023 12:00:00 AM 1.98 35.564 0.247 7.5 6.01 12.41
2/26/2023 12:15:00 AM 1.95 35.51 0.246 7.49 5.81 12.32
2/26/2023 12:30:00 AM 1.96 35.528 0.261 7.48 5.69 12.39
2/26/2023 12:45:00 AM 1.95 35.51 0.262 7.49 5.66 12.36
2/26/2023 1:00:00 AM 2.01 35.618 0.261 7.5 5.89 12.27
2/26/2023 1:15:00 AM 1.91 35.438 0.26 7.47 5.64 12.45
2/26/2023 1:30:00 AM 1.85 35.33 0.258 7.47 5.27 12.22
2/26/2023 1:45:00 AM 1.72 35.096 0.253 7.5 5.35 12.34
2/26/2023 2:00:00 AM 2.2 35.96 0.268 7.49 5.46 12.04
2/26/2023 2:15:00 AM 1.78 35.204 0.264 7.49 5.58 12.18
2/26/2023 2:30:00 AM 1.59 34.862 0.258 7.49 5.38 12.31
2/26/2023 2:45:00 AM 1.44 34.592 0.254 7.47 5.65 12.35
2/26/2023 3:00:00 AM 1.4 34.52 0.249 7.48 5.43 12.44
2/26/2023 3:15:00 AM 1.39 34.502 0.256 7.51 5.53 12.51
2/26/2023 3:30:00 AM 1.4 34.52 0.259 7.49 5.12 12.31
2/26/2023 3:45:00 AM 1.43 34.574 0.269 7.51 5.6 12.46
2/26/2023 4:00:00 AM 1.51 34.718 0.263 7.46 5.42 12.39
2/26/2023 4:15:00 AM 1.24 34.232 0.259 7.49 5.71 12.4
2/26/2023 4:30:00 AM 1.29 34.322 0.263 7.5 5.67 12.45
2/26/2023 4:45:00 AM 1.19 34.142 0.256 7.53 5.55 12.53
2/26/2023 5:00:00 AM 1.26 34.268 0.261 7.53 5.48 12.47
2/26/2023 5:15:00 AM 1.2 34.16 0.261 7.51 5.44 12.55
2/26/2023 5:30:00 AM 1.22 34.196 0.267 7.51 6.22 12.28
2/26/2023 5:45:00 AM 1.37 34.466 0.287 7.52 5.5 12.49
2/26/2023 6:00:00 AM 1.2 34.16 0.27 7.51 5.48 12.36
2/26/2023 6:15:00 AM 1.24 34.232 0.278 7.5 6.72 12.46
2/26/2023 6:30:00 AM 1.3 34.34 0.272 7.51 5.73 12.39
2/26/2023 6:45:00 AM 1.07 33.926 0.266 7.52 5.62 12.52
2/26/2023 7:00:00 AM 1.17 34.106 0.267 7.49 5.59 12.25
2/26/2023 7:15:00 AM 1.16 34.088 0.291 7.49 7.25 12.49
2/26/2023 7:30:00 AM 1.09 33.962 0.273 7.51 8.03 12.54
2/26/2023 7:45:00 AM 1.22 34.196 0.27 7.52 7.23 12.34
2/26/2023 8:00:00 AM 1.11 33.998 0.269 7.53 7.17 12.27
2/26/2023 8:15:00 AM 1.01 33.818 0.262 7.51 6.38 12.49
2/26/2023 8:30:00 AM 1.28 34.304 0.279 7.5 6.59 12.51
2/26/2023 8:45:00 AM 1.17 34.106 0.285 7.52 6.34 12.67
2/26/2023 9:00:00 AM 1.19 34.142 0.267 7.53 6.16 12.65
2/26/2023 9:15:00 AM 1.39 34.502 0.276 7.53 6.64 12.55
2/26/2023 9:30:00 AM 1.36 34.448 0.267 7.51 6.72 12.79
2/26/2023 9:45:00 AM 1.58 34.844 0.277 7.54 9.15 12.72
2/26/2023 10:00:00 AM 1.62 34.916 0.273 7.55 10.05 12.76
2/26/2023 10:15:00 AM 1.6 34.88 0.268 7.54 7.6 12.92
2/26/2023 10:30:00 AM 1.79 35.222 0.271 7.56 6.95 13.01
2/26/2023 10:45:00 AM 1.85 35.33 0.267 7.57 6.63 12.98
2/26/2023 11:00:00 AM 2.09 35.762 0.277 7.56 6.72 12.99
2/26/2023 11:15:00 AM 2.26 36.068 0.273 7.56 7.58 12.96
2/26/2023 11:30:00 AM 2.47 36.446 0.278 7.56 6.99 12.81
2/26/2023 11:45:00 AM 2.5 36.5 0.273 7.58 6.32 12.99
2/26/2023 12:00:00 PM 2.71 36.878 0.273 7.58 6.48 12.87
2/26/2023 12:15:00 PM 2.84 37.112 0.271 7.59 7.25 12.84
2/26/2023 12:30:00 PM 2.92 37.256 0.27 7.59 7.01 12.97
2/26/2023 12:45:00 PM 3.12 37.616 0.276 7.59 6.64 12.93
2/26/2023 1:00:00 PM 3.36 38.048 0.269 7.6 6.23 12.99
2/26/2023 1:15:00 PM 3.56 38.408 0.269 7.61 6.92 12.89
2/26/2023 1:30:00 PM 3.79 38.822 0.271 7.6 7.01 12.78
2/26/2023 1:45:00 PM 3.91 39.038 0.266 7.61 6.36 12.84
2/26/2023 2:00:00 PM 4.09 39.362 0.27 7.6 6.42 12.88
2/26/2023 2:15:00 PM 4.24 39.632 0.274 7.62 6.65 12.73
2/26/2023 2:30:00 PM 4.34 39.812 0.268 7.62 6.63 12.7
2/26/2023 2:45:00 PM 4.42 39.956 0.262 7.62 8.98 12.75
2/26/2023 3:00:00 PM 4.45 40.01 0.267 7.63 6.11 12.64
2/26/2023 3:15:00 PM 4.58 40.244 0.268 7.63 6.76 12.62
2/26/2023 3:30:00 PM 4.6 40.28 0.26 7.64 6.16 12.65
2/26/2023 3:45:00 PM 4.6 40.28 0.263 7.64 6.82 12.62
2/26/2023 4:00:00 PM 4.63 40.334 0.262 7.65 6.5 12.62
2/26/2023 4:15:00 PM 4.68 40.424 0.257 7.64 6.78 12.59
2/26/2023 4:30:00 PM 4.72 40.496 0.259 7.64 6.89 12.42
2/26/2023 4:45:00 PM 4.59 40.262 0.246 7.62 6.77 12.46
2/26/2023 5:00:00 PM 4.63 40.334 0.258 7.62 6.44 12.45
2/26/2023 5:15:00 PM 4.6 40.28 0.257 7.6 7.78 12.33
2/26/2023 5:30:00 PM 4.51 40.118 0.249 7.6 6.47 12.29
2/26/2023 5:45:00 PM 4.45 40.01 0.259 7.6 6.36 12.31
2/26/2023 6:00:00 PM 4.31 39.758 0.234 7.58 5.96 12.29
2/26/2023 6:15:00 PM 4.27 39.686 0.243 7.57 5.93 12.25
2/26/2023 6:30:00 PM 4.26 39.668 0.257 7.54 5.82 12.13
2/26/2023 6:45:00 PM 4.07 39.326 0.236 7.54 6.02 12.12
2/26/2023 7:00:00 PM 4.04 39.272 0.246 7.55 5.99 11.98
2/26/2023 7:15:00 PM 3.91 39.038 0.24 7.53 5.73 12.02
2/26/2023 7:30:00 PM 3.93 39.074 0.246 7.53 5.64 11.85
2/26/2023 7:45:00 PM 3.92 39.056 0.274 7.53 5.39 12.08
2/26/2023 8:00:00 PM 3.79 38.822 0.243 7.51 5.36 11.8
2/26/2023 8:15:00 PM 3.84 38.912 0.269 7.53 5.44 11.86
2/26/2023 8:30:00 PM 3.6 38.48 0.247 7.54 5.44 11.93
2/26/2023 8:45:00 PM 3.56 38.408 0.258 7.53 5.76 11.96
2/26/2023 9:00:00 PM 3.48 38.264 0.245 7.52 5.8 12.02
2/26/2023 9:15:00 PM 3.55 38.39 0.25 7.51 5.54 11.84
2/26/2023 9:30:00 PM 3.52 38.336 0.256 7.52 6.01 11.77
2/26/2023 9:45:00 PM 3.61 38.498 0.278 7.5 5.48 11.82
2/26/2023 10:00:00 PM 3.19 37.742 0.241 7.51 5.6 11.8
2/26/2023 10:15:00 PM 3.27 37.886 0.253 7.52 6.78 11.84
2/26/2023 10:30:00 PM 3.19 37.742 0.245 7.5 5.94 11.85
2/26/2023 10:45:00 PM 3.19 37.742 0.241 7.49 5.57 11.83
2/26/2023 11:00:00 PM 3.02 37.436 0.233 7.46 6.08 11.74
2/26/2023 11:15:00 PM 2.89 37.202 0.256 7.48 6.23 12.05
2/26/2023 11:30:00 PM 2.77 36.986 0.227 7.45 5.89 11.93
2/26/2023 11:45:00 PM 2.76 36.968 0.241 7.47 6.03 11.96
2/27/2023 12:00:00 AM 2.71 36.878 0.243 7.46 10.31 11.85
2/27/2023 12:15:00 AM 2.65 36.77 0.248 7.46 14.16 11.98
2/27/2023 12:30:00 AM 2.77 36.986 0.243 7.45 7.57 11.82
2/27/2023 12:45:00 AM 2.87 37.166 0.261 7.44 6.06 11.86
2/27/2023 1:00:00 AM 2.56 36.608 0.237 7.47 6.19 12.01
2/27/2023 1:15:00 AM 2.44 36.392 0.24 7.48 6.2 12.12
2/27/2023 1:30:00 AM 2.55 36.59 0.244 7.46 6.01 12.05
2/27/2023 1:45:00 AM 2.42 36.356 0.237 7.48 6.22 12.03
2/27/2023 2:00:00 AM 2.35 36.23 0.239 7.47 5.68 12.08
2/27/2023 2:15:00 AM 2.36 36.248 0.244 7.48 5.91 12.1
2/27/2023 2:30:00 AM 2.36 36.248 0.255 7.48 5.63 11.97
2/27/2023 2:45:00 AM 2.3 36.14 0.246 7.48 5.72 12.01
2/27/2023 3:00:00 AM 2.3 36.14 0.247 7.49 5.85 12.04
2/27/2023 3:15:00 AM 2.34 36.212 0.255 7.48 5.9 12.06
2/27/2023 3:30:00 AM 2.31 36.158 0.262 7.48 5.71 12.05
2/27/2023 3:45:00 AM 2.17 35.906 0.26 7.48 5.7 12.08
2/27/2023 4:00:00 AM 2.3 36.14 0.261 7.46 5.77 12.08
2/27/2023 4:15:00 AM 2.1 35.78 0.253 7.48 5.45 12.04
2/27/2023 4:30:00 AM 2.22 35.996 0.257 7.46 6.77 12.09
2/27/2023 4:45:00 AM 2.01 35.618 0.248 7.47 7.43 12.34
2/27/2023 5:00:00 AM 2.04 35.672 0.246 7.48 5.92 12.26
2/27/2023 5:15:00 AM 2.5 36.5 0.253 7.44 6.02 12.08
2/27/2023 5:30:00 AM 2.07 35.726 0.261 7.44 6.35 12.25
2/27/2023 5:45:00 AM 2 35.6 0.235 7.45 5.93 12.15
2/27/2023 6:00:00 AM 2.02 35.636 0.254 7.45 6.17 12.19
2/27/2023 6:15:00 AM 2.09 35.762 0.251 7.47 6.52 12.17
2/27/2023 6:30:00 AM 1.72 35.096 0.235 7.44 6.64 12.23
2/27/2023 6:45:00 AM 1.89 35.402 0.264 7.44 6.43 12.35
2/27/2023 7:00:00 AM 1.88 35.384 0.253 7.45 6.87 12.25
2/27/2023 7:15:00 AM 1.82 35.276 0.244 7.45 6.15 12.13
2/27/2023 7:30:00 AM 1.85 35.33 0.257 7.47 6.72 12.06
2/27/2023 7:45:00 AM 1.7 35.06 0.243 7.48 6.58 12.39
2/27/2023 8:00:00 AM 1.83 35.294 0.257 7.49 6.37 12.2
2/27/2023 8:15:00 AM 1.62 34.916 0.243 7.49 6.84 12.44
2/27/2023 8:30:00 AM 1.69 35.042 0.264 7.47 6.57 12.68
2/27/2023 8:45:00 AM 1.73 35.114 0.255 7.49 6.52 12.6
2/27/2023 9:00:00 AM 1.97 35.546 0.268 7.5 6.65 12.47
2/27/2023 9:15:00 AM 1.84 35.312 0.279 7.5 6.08 12.75
2/27/2023 9:30:00 AM 1.81 35.258 0.255 7.49 6.19 12.75
2/27/2023 9:45:00 AM 1.98 35.564 0.245 7.49 5.92 12.61
2/27/2023 10:00:00 AM 2.06 35.708 0.262 7.51 6.29 12.8
2/27/2023 10:15:00 AM 2.1 35.78 0.259 7.49 6.09 12.86
2/27/2023 10:30:00 AM 2.22 35.996 0.251 7.53 6.36 12.82
2/27/2023 10:45:00 AM 2.47 36.446 0.254 7.53 6.6 12.81
2/27/2023 11:00:00 AM 2.35 36.23 0.25 7.52 5.75 12.84
2/27/2023 11:15:00 AM 2.6 36.68 0.258 7.53 6.29 12.9
2/27/2023 11:30:00 AM 2.78 37.004 0.26 7.54 6.43 12.9
2/27/2023 11:45:00 AM 2.77 36.986 0.247 7.55 6.3 12.89
2/27/2023 12:00:00 PM 3.01 37.418 0.255 7.55 5.76 12.74
2/27/2023 12:15:00 PM 3.18 37.724 0.259 7.56 6.19 13
2/27/2023 12:30:00 PM 3.35 38.03 0.272 7.55 5.99 13.09
2/27/2023 12:45:00 PM 3.54 38.372 0.283 7.54 5.45 13
2/27/2023 1:00:00 PM 3.51 38.318 0.254 7.57 5.53 13.02
2/27/2023 1:15:00 PM 3.7 38.66 0.267 7.59 5.58 12.77
2/27/2023 1:30:00 PM 3.76 38.768 0.257 7.57 5.51 12.83
2/27/2023 1:45:00 PM 3.84 38.912 0.274 7.57 6.01 12.91
2/27/2023 2:00:00 PM 4 39.2 0.267 7.59 6.94 12.79
2/27/2023 2:15:00 PM 4.04 39.272 0.262 7.61 6.2 12.9
2/27/2023 2:30:00 PM 4.13 39.434 0.267 7.61 6.25 12.87
2/27/2023 2:45:00 PM 4.19 39.542 0.263 7.61 7.34 12.82
2/27/2023 3:00:00 PM 4.23 39.614 0.267 7.6 5.91 12.74
2/27/2023 3:15:00 PM 4.3 39.74 0.275 7.61 7.04 12.81
2/27/2023 3:30:00 PM 4.43 39.974 0.268 7.62 5.47 12.54
2/27/2023 3:45:00 PM 4.26 39.668 0.267 7.62 11.21 12.69
2/27/2023 4:00:00 PM 4.28 39.704 0.267 7.63 5.58 12.66
2/27/2023 4:15:00 PM 4.31 39.758 0.275 7.62 5.14 12.6
2/27/2023 4:30:00 PM 4.25 39.65 0.267 7.63 5.21 12.55
2/27/2023 4:45:00 PM 4.31 39.758 0.271 7.63 5.27 12.56
2/27/2023 5:00:00 PM 4.46 40.028 0.284 7.62 6.31 12.4
2/27/2023 5:15:00 PM 4.34 39.812 0.283 7.62 7.37 12.35
2/27/2023 5:30:00 PM 4.35 39.83 0.272 7.6 9.52 12.31
2/27/2023 5:45:00 PM 4.3 39.74 0.276 7.59 5.32 12.26
2/27/2023 6:00:00 PM 4.03 39.254 0.261 7.61 5.16 12.27
2/27/2023 6:15:00 PM 4.18 39.524 0.291 7.58 5.46 12.11
2/27/2023 6:30:00 PM 3.99 39.182 0.272 7.59 4.93 12
2/27/2023 6:45:00 PM 3.94 39.092 0.274 7.59 5.99 12
2/27/2023 7:00:00 PM 3.82 38.876 0.276 7.58 5.17 11.84
2/27/2023 7:15:00 PM 3.49 38.282 0.261 7.57 5.04 11.93
2/27/2023 7:30:00 PM 3.39 38.102 0.257 7.56 5.01 11.82
2/27/2023 7:45:00 PM 3.29 37.922 0.266 7.55 4.83 11.91
2/27/2023 8:00:00 PM 3.32 37.976 0.268 7.53 4.95 11.82
2/27/2023 8:15:00 PM 3.26 37.868 0.27 7.52 4.5 11.85
2/27/2023 8:30:00 PM 3.13 37.634 0.28 7.55 8.42 11.85
2/27/2023 8:45:00 PM 3.07 37.526 0.286 7.55 5.07 11.92
2/27/2023 9:00:00 PM 3.03 37.454 0.281 7.56 5.47 11.91
2/27/2023 9:15:00 PM 3 37.4 0.271 7.54 5.23 11.87
2/27/2023 9:30:00 PM 2.96 37.328 0.269 7.55 5.16 11.89
2/27/2023 9:45:00 PM 3.16 37.688 0.281 7.55 5.64 11.69
2/27/2023 10:00:00 PM 2.83 37.094 0.265 7.51 5.2 11.91
2/27/2023 10:15:00 PM 2.92 37.256 0.269 7.54 6.15 11.82
2/27/2023 10:30:00 PM 2.68 36.824 0.262 7.53 9.44 11.89
2/27/2023 10:45:00 PM 2.86 37.148 0.279 7.51 4.97 11.37
2/27/2023 11:00:00 PM 2.83 37.094 0.292 7.51 5.59 11.9
2/27/2023 11:15:00 PM 2.67 36.806 0.263 7.51 4.9 11.63
2/27/2023 11:30:00 PM 2.58 36.644 0.277 7.49 4.94 11.84
2/27/2023 11:45:00 PM 2.65 36.77 0.268 7.51 5.14 11.75
2/28/2023 12:00:00 AM 2.76 36.968 0.289 7.49 5.11 11.87
2/28/2023 12:15:00 AM 2.56 36.608 0.275 7.52 4.78 11.81
2/28/2023 12:30:00 AM 2.69 36.842 0.276 7.52 5.52 11.81
2/28/2023 12:45:00 AM 2.71 36.878 0.274 7.53 5.17 11.65
2/28/2023 1:00:00 AM 2.41 36.338 0.273 7.53 5.55 11.87
2/28/2023 1:15:00 AM 3.04 37.472 0.302 7.48 5.35 11.68
2/28/2023 1:30:00 AM 2.47 36.446 0.277 7.5 5.08 11.97
2/28/2023 1:45:00 AM 2.58 36.644 0.284 7.5 5.47 11.71
2/28/2023 2:00:00 AM 2.44 36.392 0.278 7.5 4.69 11.85
2/28/2023 2:15:00 AM 2.68 36.824 0.279 7.46 4.66 11.88
2/28/2023 2:30:00 AM 2.62 36.716 0.281 7.51 5.2 11.86
2/28/2023 2:45:00 AM 2.5 36.5 0.283 7.51 5.04 12.05
2/28/2023 3:00:00 AM 2.23 36.014 0.28 7.5 4.56 11.95
2/28/2023 3:15:00 AM 2.44 36.392 0.287 7.5 4.85 11.73
2/28/2023 3:30:00 AM 2.16 35.888 0.265 7.48 4.95 12.04
2/28/2023 3:45:00 AM 2.37 36.266 0.273 7.51 4.72 11.99
2/28/2023 4:00:00 AM 2.39 36.302 0.316 7.49 4.83 12.21
2/28/2023 4:15:00 AM 2.26 36.068 0.286 7.5 4.24 11.98
2/28/2023 4:30:00 AM 2.11 35.798 0.276 7.51 4.97 11.98
2/28/2023 4:45:00 AM 2.25 36.05 0.284 7.48 5.21 12.05
2/28/2023 5:00:00 AM 2.32 36.176 0.291 7.49 5.1 11.81
2/28/2023 5:15:00 AM 2.02 35.636 0.289 7.51 21.9 11.81
2/28/2023 5:30:00 AM 2.01 35.618 0.281 7.51 755.2 12.09
2/28/2023 5:45:00 AM 2.08 35.744 0.265 7.51 4.83 11.94
2/28/2023 6:00:00 AM 2.12 35.816 0.288 7.51 5.15 12.01
2/28/2023 6:15:00 AM 2.02 35.636 0.294 7.52 5.09 11.96
2/28/2023 6:30:00 AM 2.02 35.636 0.278 7.52 5.01 12.01
2/28/2023 6:45:00 AM 1.83 35.294 0.286 7.51 6.97 12
2/28/2023 7:00:00 AM 1.97 35.546 0.297 7.52 5.95 12.07
2/28/2023 7:15:00 AM 1.93 35.474 0.276 7.52 5.5 11.81
2/28/2023 7:30:00 AM 1.88 35.384 0.28 7.49 7.63 12.09
2/28/2023 7:45:00 AM 1.93 35.474 0.28 7.53 6.49 11.98
2/28/2023 8:00:00 AM 1.8 35.24 0.289 7.51 4.79 11.77
2/28/2023 8:15:00 AM 1.81 35.258 0.296 7.51 5.31 12.09
2/28/2023 8:30:00 AM 1.86 35.348 0.301 7.54 8.57 11.89
2/28/2023 8:45:00 AM 1.79 35.222 0.305 7.53 5.29 12.19
2/28/2023 9:00:00 AM 1.94 35.492 0.295 7.53 4.42 12.09
2/28/2023 9:15:00 AM 1.78 35.204 0.304 7.53 5 12.17
2/28/2023 9:30:00 AM 2.01 35.618 0.327 7.54 7.72 12.37
2/28/2023 9:45:00 AM 1.79 35.222 0.31 7.55 4.78 12.46
2/28/2023 10:00:00 AM 1.93 35.474 0.316 7.54 5.17 12.26
2/28/2023 10:15:00 AM 2.06 35.708 0.32 7.55 5.01 12.34
2/28/2023 10:30:00 AM 1.96 35.528 0.302 7.56 4.54 12.45
2/28/2023 10:45:00 AM 1.95 35.51 0.31 7.56 4.63 12.53
2/28/2023 11:00:00 AM 1.88 35.384 0.301 7.57 5.92 12.6
2/28/2023 11:15:00 AM 2.09 35.762 0.304 7.57 4.75 12.51
2/28/2023 11:30:00 AM 2.02 35.636 0.291 7.57 4.58 12.66
2/28/2023 11:45:00 AM 2.17 35.906 0.312 7.56 4.63 12.58
2/28/2023 12:00:00 PM 2.26 36.068 0.317 7.58 5.04 12.3
2/28/2023 12:15:00 PM 2.24 36.032 0.321 7.56 5.62 12.74
2/28/2023 12:30:00 PM 2.29 36.122 0.323 7.59 5.39 12.65
2/28/2023 12:45:00 PM 2.56 36.608 0.346 7.57 5.61 12.75
2/28/2023 1:00:00 PM 2.5 36.5 0.353 7.59 6.76 12.84
2/28/2023 1:15:00 PM 2.37 36.266 0.328 7.58 6.18 12.83
2/28/2023 1:30:00 PM 2.59 36.662 0.326 7.6 6.13 12.64
2/28/2023 1:45:00 PM 2.67 36.806 0.34 7.59 6.52 12.82
2/28/2023 2:00:00 PM 2.89 37.202 0.325 7.58 5.92 12.64
2/28/2023 2:15:00 PM 2.82 37.076 0.337 7.6 5.67 12.76
2/28/2023 2:30:00 PM 3.11 37.598 0.332 7.59 5.5 12.77
2/28/2023 2:45:00 PM 3 37.4 0.332 7.6 6.54 12.62
2/28/2023 3:00:00 PM 3.11 37.598 0.336 7.59 4.89 12.52
2/28/2023 3:15:00 PM 2.98 37.364 0.325 7.61 5.29 12.8
2/28/2023 3:30:00 PM 3.05 37.49 0.323 7.61 5.37 12.82
2/28/2023 3:45:00 PM 3.07 37.526 0.322 7.59 4.88 12.9
2/28/2023 4:00:00 PM 3.14 37.652 0.322 7.61 4.75 12.72
2/28/2023 4:15:00 PM 3.02 37.436 0.303 7.62 5.09 12.81
2/28/2023 4:30:00 PM 3.25 37.85 0.316 7.61 5.47 12.71
2/28/2023 4:45:00 PM 3.28 37.904 0.333 7.61 5.17 12.75
2/28/2023 5:00:00 PM 3.23 37.814 0.307 7.61 6.13 12.64
2/28/2023 5:15:00 PM 3.42 38.156 0.325 7.6 4.92 12.55
2/28/2023 5:30:00 PM 3.29 37.922 0.314 7.61 5.04 12.54
2/28/2023 5:45:00 PM 3.24 37.832 0.315 7.6 4.7 12.58
2/28/2023 6:00:00 PM 3.36 38.048 0.322 7.6 5.4 12.52
2/28/2023 6:15:00 PM 3.4 38.12 0.311 7.6 6.42 12.5
2/28/2023 6:30:00 PM 3.51 38.318 0.323 7.57 4.49 12.15
2/28/2023 6:45:00 PM 3.43 38.174 0.321 7.57 4.63 12.18
2/28/2023 7:00:00 PM 3.4 38.12 0.309 7.56 4.97 12.25
2/28/2023 7:15:00 PM 3.42 38.156 0.316 7.57 4.93 12.29
2/28/2023 7:30:00 PM 3.45 38.21 0.328 7.54 5 12.2
2/28/2023 7:45:00 PM 3.21 37.778 0.312 7.56 4.77 12.37
2/28/2023 8:00:00 PM 3.44 38.192 0.324 7.55 5.74 12.1
2/28/2023 8:15:00 PM 3.25 37.85 0.31 7.56 5.45 12.14
2/28/2023 8:30:00 PM 3.36 38.048 0.312 7.53 4.86 11.96
2/28/2023 8:45:00 PM 3.38 38.084 0.308 7.54 4.97 12.18
2/28/2023 9:00:00 PM 3.27 37.886 0.305 7.54 4.97 12.04
2/28/2023 9:15:00 PM 3.21 37.778 0.322 7.56 4.97 12.13
2/28/2023 9:30:00 PM 3.23 37.814 0.3 7.48 4.65 12.19
2/28/2023 9:45:00 PM 3.02 37.436 0.288 7.53 17.47 11.79
2/28/2023 10:00:00 PM 3.37 38.066 0.315 7.51 25.21 12.05
2/28/2023 10:15:00 PM 2.99 37.382 0.273 7.5 5.34 11.98
2/28/2023 10:30:00 PM 2.94 37.292 0.28 7.5 4.97 12.1
2/28/2023 10:45:00 PM 3.31 37.958 0.313 7.47 5.16 11.76
2/28/2023 11:00:00 PM 2.79 37.022 0.273 7.49 6.51 12.05
2/28/2023 11:15:00 PM 2.99 37.382 0.294 7.5 5.2 12.25
2/28/2023 11:30:00 PM 2.9 37.22 0.281 7.49 4.56 12.03
2/28/2023 11:45:00 PM 2.77 36.986 0.283 7.48 5.22 12.07
3/1/2023 12:00:00 AM 2.9 37.22 0.289 7.47 5.29 11.92
3/1/2023 12:15:00 AM 3.15 37.67 0.31 7.45 5.06 11.65
3/1/2023 12:30:00 AM 3.01 37.418 0.294 7.43 4.07 11.75
3/1/2023 12:45:00 AM 2.71 36.878 0.276 7.47 4.73 11.78
3/1/2023 1:00:00 AM 2.82 37.076 0.289 7.49 4.84 11.88
3/1/2023 1:15:00 AM 2.82 37.076 0.291 7.46 4.89 11.89
3/1/2023 1:30:00 AM 2.78 37.004 0.298 7.47 5.13 12
3/1/2023 1:45:00 AM 2.75 36.95 0.297 7.46 4.99 11.85
3/1/2023 2:00:00 AM 2.64 36.752 0.276 7.46 5 12.09
3/1/2023 2:15:00 AM 2.76 36.968 0.299 7.48 4.7 11.96
3/1/2023 2:30:00 AM 2.57 36.626 0.276 7.45 4.98 12.11
3/1/2023 2:45:00 AM 2.64 36.752 0.3 7.48 5.07 12.08
3/1/2023 3:00:00 AM 2.53 36.554 0.292 7.46 5.25 12.11
3/1/2023 3:15:00 AM 2.6 36.68 0.291 7.47 4.41 11.98
3/1/2023 3:30:00 AM 2.51 36.518 0.288 7.47 4.42 12.01
3/1/2023 3:45:00 AM 3.06 37.508 0.31 7.46 4.6 11.87
3/1/2023 4:00:00 AM 2.69 36.842 0.292 7.48 5.23 11.97
3/1/2023 4:15:00 AM 2.75 36.95 0.297 7.47 4.8 11.86
3/1/2023 4:30:00 AM 2.54 36.572 0.299 7.47 5.56 11.79
3/1/2023 4:45:00 AM 2.23 36.014 0.274 7.48 4.93 12.24
3/1/2023 5:00:00 AM 2.23 36.014 0.277 7.46 4.88 12.23
3/1/2023 5:15:00 AM 2.53 36.554 0.3 7.47 4.92 11.97
3/1/2023 5:30:00 AM 2.26 36.068 0.291 7.45 5.25 12.31
3/1/2023 5:45:00 AM 2.32 36.176 0.278 7.47 4.65 12.09
3/1/2023 6:00:00 AM 2.24 36.032 0.276 7.49 5.51 12.08
3/1/2023 6:15:00 AM 2.37 36.266 0.295 7.48 10.59 12.01
3/1/2023 6:30:00 AM 2.16 35.888 0.291 7.49 18.18 12.08
3/1/2023 6:45:00 AM 2.4 36.32 0.323 7.47 7.73 12.13
3/1/2023 7:00:00 AM 2.17 35.906 0.278 7.48 9.24 12.13
3/1/2023 7:15:00 AM 2.26 36.068 0.301 7.48 13.91 12.12
3/1/2023 7:30:00 AM 2.15 35.87 0.298 7.45 13.92 12.36
3/1/2023 7:45:00 AM 1.98 35.564 0.291 7.47 9.59 12.28
3/1/2023 8:00:00 AM 2.14 35.852 0.287 7.52 10.03 12.27
3/1/2023 8:15:00 AM 2.29 36.122 0.279 7.49 8.88 12.25
3/1/2023 8:30:00 AM 2.06 35.708 0.292 7.51 9.25 12.16
3/1/2023 8:45:00 AM 2.03 35.654 0.285 7.5 16.79 12.45
3/1/2023 9:00:00 AM 2.41 36.338 0.324 7.47 16.23 12.54
3/1/2023 9:15:00 AM 2.14 35.852 0.28 7.53 7.65 12.64
3/1/2023 9:30:00 AM 2.53 36.554 0.316 7.53 12.57 12.51
3/1/2023 9:45:00 AM 2.3 36.14 0.286 7.54 6.35 12.61
3/1/2023 10:00:00 AM 2.47 36.446 0.284 7.53 9.06 12.65
3/1/2023 10:15:00 AM 2.47 36.446 0.293 7.52 6.15 12.68
3/1/2023 10:30:00 AM 2.57 36.626 0.279 7.55 6.06 12.84
3/1/2023 10:45:00 AM 2.48 36.464 0.283 7.55 13.93 12.85
3/1/2023 11:00:00 AM 2.57 36.626 0.281 7.54 11.12 12.8
3/1/2023 11:15:00 AM 2.67 36.806 0.281 7.55 5.6 12.62
3/1/2023 11:30:00 AM 2.64 36.752 0.288 7.59 6.38 12.79
3/1/2023 11:45:00 AM 2.79 37.022 0.294 7.55 8 12.72
3/1/2023 12:00:00 PM 2.86 37.148 0.284 7.56 6.09 12.72
3/1/2023 12:15:00 PM 3 37.4 0.289 7.56 5.61 12.77
3/1/2023 12:30:00 PM 3.05 37.49 0.295 7.57 6.15 12.66
3/1/2023 12:45:00 PM 3.18 37.724 0.294 7.57 5.6 12.78
3/1/2023 1:00:00 PM 3.25 37.85 0.295 7.58 5.79 12.74
3/1/2023 1:15:00 PM 3.41 38.138 0.296 7.55 5.11 12.68
3/1/2023 1:30:00 PM 3.57 38.426 0.302 7.55 5.27 12.7
3/1/2023 1:45:00 PM 3.64 38.552 0.303 7.57 4.81 12.76
3/1/2023 2:00:00 PM 3.55 38.39 0.32 7.56 5.94 12.68
3/1/2023 2:15:00 PM 3.96 39.128 0.28 7.54 4.76 12.6
3/1/2023 2:30:00 PM 3.66 38.588 0.29 7.6 5.67 12.69
3/1/2023 2:45:00 PM 3.88 38.984 0.313 7.59 5 12.7
3/1/2023 3:00:00 PM 3.8 38.84 0.282 7.6 4.94 12.76
3/1/2023 3:15:00 PM 4.08 39.344 0.295 7.59 5.69 12.65
3/1/2023 3:30:00 PM 4.04 39.272 0.325 7.6 6.02 12.61
3/1/2023 3:45:00 PM 3.96 39.128 0.291 7.6 5.28 12.79
3/1/2023 4:00:00 PM 4.31 39.758 0.33 7.59 5.21 12.68
3/1/2023 4:15:00 PM 4.14 39.452 0.298 7.61 6.19 12.72
3/1/2023 4:30:00 PM 4.05 39.29 0.293 7.62 6.03 12.7
3/1/2023 4:45:00 PM 4.16 39.488 0.295 7.63 6.27 12.44
3/1/2023 5:00:00 PM 4.13 39.434 0.287 7.6 6.11 12.46
3/1/2023 5:15:00 PM 4.18 39.524 0.414 7.6 5.72 12.55
3/1/2023 5:30:00 PM 4.18 39.524 0.294 7.61 5.97 12.43
3/1/2023 5:45:00 PM 4.32 39.776 0.299 7.6 5.16 12.39
3/1/2023 6:00:00 PM 4.16 39.488 0.31 7.58 6.16 12.24
3/1/2023 6:15:00 PM 4.33 39.794 0.367 7.59 5.38 12.12
3/1/2023 6:30:00 PM 4.03 39.254 0.295 7.57 5.87 12.28
3/1/2023 6:45:00 PM 4.3 39.74 0.316 7.58 5.72 12.01
3/1/2023 7:00:00 PM 4.14 39.452 0.307 7.59 5.71 12.06
3/1/2023 7:15:00 PM 4.01 39.218 0.295 7.58 5.72 12.06
3/1/2023 7:30:00 PM 4.05 39.29 0.292 7.58 6.88 11.99
3/1/2023 7:45:00 PM 3.96 39.128 0.287 7.59 7.7 11.86
3/1/2023 8:00:00 PM 4.04 39.272 0.29 7.57 7.79 11.85
3/1/2023 8:15:00 PM 3.98 39.164 0.292 7.55 7.3 11.83
3/1/2023 8:30:00 PM 3.89 39.002 0.298 7.57 6.93 11.85
3/1/2023 8:45:00 PM 3.99 39.182 0.309 7.56 7.1 11.79
3/1/2023 9:00:00 PM 4 39.2 0.315 7.55 7.11 11.58
3/1/2023 9:15:00 PM 3.89 39.002 0.318 7.54 7.17 11.71
3/1/2023 9:30:00 PM 3.83 38.894 0.296 7.55 6.6 11.75
3/1/2023 9:45:00 PM 3.72 38.696 0.299 7.53 7.05 11.76
3/1/2023 10:00:00 PM 3.9 39.02 0.307 7.53 6.73 11.77
3/1/2023 10:15:00 PM 3.55 38.39 0.307 7.53 6.06 11.8
3/1/2023 10:30:00 PM 3.68 38.624 0.292 7.53 6.45 11.47
3/1/2023 10:45:00 PM 3.76 38.768 0.31 7.54 10.79 11.53
3/1/2023 11:00:00 PM 3.54 38.372 0.291 7.53 5.77 11.73
3/1/2023 11:15:00 PM 3.64 38.552 0.311 7.52 6.56 11.47
3/1/2023 11:30:00 PM 3.64 38.552 0.304 7.53 5.56 11.62
3/1/2023 11:45:00 PM 3.68 38.624 0.3 7.53 6.04 11.5
3/2/2023 12:00:00 AM 3.7 38.66 0.306 7.54 7.01 11.58
3/2/2023 12:15:00 AM 3.76 38.768 0.297 7.52 6.2 11.58
3/2/2023 12:30:00 AM 3.65 38.57 0.297 7.52 6.56 11.52
3/2/2023 12:45:00 AM 3.66 38.588 0.301 7.51 5.46 11.6
3/2/2023 1:00:00 AM 3.53 38.354 0.294 7.54 5.46 11.68
3/2/2023 1:15:00 AM 3.58 38.444 0.3 7.52 5.86 11.63
3/2/2023 1:30:00 AM 3.57 38.426 0.292 7.51 5.64 11.65
3/2/2023 1:45:00 AM 3.61 38.498 0.304 7.51 5.22 11.78
3/2/2023 2:00:00 AM 3.99 39.182 0.296 7.51 4.9 11.45
3/2/2023 2:15:00 AM 3.64 38.552 0.299 7.51 4.77 11.56
3/2/2023 2:30:00 AM 3.66 38.588 0.302 7.5 4.44 11.24
3/2/2023 2:45:00 AM 3.55 38.39 0.302 7.52 4.95 11.59
3/2/2023 3:00:00 AM 3.69 38.642 0.303 7.5 4.79 11.35
3/2/2023 3:15:00 AM 3.54 38.372 0.292 7.51 4.67 11.51
3/2/2023 3:30:00 AM 3.66 38.588 0.321 7.51 5.02 11.7
3/2/2023 3:45:00 AM 3.56 38.408 0.303 7.51 4.98 11.53
3/2/2023 4:00:00 AM 3.58 38.444 0.292 7.49 4.66 11.6
3/2/2023 4:15:00 AM 3.62 38.516 0.297 7.52 4.83 11.53
3/2/2023 4:30:00 AM 3.59 38.462 0.306 7.51 5.39 11.56
3/2/2023 4:45:00 AM 3.57 38.426 0.308 7.5 4.87 11.55
3/2/2023 5:00:00 AM 3.72 38.696 0.306 7.49 4.83 11.39
3/2/2023 5:15:00 AM 3.58 38.444 0.299 7.49 4.19 11.46
3/2/2023 5:30:00 AM 3.71 38.678 0.304 7.5 4.91 11.32
3/2/2023 5:45:00 AM 3.65 38.57 0.297 7.49 4.68 11.36
3/2/2023 6:00:00 AM 3.52 38.336 0.315 7.52 4.37 11.68
3/2/2023 6:15:00 AM 3.56 38.408 0.307 7.47 5.38 11.49
3/2/2023 6:30:00 AM 3.64 38.552 0.301 7.47 5.02 11.47
3/2/2023 6:45:00 AM 3.48 38.264 0.291 7.52 5.33 11.52
3/2/2023 7:00:00 AM 3.56 38.408 0.307 7.5 5.9 11.28
3/2/2023 7:15:00 AM 3.56 38.408 0.301 7.5 4.97 11.43
3/2/2023 7:30:00 AM 3.56 38.408 0.307 7.49 4.64 11.55
3/2/2023 7:45:00 AM 3.67 38.606 0.294 7.49 5.3 11.44
3/2/2023 8:00:00 AM 3.6 38.48 0.292 7.51 5.06 11.6
3/2/2023 8:15:00 AM 3.83 38.894 0.322 7.49 5.24 11.69
3/2/2023 8:30:00 AM 3.62 38.516 0.304 7.51 5.08 11.74
3/2/2023 8:45:00 AM 3.98 39.164 0.323 7.51 4.45 11.49
3/2/2023 9:00:00 AM 3.79 38.822 0.308 7.51 4.91 11.99
3/2/2023 9:15:00 AM 3.74 38.732 0.284 7.53 4.64 11.48
3/2/2023 9:30:00 AM 3.71 38.678 0.29 7.53 4.66 11.88
3/2/2023 9:45:00 AM 3.94 39.092 0.312 7.53 4.31 11.9
3/2/2023 10:00:00 AM 3.88 38.984 0.289 7.57 4.5 11.91
3/2/2023 10:15:00 AM 4.24 39.632 0.329 7.53 4.61 11.89
3/2/2023 10:30:00 AM 3.98 39.164 0.298 7.54 4.58 11.84
3/2/2023 10:45:00 AM 4.24 39.632 0.286 7.56 4.93 11.9
3/2/2023 11:00:00 AM 4.58 40.244 0.309 7.57 4.83 11.65
3/2/2023 11:15:00 AM 4.43 39.974 0.306 7.57 24.33 12.02
3/2/2023 11:30:00 AM 4.37 39.866 0.29 7.57 7.2 12.09
3/2/2023 11:45:00 AM 4.59 40.262 0.3 7.54 5.77 12.15
3/2/2023 12:00:00 PM 4.75 40.55 0.304 7.58 4.82 12.18
3/2/2023 12:15:00 PM 5.01 41.018 0.308 7.58 4.95 12.13
3/2/2023 12:30:00 PM 5.15 41.27 0.31 7.59 4.81 12.05
3/2/2023 12:45:00 PM 5.29 41.522 0.297 7.62 4.97 12.33
3/2/2023 1:00:00 PM 5.27 41.486 0.294 7.6 4.68 12.21
3/2/2023 1:15:00 PM 5.41 41.738 0.308 7.61 5.05 12.25
3/2/2023 1:30:00 PM 5.46 41.828 0.288 7.62 4.68 12.26
3/2/2023 1:45:00 PM 5.56 42.008 0.3 7.61 4.67 12.22
3/2/2023 2:00:00 PM 5.74 42.332 0.313 7.62 4.9 12.22
3/2/2023 2:15:00 PM 5.75 42.35 0.315 7.63 4.78 12.14
3/2/2023 2:30:00 PM 5.85 42.53 0.334 7.59 4.73 12.06
3/2/2023 2:45:00 PM 5.98 42.764 0.29 7.61 5.62 12.09
3/2/2023 3:00:00 PM 6.18 43.124 0.291 7.63 5.95 12.13
3/2/2023 3:15:00 PM 6.26 43.268 0.291 7.62 5.47 11.79
3/2/2023 3:30:00 PM 6.23 43.214 0.287 7.61 5.1 11.9
3/2/2023 3:45:00 PM 6.35 43.43 0.299 7.58 4.75 11.92
3/2/2023 4:00:00 PM 6.16 43.088 0.302 7.6 5.06 11.99
3/2/2023 4:15:00 PM 6.18 43.124 0.297 7.6 4.92 11.76
3/2/2023 4:30:00 PM 6.14 43.052 0.295 7.63 5.25 11.8
3/2/2023 4:45:00 PM 6.12 43.016 0.291 7.63 5.81 11.51
3/2/2023 5:00:00 PM 6.09 42.962 0.301 7.63 5.41 11.5
3/2/2023 5:15:00 PM 5.92 42.656 0.315 7.58 5.29 11.83
3/2/2023 5:30:00 PM 5.87 42.566 0.292 7.59 5.43 11.6
3/2/2023 5:45:00 PM 5.81 42.458 0.283 7.59 11.43 11.55
3/2/2023 6:00:00 PM 5.87 42.566 0.307 7.58 5.08 11.56
3/2/2023 6:15:00 PM 5.82 42.476 0.284 7.61 5.8 11.4
3/2/2023 6:30:00 PM 5.78 42.404 0.285 7.57 5.38 11.09
3/2/2023 6:45:00 PM 5.63 42.134 0.294 7.59 6.44 11.38
3/2/2023 7:00:00 PM 5.61 42.098 0.319 7.53 7.17 11.4
3/2/2023 7:15:00 PM 5.22 41.396 0.262 7.56 9.18 11.43
3/2/2023 7:30:00 PM 5.26 41.468 0.274 7.55 10.24 11.32
3/2/2023 7:45:00 PM 5.15 41.27 0.278 7.53 12.85 11.32
3/2/2023 8:00:00 PM 5.07 41.126 0.269 7.51 18.83 10.93
3/2/2023 8:15:00 PM 5.06 41.108 0.28 7.48 11.6 11.09
3/2/2023 8:30:00 PM 5.07 41.126 0.279 7.51 12.84 11.2
3/2/2023 8:45:00 PM 4.9 40.82 0.285 7.47 12.3 11.14
3/2/2023 9:00:00 PM 4.83 40.694 0.255 7.49 12.81 11.03
3/2/2023 9:15:00 PM 4.98 40.964 0.319 7.49 11.54 10.53
3/2/2023 9:30:00 PM 4.87 40.766 0.28 7.48 12.39 11.12
3/2/2023 9:45:00 PM 4.82 40.676 0.355 7.46 10.6 11.22
3/2/2023 10:00:00 PM 4.7 40.46 0.243 7.47 12.16 10.92
3/2/2023 10:15:00 PM 4.67 40.406 0.281 7.44 11.27 11.29
3/2/2023 10:30:00 PM 4.64 40.352 0.285 7.46 10.61 11
3/2/2023 10:45:00 PM 4.86 40.748 0.277 7.44 10.62 10.73
3/2/2023 11:00:00 PM 4.57 40.226 0.332 7.45 9.77 10.89
3/2/2023 11:15:00 PM 4.67 40.406 0.263 7.45 9.55 11.11
3/2/2023 11:30:00 PM 4.73 40.514 0.269 7.41 10.16 11.06
3/2/2023 11:45:00 PM 4.54 40.172 0.295 7.44 9.91 11.1
3/3/2023 12:00:00 AM 4.69 40.442 0.293 7.46 8.81 10.86
3/3/2023 12:15:00 AM 4.51 40.118 0.255 7.45 8.65 10.62
3/3/2023 12:30:00 AM 4.69 40.442 0.274 7.43 8.48 10.8
3/3/2023 12:45:00 AM 4.29 39.722 0.247 7.44 8.83 11.24
3/3/2023 1:00:00 AM 4.43 39.974 0.237 7.43 8.95 11.08
3/3/2023 1:15:00 AM 4.23 39.614 0.246 7.4 8.5 11.28
3/3/2023 1:30:00 AM 4.23 39.614 0.242 7.39 8.93 11.07
3/3/2023 1:45:00 AM 4.03 39.254 0.248 7.42 8.56 11.02
3/3/2023 2:00:00 AM 4.15 39.47 0.225 7.43 8.11 10.99
3/3/2023 2:15:00 AM 4.19 39.542 0.251 7.39 8.55 11.02
3/3/2023 2:30:00 AM 4.18 39.524 0.264 7.42 9.44 10.75
3/3/2023 2:45:00 AM 4.1 39.38 0.262 7.41 29.01 11.06
3/3/2023 3:00:00 AM 3.92 39.056 0.26 7.43 8.31 10.92
3/3/2023 3:15:00 AM 3.78 38.804 0.254 7.42 9.25 11.13
3/3/2023 3:30:00 AM 4.06 39.308 0.249 7.41 8.4 10.96
3/3/2023 3:45:00 AM 3.83 38.894 0.259 7.38 7.89 11.26
3/3/2023 4:00:00 AM 3.74 38.732 0.256 7.4 8.48 11.39
3/3/2023 4:15:00 AM 3.73 38.714 0.251 7.41 8.55 11.34
3/3/2023 4:30:00 AM 3.91 39.038 0.257 7.43 7.92 10.97
3/3/2023 4:45:00 AM 3.97 39.146 0.263 7.42 8.1 11.12
3/3/2023 5:00:00 AM 3.75 38.75 0.28 7.4 8.16 11.09
3/3/2023 5:15:00 AM 4.2 39.56 0.315 7.39 6.85 11.12
3/3/2023 5:30:00 AM 3.69 38.642 0.238 7.44 7.83 11.13
3/3/2023 5:45:00 AM 3.43 38.174 0.248 7.45 8.29 11.37
3/3/2023 6:00:00 AM 3.47 38.246 0.271 7.44 7.7 11.51
3/3/2023 6:15:00 AM 3.48 38.264 0.254 7.43 8 11.02
3/3/2023 6:30:00 AM 3.69 38.642 0.282 7.42 7.25 11.05
3/3/2023 6:45:00 AM 3.77 38.786 0.278 7.44 7.21 11.05
3/3/2023 7:00:00 AM 3.8 38.84 0.309 7.44 6.62 11.46
3/3/2023 7:15:00 AM 3.67 38.606 0.262 7.4 6.06 11.18
3/3/2023 7:30:00 AM 3.52 38.336 0.243 7.43 6.34 11.04
3/3/2023 7:45:00 AM 3.52 38.336 0.267 7.43 5.17 11.61
3/3/2023 8:00:00 AM 3.39 38.102 0.263 7.44 6.93 11.57
3/3/2023 8:15:00 AM 3.49 38.282 0.29 7.42 6.34 11.9
3/3/2023 8:30:00 AM 3.41 38.138 0.283 7.43 7.04 11.37
3/3/2023 8:45:00 AM 3.56 38.408 0.274 7.44 7.49 11.64
3/3/2023 9:00:00 AM 3.82 38.876 0.295 7.46 6.79 11.63
3/3/2023 9:15:00 AM 3.82 38.876 0.289 7.44 6.06 11.49
3/3/2023 9:30:00 AM 4.25 39.65 0.309 7.47 5.72 11.15
3/3/2023 9:45:00 AM 3.79 38.822 0.268 7.47 5.64 11.8
3/3/2023 10:00:00 AM 3.44 38.192 0.248 7.47 5.97 12.01
3/3/2023 10:15:00 AM 3.62 38.516 0.246 7.46 5.05 11.85
3/3/2023 10:30:00 AM 3.95 39.11 0.284 7.48 6.07 11.96
3/3/2023 10:45:00 AM 4.43 39.974 0.274 7.49 5.16 11.72
3/3/2023 11:00:00 AM 4.23 39.614 0.263 7.47 4.64 11.81
3/3/2023 11:15:00 AM 4.58 40.244 0.279 7.52 4.9 11.57
3/3/2023 11:30:00 AM 4.51 40.118 0.281 7.51 5.48 11.87
3/3/2023 11:45:00 AM 4.52 40.136 0.254 7.5 5.42 12.1
3/3/2023 12:00:00 PM 4.74 40.532 0.265 7.49 5.58 11.67
3/3/2023 12:15:00 PM 4.77 40.586 0.268 7.53 5.09 12.16
3/3/2023 12:30:00 PM 4.59 40.262 0.247 7.52 4.86 12.29
3/3/2023 12:45:00 PM 4.86 40.748 0.285 7.5 4.68 11.78
3/3/2023 1:00:00 PM 4.95 40.91 0.264 7.5 4.88 11.96
3/3/2023 1:15:00 PM 5.37 41.666 0.315 7.51 4.42 12.11
3/3/2023 1:30:00 PM 5.26 41.468 0.272 7.51 4.72 11.94
3/3/2023 1:45:00 PM 5.62 42.116 0.333 7.52 5.23 12
3/3/2023 2:00:00 PM 5.29 41.522 0.252 7.54 5.08 11.88
3/3/2023 2:15:00 PM 5.37 41.666 0.291 7.52 5.09 11.99
3/3/2023 2:30:00 PM 5.32 41.576 0.265 7.54 5.2 12.02
3/3/2023 2:45:00 PM 5.4 41.72 0.305 7.57 6.59 11.66
3/3/2023 3:00:00 PM 5.39 41.702 0.27 7.53 5.44 11.75
3/3/2023 3:15:00 PM 5.52 41.936 0.283 7.56 5.25 12.09
3/3/2023 3:30:00 PM 5.5 41.9 0.296 7.54 5.49 12.02
3/3/2023 3:45:00 PM 5.43 41.774 0.26 7.56 971.79 11.91
3/3/2023 4:00:00 PM 5.51 41.918 0.289 7.52 5.56 11.61
3/3/2023 4:15:00 PM 5.48 41.864 0.276 7.55 5.11 11.68
3/3/2023 4:30:00 PM 5.39 41.702 0.275 7.54 4.97 11.84
3/3/2023 4:45:00 PM 5.47 41.846 0.261 7.52 4.82 11.59
3/3/2023 5:00:00 PM 5.4 41.72 0.291 7.54 5.33 11.82
3/3/2023 5:15:00 PM 5.38 41.684 0.27 7.54 4.91 11.6
3/3/2023 5:30:00 PM 5.59 42.062 0.305 7.52 5.08 11.41
3/3/2023 5:45:00 PM 5.36 41.648 0.29 7.53 5.19 11.37
3/3/2023 6:00:00 PM 5.18 41.324 0.287 7.55 5.12 11.3
3/3/2023 6:15:00 PM 4.97 40.946 0.285 7.5 5.13 11.23
3/3/2023 6:30:00 PM 5.19 41.342 0.304 7.51 4.78 11.14
3/3/2023 6:45:00 PM 4.99 40.982 0.322 7.51 4.79 11.09
3/3/2023 7:00:00 PM 4.9 40.82 0.288 7.53 5.09 11.15
3/3/2023 7:15:00 PM 4.98 40.964 0.283 7.5 5.58 10.93
3/3/2023 7:30:00 PM 4.48 40.064 0.307 7.53 5.51 10.92
3/3/2023 7:45:00 PM 4.52 40.136 0.296 7.52 5.15 10.97
3/3/2023 8:00:00 PM 4.53 40.154 0.351 7.51 5.12 11.26
3/3/2023 8:15:00 PM 4.28 39.704 0.279 7.51 5.85 11.03
3/3/2023 8:30:00 PM 3.84 38.912 0.268 7.53 6.31 11.24
3/3/2023 8:45:00 PM 3.94 39.092 0.27 7.51 5.98 10.82
3/3/2023 9:00:00 PM 3.74 38.732 0.28 7.52 5.82 11.41
3/3/2023 9:15:00 PM 3.48 38.264 0.267 7.51 5.99 11.09
3/3/2023 9:30:00 PM 3.39 38.102 0.312 7.52 6.08 11.05
3/3/2023 9:45:00 PM 3.38 38.084 0.353 7.48 5.24 11.11
3/3/2023 10:00:00 PM 3.28 37.904 0.263 7.48 5.44 11.07
3/3/2023 10:15:00 PM 3.41 38.138 0.306 7.45 5.39 11.07
3/3/2023 10:30:00 PM 3.38 38.084 0.286 7.49 5.65 11.29
3/3/2023 10:45:00 PM 2.98 37.364 0.277 7.47 4.53 11.19
3/3/2023 11:00:00 PM 3.27 37.886 0.394 7.48 5.71 11.59
3/3/2023 11:15:00 PM 3.51 38.318 0.282 7.47 9.01 11.1
3/3/2023 11:30:00 PM 3.15 37.67 0.259 7.41 5.48 11.23
3/3/2023 11:45:00 PM 2.96 37.328 0.261 7.48 5.53 11.27
3/4/2023 12:00:00 AM 2.99 37.382 0.313 7.46 5.56 11.33
3/4/2023 12:15:00 AM 3.21 37.778 0.276 7.44 4.81 11.29
3/4/2023 12:30:00 AM 2.99 37.382 0.273 7.46 6.87 11.01
3/4/2023 12:45:00 AM 2.75 36.95 0.262 7.48 5.75 11.41
3/4/2023 1:00:00 AM 2.98 37.364 0.269 7.48 7.01 11.04
3/4/2023 1:15:00 AM 2.98 37.364 0.262 7.47 5.7 11.17
3/4/2023 1:30:00 AM 3.16 37.688 0.3 7.45 5.53 11.17
3/4/2023 1:45:00 AM 3.03 37.454 0.282 7.47 5.69 11.35
3/4/2023 2:00:00 AM 3.37 38.066 0.274 7.46 8.22 10.78
3/4/2023 2:15:00 AM 3.19 37.742 0.28 7.47 6.02 11.1
3/4/2023 2:30:00 AM 3.65 38.57 0.348 7.44 7.7 10.96
3/4/2023 2:45:00 AM 2.86 37.148 0.277 7.43 5.65 11.56
3/4/2023 3:00:00 AM 3.1 37.58 0.282 7.46 5.85 11.34
3/4/2023 3:15:00 AM 2.77 36.986 0.267 7.44 5.97 11.35
3/4/2023 3:30:00 AM 2.76 36.968 0.272 7.44 5.74 11.14
3/4/2023 3:45:00 AM 2.71 36.878 0.285 7.45 5.83 11.37
3/4/2023 4:00:00 AM 3.24 37.832 0.331 7.45 6.15 11.51
3/4/2023 4:15:00 AM 2.94 37.292 0.276 7.43 5.93 11.34
3/4/2023 4:30:00 AM 2.97 37.346 0.304 7.46 6.51 11.25
3/4/2023 4:45:00 AM 2.85 37.13 0.303 7.43 7.06 11.42
3/4/2023 5:00:00 AM 3 37.4 0.314 7.45 7.14 11.45
3/4/2023 5:15:00 AM 2.98 37.364 0.305 7.44 6.42 11.44
3/4/2023 5:30:00 AM 2.95 37.31 0.312 7.44 5.74 11.46
3/4/2023 5:45:00 AM 3.21 37.778 0.337 7.44 5.46 11.71
3/4/2023 6:00:00 AM 3.15 37.67 0.313 7.46 5.82 11.29
3/4/2023 6:15:00 AM 2.87 37.166 0.295 7.46 7.26 11.36
3/4/2023 6:30:00 AM 2.9 37.22 0.287 7.45 6.68 11.26
3/4/2023 6:45:00 AM 2.91 37.238 0.3 7.44 5.89 11.43
3/4/2023 7:00:00 AM 3.08 37.544 0.35 7.38 6.21 11.22
3/4/2023 7:15:00 AM 2.91 37.238 0.3 7.44 5.83 11.56
3/4/2023 7:30:00 AM 3.02 37.436 0.314 7.44 6.39 11.4
3/4/2023 7:45:00 AM 3.53 38.354 0.312 7.43 5.6 11.05
3/4/2023 8:00:00 AM 2.95 37.31 0.372 7.44 6.04 11.53
3/4/2023 8:15:00 AM 2.85 37.13 0.309 7.43 5.74 11.64
3/4/2023 8:30:00 AM 2.82 37.076 0.318 7.46 5.77 12.32
3/4/2023 8:45:00 AM 2.71 36.878 0.299 7.46 5.64 11.89
3/4/2023 9:00:00 AM 2.92 37.256 0.445 7.48 6.99 11.47
3/4/2023 9:15:00 AM 2.94 37.292 0.294 7.43 5.39 11.75
3/4/2023 9:30:00 AM 3.13 37.634 0.316 7.46 5.36 11.91
3/4/2023 9:45:00 AM 3.03 37.454 0.287 7.47 5.34 11.71
3/4/2023 10:00:00 AM 3.2 37.76 0.296 7.44 4.99 11.75
3/4/2023 10:15:00 AM 3.57 38.426 0.329 7.45 5.46 11.79
3/4/2023 10:30:00 AM 3.39 38.102 0.334 7.47 5.29 12.15
3/4/2023 10:45:00 AM 3.11 37.598 0.361 7.5 5.45 12.07
3/4/2023 11:00:00 AM 3.27 37.886 0.319 7.49 5.38 12.16
3/4/2023 11:15:00 AM 3.32 37.976 0.327 7.49 5.75 11.95
3/4/2023 11:30:00 AM 3.54 38.372 0.326 7.51 5.9 12.12
3/4/2023 11:45:00 AM 3.58 38.444 0.3 7.51 5.64 11.59
3/4/2023 12:00:00 PM 3.35 38.03 0.293 7.52 5.7 12.12
3/4/2023 12:15:00 PM 3.37 38.066 0.29 7.52 6.14 12.16
3/4/2023 12:30:00 PM 3.8 38.84 0.303 7.52 6.18 12.1
3/4/2023 12:45:00 PM 4.08 39.344 0.319 7.53 5.95 12.29
3/4/2023 1:00:00 PM 3.9 39.02 0.295 7.53 6.27 11.85
3/4/2023 1:15:00 PM 4.14 39.452 0.336 7.5 6.21 12.01
3/4/2023 1:30:00 PM 4.08 39.344 0.283 7.54 6.64 11.91
3/4/2023 1:45:00 PM 4.2 39.56 0.305 7.52 6.07 12.16
3/4/2023 2:00:00 PM 4.43 39.974 0.313 7.47 5.83 11.81
3/4/2023 2:15:00 PM 4.04 39.272 0.279 7.51 6.3 11.82
3/4/2023 2:30:00 PM 4.3 39.74 0.297 7.51 6.27 12.25
3/4/2023 2:45:00 PM 4.22 39.596 0.277 7.54 6.53 12.16
3/4/2023 3:00:00 PM 4.32 39.776 0.301 7.51 6.33 11.96
3/4/2023 3:15:00 PM 4.61 40.298 0.301 7.51 6.63 11.76
3/4/2023 3:30:00 PM 4.18 39.524 0.265 7.52 6.83 11.95
3/4/2023 3:45:00 PM 4.38 39.884 0.295 7.51 7.2 12.32
3/4/2023 4:00:00 PM 4.18 39.524 0.297 7.54 7.63 11.89
3/4/2023 4:15:00 PM 4.33 39.794 0.291 7.55 7.66 11.9
3/4/2023 4:30:00 PM 4.29 39.722 0.28 7.48 7.06 11.88
3/4/2023 4:45:00 PM 4.52 40.136 0.304 7.52 8.1 11.44
3/4/2023 5:00:00 PM 4.24 39.632 0.269 7.49 8.85 12.06
3/4/2023 5:15:00 PM 4.17 39.506 0.255 7.51 9.3 11.82
3/4/2023 5:30:00 PM 4.4 39.92 0.279 7.5 9.06 11.93
3/4/2023 5:45:00 PM 4.09 39.362 0.258 7.49 8.83 11.94
3/4/2023 6:00:00 PM 4.82 40.676 0.313 7.46 8.82 11.52
3/4/2023 6:15:00 PM 4.31 39.758 0.249 7.45 8.97 11.43
3/4/2023 6:30:00 PM 4.03 39.254 0.258 7.46 8.98 11.71
3/4/2023 6:45:00 PM 4.19 39.542 0.268 7.48 9.02 11.43
3/4/2023 7:00:00 PM 4.22 39.596 0.274 7.44 9.53 11.42
3/4/2023 7:15:00 PM 4.14 39.452 0.286 7.46 8.82 11.85
3/4/2023 7:30:00 PM 3.95 39.11 0.259 7.46 9.12 11.91
3/4/2023 7:45:00 PM 4.02 39.236 0.251 7.41 9.32 11.32
3/4/2023 8:00:00 PM 3.94 39.092 0.328 7.41 9.05 11.51
3/4/2023 8:15:00 PM 4.18 39.524 0.3 7.41 8.07 11.4
3/4/2023 8:30:00 PM 3.81 38.858 0.227 7.41 7.97 11.48
3/4/2023 8:45:00 PM 4.23 39.614 0.235 7.42 8.82 10.49
3/4/2023 9:00:00 PM 3.81 38.858 0.252 7.41 8.15 11.19
3/4/2023 9:15:00 PM 4.03 39.254 0.3 7.39 8.16 11.74
3/4/2023 9:30:00 PM 3.61 38.498 0.24 7.41 9.03 11.55
3/4/2023 9:45:00 PM 3.8 38.84 0.245 7.42 8.12 11.24
3/4/2023 10:00:00 PM 3.92 39.056 0.303 7.39 7.22 11.35
3/4/2023 10:15:00 PM 3.78 38.804 0.248 7.42 8.12 11.46
3/4/2023 10:30:00 PM 3.66 38.588 0.232 7.42 8.33 11.36
3/4/2023 10:45:00 PM 3.81 38.858 0.261 7.38 7.29 11.23
3/4/2023 11:00:00 PM 3.73 38.714 0.274 7.41 7.78 11.1
3/4/2023 11:15:00 PM 3.63 38.534 0.272 7.41 8.3 11.85
3/4/2023 11:30:00 PM 3.58 38.444 0.243 7.5 8.9 11.27
3/4/2023 11:45:00 PM 3.52 38.336 0.277 7.43 8.34 11.51
3/5/2023 12:00:00 AM 3.66 38.588 0.284 7.42 8.15 11.34
3/5/2023 12:15:00 AM 3.76 38.768 0.259 7.41 8.08 11.28
3/5/2023 12:30:00 AM 3.41 38.138 0.256 7.42 8.27 11.41
3/5/2023 12:45:00 AM 3.44 38.192 0.241 7.41 7.9 11.49
3/5/2023 1:00:00 AM 3.68 38.624 0.257 7.38 7.89 11.4
3/5/2023 1:15:00 AM 3.98 39.164 0.278 7.39 7.23 11.3
3/5/2023 1:30:00 AM 3.37 38.066 0.241 7.42 8.23 11.34
3/5/2023 1:45:00 AM 3.4 38.12 0.245 7.43 8.09 11.5
3/5/2023 2:00:00 AM 3.76 38.768 0.266 7.43 6.58 11.41
3/5/2023 2:15:00 AM 3.46 38.228 0.271 7.41 7.75 11.4
3/5/2023 2:30:00 AM 3.7 38.66 0.262 7.42 7.85 11.21
3/5/2023 2:45:00 AM 3.35 38.03 0.245 7.43 6.97 11.17
3/5/2023 3:00:00 AM 3.41 38.138 0.252 7.41 6.66 11.16
3/5/2023 3:15:00 AM 3.65 38.57 0.31 7.42 6.22 11.5
3/5/2023 3:30:00 AM 3.72 38.696 0.329 7.41 7.44 11.36
3/5/2023 3:45:00 AM 3.55 38.39 0.249 7.41 7.51 11.26
3/5/2023 4:00:00 AM 3.38 38.084 0.259 7.39 7.19 11.64
3/5/2023 4:15:00 AM 3.62 38.516 0.265 7.4 7.24 11.17
3/5/2023 4:30:00 AM 3.64 38.552 0.246 7.39 7.23 10.88
3/5/2023 4:45:00 AM 3.44 38.192 0.291 7.37 6.89 11.49
3/5/2023 5:00:00 AM 3.85 38.93 0.281 7.41 6.84 11.53
3/5/2023 5:15:00 AM 3.2 37.76 0.265 7.4 6.62 11.64
3/5/2023 5:30:00 AM 3.84 38.912 0.287 7.39 7.17 11.3
3/5/2023 5:45:00 AM 3.47 38.246 0.267 7.39 6.89 11.07
3/5/2023 6:00:00 AM 3.3 37.94 0.276 7.4 5.73 11.19
3/5/2023 6:15:00 AM 3.01 37.418 0.257 7.41 181.63 11.45
3/5/2023 6:30:00 AM 3.27 37.886 0.349 7.4 7.2 11.28
3/5/2023 6:45:00 AM 3.44 38.192 0.275 7.38 6.21 11.1
3/5/2023 7:00:00 AM 3.35 38.03 0.27 7.37 5.96 11.41
3/5/2023 7:15:00 AM 3.54 38.372 0.294 7.42 6.28 11.65
3/5/2023 7:30:00 AM 3.29 37.922 0.285 7.38 5.58 11.43
3/5/2023 7:45:00 AM 3.4 38.12 0.262 7.42 5.64 11.28
3/5/2023 8:00:00 AM 3.14 37.652 0.26 7.42 5.53 11.45
3/5/2023 8:15:00 AM 3.42 38.156 0.271 7.42 4.93 11.37
3/5/2023 8:30:00 AM 3.56 38.408 0.276 7.39 7.65 11.63
3/5/2023 8:45:00 AM 3.43 38.174 0.287 7.39 6.13 11.46
3/5/2023 9:00:00 AM 3.45 38.21 0.303 7.42 5.38 11.47
3/5/2023 9:15:00 AM 3.18 37.724 0.257 7.42 5.75 11.61
3/5/2023 9:30:00 AM 3.74 38.732 0.305 7.46 5.94 11.25
3/5/2023 9:45:00 AM 4.19 39.542 0.302 7.42 1990.17 11.44
3/5/2023 10:00:00 AM 3.41 38.138 0.263 7.47 5.8 11.78
3/5/2023 10:15:00 AM 3.78 38.804 0.312 7.44 5.5 11.85
3/5/2023 10:30:00 AM 3.78 38.804 0.284 7.45 5.23 11.73
3/5/2023 10:45:00 AM 3.92 39.056 0.315 7.43 5.51 11.8
3/5/2023 11:00:00 AM 3.84 38.912 0.295 7.47 5.86 11.73
3/5/2023 11:15:00 AM 3.79 38.822 0.267 7.47 5.39 11.97
3/5/2023 11:30:00 AM 4.14 39.452 0.275 7.46 5.61 11.87
3/5/2023 11:45:00 AM 4.07 39.326 0.285 7.5 5.63 11.91
3/5/2023 12:00:00 PM 4.46 40.028 0.279 7.48 5.59 11.77
3/5/2023 12:15:00 PM 4.3 39.74 0.284 7.5 5.65 12.09
3/5/2023 12:30:00 PM 4.59 40.262 0.358 7.49 5.43 12.1
3/5/2023 12:45:00 PM 4.47 40.046 0.287 7.51 5 12.26
3/5/2023 1:00:00 PM 4.61 40.298 0.281 7.52 5.29 12.17
3/5/2023 1:15:00 PM 4.57 40.226 0.266 7.53 5.56 11.98
3/5/2023 1:30:00 PM 4.6 40.28 0.269 7.54 5.53 11.79
3/5/2023 1:45:00 PM 4.88 40.784 0.284 7.52 5.11 12.12
3/5/2023 2:00:00 PM 4.93 40.874 0.272 7.54 5.58 11.8
3/5/2023 2:15:00 PM 5.14 41.252 0.295 7.49 5.18 11.92
3/5/2023 2:30:00 PM 5.12 41.216 0.276 7.55 5.42 11.94
3/5/2023 2:45:00 PM 5.23 41.414 0.263 7.52 5.48 11.97
3/5/2023 3:00:00 PM 5.24 41.432 0.297 7.56 5.77 12.04
3/5/2023 3:15:00 PM 5.33 41.594 0.286 7.52 5.31 12.19
3/5/2023 3:30:00 PM 5.39 41.702 0.294 7.55 5.32 11.92
3/5/2023 3:45:00 PM 5.4 41.72 0.284 7.54 5.57 11.86
3/5/2023 4:00:00 PM 5.44 41.792 0.305 7.54 5.62 11.75
3/5/2023 4:15:00 PM 5.22 41.396 0.269 7.56 7.15 11.93
3/5/2023 4:30:00 PM 5.17 41.306 0.268 7.56 5.38 11.9
3/5/2023 4:45:00 PM 5.23 41.414 0.309 7.57 6.18 12.03
3/5/2023 5:00:00 PM 5.54 41.972 0.305 7.53 5.08 11.59
3/5/2023 5:15:00 PM 5.55 41.99 0.286 7.53 5.35 11.2
3/5/2023 5:30:00 PM 5.35 41.63 0.278 7.51 5.12 11.41
3/5/2023 5:45:00 PM 5.24 41.432 0.387 7.53 5.31 11.49
3/5/2023 6:00:00 PM 5.29 41.522 0.275 7.5 7.25 11.6
3/5/2023 6:15:00 PM 5.34 41.612 0.286 7.48 5.2 11.35
3/5/2023 6:30:00 PM 5.38 41.684 0.261 7.51 5.92 11.62
3/5/2023 6:45:00 PM 5.13 41.234 0.264 7.48 6.16 11.31
3/5/2023 7:00:00 PM 5.31 41.558 0.257 7.49 6.49 11.01
3/5/2023 7:15:00 PM 5.05 41.09 0.247 7.47 6.26 11.23
3/5/2023 7:30:00 PM 5.19 41.342 0.291 7.44 6.9 10.94
3/5/2023 7:45:00 PM 5.23 41.414 0.27 7.41 6.4 10.95
3/5/2023 8:00:00 PM 4.99 40.982 0.251 7.48 6.53 10.87
3/5/2023 8:15:00 PM 5.3 41.54 0.31 7.45 6.61 11.3
3/5/2023 8:30:00 PM 5.12 41.216 0.252 7.43 6.8 11.21
3/5/2023 8:45:00 PM 4.99 40.982 0.242 7.43 6.48 11.32
3/5/2023 9:00:00 PM 4.81 40.658 0.233 7.43 7.1 10.91
3/5/2023 9:15:00 PM 4.9 40.82 0.258 7.43 7.11 11.17
3/5/2023 9:30:00 PM 4.78 40.604 0.255 7.42 6.96 10.92
3/5/2023 9:45:00 PM 4.6 40.28 0.237 7.42 7.54 11.14
3/5/2023 10:00:00 PM 4.76 40.568 0.247 7.4 6.86 10.96
3/5/2023 10:15:00 PM 4.81 40.658 0.279 7.41 7.19 10.87
3/5/2023 10:30:00 PM 4.88 40.784 0.292 7.43 7.26 11.26
3/5/2023 10:45:00 PM 4.62 40.316 0.236 7.43 7.11 10.97
3/5/2023 11:00:00 PM 4.59 40.262 0.253 7.35 6.77 11.31
3/5/2023 11:15:00 PM 4.62 40.316 0.317 7.41 7.14 10.53
3/5/2023 11:30:00 PM 4.87 40.766 0.251 7.4 7.1 10.76
3/5/2023 11:45:00 PM 4.62 40.316 0.254 7.41 7.28 10.84
3/6/2023 12:00:00 AM 4.65 40.37 0.246 7.4 7.36 10.73
3/6/2023 12:15:00 AM 4.49 40.082 0.232 7.39 7.44 11.16
3/6/2023 12:30:00 AM 4.82 40.676 0.303 7.38 7.51 10.64
3/6/2023 12:45:00 AM 4.87 40.766 0.304 7.39 7.16 10.63
3/6/2023 1:00:00 AM 4.52 40.136 0.277 7.39 7.13 10.88
3/6/2023 1:15:00 AM 4.6 40.28 0.318 7.39 7.58 11.19
3/6/2023 1:30:00 AM 4.5 40.1 0.256 7.36 7.32 11.08
3/6/2023 1:45:00 AM 4.5 40.1 0.256 7.39 7.15 11.07
3/6/2023 2:00:00 AM 4.56 40.208 0.231 7.4 7.65 10.7
3/6/2023 2:15:00 AM 4.31 39.758 0.253 7.38 6.95 11.28
3/6/2023 2:30:00 AM 4.46 40.028 0.329 7.39 7.16 10.93
3/6/2023 2:45:00 AM 4.33 39.794 0.237 7.38 7.78 11.18
3/6/2023 3:00:00 AM 4.33 39.794 0.261 7.35 7.79 11.06
3/6/2023 3:15:00 AM 4.42 39.956 0.27 7.38 7.34 11.03
3/6/2023 3:30:00 AM 4.37 39.866 0.247 7.38 7.04 10.82
3/6/2023 3:45:00 AM 4.1 39.38 0.24 7.39 7.46 11.24
3/6/2023 4:00:00 AM 4.45 40.01 0.323 7.4 7.52 11.06
3/6/2023 4:15:00 AM 4.28 39.704 0.239 7.39 7.01 10.82
3/6/2023 4:30:00 AM 4.22 39.596 0.303 7.4 7.67 11.24
3/6/2023 4:45:00 AM 4.65 40.37 0.281 7.39 7.31 10.82
3/6/2023 5:00:00 AM 4.42 39.956 0.263 7.38 7.73 11.14
3/6/2023 5:15:00 AM 3.99 39.182 0.234 7.38 6.96 11.34
3/6/2023 5:30:00 AM 4.04 39.272 0.24 7.38 7.37 10.89
3/6/2023 5:45:00 AM 4.25 39.65 0.249 7.35 7.17 10.55
3/6/2023 6:00:00 AM 4.06 39.308 0.24 7.38 7.66 11.31
3/6/2023 6:15:00 AM 4.32 39.776 0.262 7.35 6.93 10.6
3/6/2023 6:30:00 AM 3.96 39.128 0.24 7.39 7.27 11.25
3/6/2023 6:45:00 AM 4.03 39.254 0.255 7.38 7.06 11.28
3/6/2023 7:00:00 AM 4.23 39.614 0.274 7.39 6.23 11.15
3/6/2023 7:15:00 AM 4.19 39.542 0.256 7.38 7.64 11.08
3/6/2023 7:30:00 AM 4.01 39.218 0.307 7.39 6.51 11.06
3/6/2023 7:45:00 AM 4.26 39.668 0.275 7.4 6.39 11.1
3/6/2023 8:00:00 AM 4.36 39.848 0.292 7.4 6.61 11.42
3/6/2023 8:15:00 AM 3.79 38.822 0.26 7.37 5.99 11.33
3/6/2023 8:30:00 AM 3.95 39.11 0.259 7.41 6.04 11.4
3/6/2023 8:45:00 AM 4 39.2 0.257 7.42 6.07 11.54
3/6/2023 9:00:00 AM 4.36 39.848 0.317 7.42 6.18 11.84
3/6/2023 9:15:00 AM 4.35 39.83 0.282 7.44 6.42 11.12
3/6/2023 9:30:00 AM 3.92 39.056 0.259 7.41 6.31 11.89
3/6/2023 9:45:00 AM 4.18 39.524 0.348 7.39 5.87 11.29
3/6/2023 10:00:00 AM 4.3 39.74 0.362 7.43 5.87 11.9
3/6/2023 10:15:00 AM 4.32 39.776 0.276 7.43 6.59 11.37
3/6/2023 10:30:00 AM 4.27 39.686 0.291 7.43 5.75 11.85
3/6/2023 10:45:00 AM 4.25 39.65 0.25 7.44 5.59 11.78
3/6/2023 11:00:00 AM 4.2 39.56 0.251 7.46 5.51 11.9
3/6/2023 11:15:00 AM 4.12 39.416 0.25 7.46 7.97 11.96
3/6/2023 11:30:00 AM 4.29 39.722 0.25 7.48 5.66 11.87
3/6/2023 11:45:00 AM 4.26 39.668 0.255 7.41 5.71 11.96
3/6/2023 12:00:00 PM 4.62 40.316 0.332 7.46 5.79 11.69
3/6/2023 12:15:00 PM 4.89 40.802 0.335 7.43 6.05 11.62
3/6/2023 12:30:00 PM 4.75 40.55 0.276 7.48 5.43 12.05
3/6/2023 12:45:00 PM 4.84 40.712 0.352 7.48 5.95 11.99
3/6/2023 1:00:00 PM 5.09 41.162 0.292 7.48 5.59 11.8
3/6/2023 1:15:00 PM 5.27 41.486 0.25 7.51 5.99 12.04
3/6/2023 1:30:00 PM 5.39 41.702 0.271 7.5 5.65 12.06
3/6/2023 1:45:00 PM 5.41 41.738 0.265 7.52 7.06 12.11
3/6/2023 2:00:00 PM 5.57 42.026 0.283 7.5 5.22 12
3/6/2023 2:15:00 PM 5.55 41.99 0.294 7.53 5.11 12.16
3/6/2023 2:30:00 PM 5.75 42.35 0.29 7.5 5.69 12.19
3/6/2023 2:45:00 PM 5.68 42.224 0.261 7.52 5.24 11.94
3/6/2023 3:00:00 PM 6.02 42.836 0.301 7.52 5.15 11.91
3/6/2023 3:15:00 PM 5.92 42.656 0.266 7.53 5.62 11.98
3/6/2023 3:30:00 PM 5.98 42.764 0.257 7.54 5.28 12.06
3/6/2023 3:45:00 PM 6.09 42.962 0.264 7.56 5.51 11.94
3/6/2023 4:00:00 PM 6.15 43.07 0.264 7.53 5.17 12.11
3/6/2023 4:15:00 PM 6.31 43.358 0.282 7.55 5.24 11.84
3/6/2023 4:30:00 PM 6.17 43.106 0.255 7.54 5.75 11.82
3/6/2023 4:45:00 PM 6.17 43.106 0.271 7.54 5.4 11.9
3/6/2023 5:00:00 PM 6.19 43.142 0.261 7.56 5.49 11.89
3/6/2023 5:15:00 PM 6.24 43.232 0.271 7.55 5.15 11.71
3/6/2023 5:30:00 PM 6.22 43.196 0.264 7.55 4.68 11.29
3/6/2023 5:45:00 PM 6.06 42.908 0.259 7.54 5.54 11.36
3/6/2023 6:00:00 PM 6.23 43.214 0.274 7.54 5.37 11.41
3/6/2023 6:15:00 PM 6 42.8 0.262 7.53 5.57 11.44
3/6/2023 6:30:00 PM 6.06 42.908 0.269 7.5 5.26 11.31
3/6/2023 6:45:00 PM 6.15 43.07 0.286 7.51 7.82 11.21
3/6/2023 7:00:00 PM 5.93 42.674 0.364 7.53 5.66 11.55
3/6/2023 7:15:00 PM 5.9 42.62 0.251 7.51 5.77 10.97
3/6/2023 7:30:00 PM 5.82 42.476 0.249 7.49 5.95 11.13
3/6/2023 7:45:00 PM 5.85 42.53 0.246 7.47 5.81 11.02
3/6/2023 8:00:00 PM 5.73 42.314 0.259 7.48 5.83 11.24
3/6/2023 8:15:00 PM 5.75 42.35 0.244 7.47 6.26 11
3/6/2023 8:30:00 PM 5.64 42.152 0.244 7.44 6.52 11.06
3/6/2023 8:45:00 PM 5.57 42.026 0.239 7.44 7 10.99
3/6/2023 9:00:00 PM 5.54 41.972 0.245 7.41 6.43 11.09
3/6/2023 9:15:00 PM 5.58 42.044 0.323 7.38 6.51 10.95
3/6/2023 9:30:00 PM 5.46 41.828 0.234 7.44 6.56 10.78
3/6/2023 9:45:00 PM 5.73 42.314 0.291 7.41 6.39 10.84
3/6/2023 10:00:00 PM 5.63 42.134 0.272 7.4 6.15 10.87
3/6/2023 10:15:00 PM 5.41 41.738 0.228 7.4 10.99 10.89
3/6/2023 10:30:00 PM 5.42 41.756 0.266 7.41 6.93 10.93
3/6/2023 10:45:00 PM 5.2 41.36 0.239 7.42 7.2 10.83
3/6/2023 11:00:00 PM 5.29 41.522 0.26 7.4 7.11 10.79
3/6/2023 11:15:00 PM 5.09 41.162 0.233 7.4 6.81 10.97
3/6/2023 11:30:00 PM 5.09 41.162 0.256 7.4 6.87 10.95
3/6/2023 11:45:00 PM 5.23 41.414 0.274 7.38 7.25 10.89
3/7/2023 12:00:00 AM 5.02 41.036 0.273 7.42 7.02 10.94
3/7/2023 12:15:00 AM 4.95 40.91 0.231 7.42 7.26 10.88
3/7/2023 12:30:00 AM 5 41 0.251 7.38 6.92 10.93
3/7/2023 12:45:00 AM 4.95 40.91 0.284 7.39 8.61 10.86
3/7/2023 1:00:00 AM 4.96 40.928 0.246 7.42 7.08 10.95
3/7/2023 1:15:00 AM 4.92 40.856 0.262 7.4 7.05 11.02
3/7/2023 1:30:00 AM 4.81 40.658 0.253 7.36 6.57 11.11
3/7/2023 1:45:00 AM 4.87 40.766 0.253 7.4 6.93 11.18
3/7/2023 2:00:00 AM 4.81 40.658 0.266 7.39 7.22 11.02
3/7/2023 2:15:00 AM 4.9 40.82 0.35 7.38 7.31 10.95
3/7/2023 2:30:00 AM 4.54 40.172 0.238 7.4 7.2 11.03
3/7/2023 2:45:00 AM 4.52 40.136 0.245 7.41 7.34 10.95
3/7/2023 3:00:00 AM 4.56 40.208 0.247 7.41 7.08 10.89
3/7/2023 3:15:00 AM 4.53 40.154 0.262 7.38 6.53 11.08
3/7/2023 3:30:00 AM 4.52 40.136 0.263 7.38 6.97 11.19
3/7/2023 3:45:00 AM 4.39 39.902 0.236 7.38 7.11 11.2
3/7/2023 4:00:00 AM 4.36 39.848 0.241 7.38 7.13 11.23
3/7/2023 4:15:00 AM 4.34 39.812 0.249 7.39 7.2 11.01
3/7/2023 4:30:00 AM 4.25 39.65 0.253 7.33 6.94 11.19
3/7/2023 4:45:00 AM 4.21 39.578 0.288 7.39 7.38 11.04
3/7/2023 5:00:00 AM 4.32 39.776 0.25 7.35 7.22 11.22
3/7/2023 5:15:00 AM 4.48 40.064 0.27 7.41 7.06 11.03
3/7/2023 5:30:00 AM 4.01 39.218 0.244 7.38 7.21 11.15
3/7/2023 5:45:00 AM 3.94 39.092 0.236 7.4 7.36 11.01
3/7/2023 6:00:00 AM 4.11 39.398 0.264 7.38 7.62 11.18
3/7/2023 6:15:00 AM 3.84 38.912 0.236 7.35 7.67 11.18
3/7/2023 6:30:00 AM 4.13 39.434 0.27 7.37 11.65 10.63
3/7/2023 6:45:00 AM 3.81 38.858 0.228 7.37 7.31 11.09
3/7/2023 7:00:00 AM 3.81 38.858 0.227 7.39 6.67 10.87
3/7/2023 7:15:00 AM 3.81 38.858 0.254 7.4 6.64 10.72
3/7/2023 7:30:00 AM 4.03 39.254 0.287 7.4 5.92 11.14
3/7/2023 7:45:00 AM 3.82 38.876 0.249 7.39 6.47 11.07
3/7/2023 8:00:00 AM 3.77 38.786 0.248 7.4 6.47 10.75
3/7/2023 8:15:00 AM 3.85 38.93 0.245 7.38 6.5 11.06
3/7/2023 8:30:00 AM 3.72 38.696 0.278 7.43 6.39 11.26
3/7/2023 8:45:00 AM 3.43 38.174 0.259 7.41 6.44 11.72
3/7/2023 9:00:00 AM 3.73 38.714 0.261 7.4 6.77 11.39
3/7/2023 9:15:00 AM 3.74 38.732 0.282 7.42 6.1 11.86
3/7/2023 9:30:00 AM 3.54 38.372 0.244 7.44 6.06 11.59
3/7/2023 9:45:00 AM 3.76 38.768 0.265 7.43 5.52 11.71
3/7/2023 10:00:00 AM 3.51 38.318 0.246 7.46 5.97 11.84
3/7/2023 10:15:00 AM 3.68 38.624 0.248 7.44 5.74 11.68
3/7/2023 10:30:00 AM 3.61 38.498 0.239 7.44 5.6 11.85
3/7/2023 10:45:00 AM 4.09 39.362 0.273 7.44 5.21 11.86
3/7/2023 11:00:00 AM 4.04 39.272 0.256 7.42 5.73 12.14
3/7/2023 11:15:00 AM 4.01 39.218 0.259 7.47 5.78 11.97
3/7/2023 11:30:00 AM 4.05 39.29 0.269 7.48 5.7 12.05
3/7/2023 11:45:00 AM 4.11 39.398 0.246 7.46 5.55 11.83
3/7/2023 12:00:00 PM 4.08 39.344 0.24 7.49 5.62 12.11
3/7/2023 12:15:00 PM 4.34 39.812 0.244 7.46 5.2 12.09
3/7/2023 12:30:00 PM 4.36 39.848 0.26 7.49 5.4 11.99
3/7/2023 12:45:00 PM 4.56 40.208 0.32 7.48 5.3 12.14
3/7/2023 1:00:00 PM 4.66 40.388 0.305 7.48 5.26 11.91
3/7/2023 1:15:00 PM 4.79 40.622 0.284 7.48 5.18 12.21
3/7/2023 1:30:00 PM 4.96 40.928 0.285 7.46 5.06 12
3/7/2023 1:45:00 PM 4.8 40.64 0.248 7.5 5.03 12.04
3/7/2023 2:00:00 PM 4.93 40.874 0.254 7.48 5.32 11.97
3/7/2023 2:15:00 PM 4.98 40.964 0.258 7.49 5.42 12.09
3/7/2023 2:30:00 PM 5.03 41.054 0.276 7.52 5.52 12.24
3/7/2023 2:45:00 PM 5.12 41.216 0.262 7.54 5.1 12.08
3/7/2023 3:00:00 PM 5.14 41.252 0.241 7.55 5.27 11.82
3/7/2023 3:15:00 PM 5.14 41.252 0.263 7.56 5.4 11.76
3/7/2023 3:30:00 PM 5.23 41.414 0.272 7.51 5.28 11.54
3/7/2023 3:45:00 PM 5.24 41.432 0.24 7.52 5.14 11.63
3/7/2023 4:00:00 PM 5.26 41.468 0.281 7.53 5.41 11.95
3/7/2023 4:15:00 PM 5.19 41.342 0.282 7.54 5.3 11.63
3/7/2023 4:30:00 PM 5.06 41.108 0.25 7.53 4.55 11.86
3/7/2023 4:45:00 PM 5.11 41.198 0.273 7.51 5.17 11.73
3/7/2023 5:00:00 PM 5.03 41.054 0.259 7.53 5.25 11.65
3/7/2023 5:15:00 PM 4.96 40.928 0.299 7.54 5.56 12.02
3/7/2023 5:30:00 PM 5.19 41.342 0.285 7.54 5.43 11.63
3/7/2023 5:45:00 PM 4.97 40.946 0.255 7.54 5.59 11.56
3/7/2023 6:00:00 PM 5.07 41.126 0.287 7.49 5.64 11.66
3/7/2023 6:15:00 PM 4.85 40.73 0.282 7.54 6.43 11.43
3/7/2023 6:30:00 PM 4.78 40.604 0.266 7.47 5.59 11.69
3/7/2023 6:45:00 PM 4.63 40.334 0.24 7.51 7.18 11.19
3/7/2023 7:00:00 PM 4.63 40.334 0.275 7.49 6.18 11.56
3/7/2023 7:15:00 PM 4.47 40.046 0.267 7.48 5.98 11.5
3/7/2023 7:30:00 PM 4.55 40.19 0.262 7.48 6.86 11.51
3/7/2023 7:45:00 PM 4.58 40.244 0.274 7.47 6.14 11.3
3/7/2023 8:00:00 PM 4.41 39.938 0.299 7.48 6.44 11.39
3/7/2023 8:15:00 PM 4.31 39.758 0.267 7.47 5.94 11.32
3/7/2023 8:30:00 PM 4.49 40.082 0.26 7.45 6.14 11.15
3/7/2023 8:45:00 PM 4.19 39.542 0.277 7.49 6.06 11.48
3/7/2023 9:00:00 PM 4.17 39.506 0.263 7.47 5.95 11.39
3/7/2023 9:15:00 PM 4.2 39.56 0.29 7.48 6.4 11.18
3/7/2023 9:30:00 PM 4.04 39.272 0.264 7.49 6.75 11.34
3/7/2023 9:45:00 PM 4.28 39.704 0.304 7.44 6.21 11.35
3/7/2023 10:00:00 PM 3.9 39.02 0.265 7.46 6.24 11.66
3/7/2023 10:15:00 PM 4.07 39.326 0.274 7.4 5.72 11.5
3/7/2023 10:30:00 PM 3.82 38.876 0.27 7.48 6.46 11.54
3/7/2023 10:45:00 PM 3.8 38.84 0.263 7.46 6.12 11.29
3/7/2023 11:00:00 PM 3.8 38.84 0.278 7.43 5.82 11.39
3/7/2023 11:15:00 PM 3.86 38.948 0.262 7.44 5.87 11.12
3/7/2023 11:30:00 PM 3.73 38.714 0.261 7.44 6.1 11.51
3/7/2023 11:45:00 PM 3.74 38.732 0.257 7.42 5.72 10.9
3/8/2023 12:00:00 AM 3.57 38.426 0.271 7.45 5.79 11.3
3/8/2023 12:15:00 AM 3.71 38.678 0.282 7.42 6.06 11.56
3/8/2023 12:30:00 AM 3.69 38.642 0.267 7.45 6.2 11.33
3/8/2023 12:45:00 AM 3.41 38.138 0.257 7.4 5.96 11.43
3/8/2023 1:00:00 AM 3.45 38.21 0.274 7.46 7.24 11.55
3/8/2023 1:15:00 AM 3.69 38.642 0.287 7.44 5.71 11.3
3/8/2023 1:30:00 AM 3.65 38.57 0.288 7.41 6.05 11.37
3/8/2023 1:45:00 AM 3.32 37.976 0.263 7.45 5.97 11.61
3/8/2023 2:00:00 AM 3.29 37.922 0.263 7.47 5.66 11.42
3/8/2023 2:15:00 AM 3.13 37.634 0.263 7.46 6.85 11.5
3/8/2023 2:30:00 AM 3.17 37.706 0.276 7.43 5.66 11.61
3/8/2023 2:45:00 AM 3.27 37.886 0.266 7.41 5.84 11.48
3/8/2023 3:00:00 AM 3.11 37.598 0.273 7.46 5.89 11.55
3/8/2023 3:15:00 AM 3.58 38.444 0.299 7.43 5.77 11.55
3/8/2023 3:30:00 AM 3.12 37.616 0.271 7.44 5.86 11.53
3/8/2023 3:45:00 AM 3.3 37.94 0.275 7.43 5.38 11.27
3/8/2023 4:00:00 AM 3.16 37.688 0.272 7.44 5.58 11.49
3/8/2023 4:15:00 AM 2.99 37.382 0.262 7.45 5.92 11.3
3/8/2023 4:30:00 AM 3 37.4 0.286 7.45 5.71 11.63
3/8/2023 4:45:00 AM 2.95 37.31 0.254 7.46 7.07 11.36
3/8/2023 5:00:00 AM 2.82 37.076 0.271 7.47 6.72 11.77
3/8/2023 5:15:00 AM 2.78 37.004 0.274 7.45 5.81 11.65
3/8/2023 5:30:00 AM 2.93 37.274 0.274 7.44 4.83 11.52
3/8/2023 5:45:00 AM 2.91 37.238 0.278 7.45 5.04 11.64
3/8/2023 6:00:00 AM 2.87 37.166 0.286 7.46 5.43 11.78
3/8/2023 6:15:00 AM 2.78 37.004 0.276 7.44 5.47 11.68
3/8/2023 6:30:00 AM 2.67 36.806 0.267 7.45 5.06 11.6
3/8/2023 6:45:00 AM 2.74 36.932 0.371 7.46 5.18 11.82
3/8/2023 7:00:00 AM 2.84 37.112 0.286 7.45 4.26 11.53
3/8/2023 7:15:00 AM 2.77 36.986 0.279 7.45 9.14 11.6
3/8/2023 7:30:00 AM 2.47 36.446 0.267 7.45 4.87 11.83
3/8/2023 7:45:00 AM 2.67 36.806 0.273 7.46 5.6 11.73
3/8/2023 8:00:00 AM 2.62 36.716 0.28 7.45 5.56 11.87
3/8/2023 8:15:00 AM 2.48 36.464 0.262 7.46 5.33 11.86
3/8/2023 8:30:00 AM 2.53 36.554 0.283 7.47 5.67 11.93
3/8/2023 8:45:00 AM 2.42 36.356 0.278 7.45 5.26 12.39
3/8/2023 9:00:00 AM 2.66 36.788 0.288 7.47 5.3 11.98
3/8/2023 9:15:00 AM 2.57 36.626 0.274 7.48 5.53 11.98
3/8/2023 9:30:00 AM 2.58 36.644 0.272 7.46 5.7 12.15
3/8/2023 9:45:00 AM 2.79 37.022 0.291 7.5 5.72 12.29
3/8/2023 10:00:00 AM 2.69 36.842 0.273 7.5 5.36 12.22
3/8/2023 10:15:00 AM 2.71 36.878 0.277 7.49 4.7 12.44
3/8/2023 10:30:00 AM 2.61 36.698 0.263 7.49 4.9 12.32
3/8/2023 10:45:00 AM 2.72 36.896 0.286 7.51 5.17 12.15
3/8/2023 11:00:00 AM 2.71 36.878 0.277 7.5 5.2 12.61
3/8/2023 11:15:00 AM 2.69 36.842 0.259 7.52 5.2 12.55
3/8/2023 11:30:00 AM 2.92 37.256 0.287 7.52 4.84 12.33
3/8/2023 11:45:00 AM 3.13 37.634 0.305 7.53 4.99 12.69
3/8/2023 12:00:00 PM 3.43 38.174 0.303 7.5 4.93 12.45
3/8/2023 12:15:00 PM 3.23 37.814 0.268 7.5 4.77 12.24
3/8/2023 12:30:00 PM 3.27 37.886 0.292 7.54 4.97 12.78
3/8/2023 12:45:00 PM 3.23 37.814 0.289 7.54 4.98 12.66
3/8/2023 1:00:00 PM 3.4 38.12 0.278 7.55 5.17 12.61
3/8/2023 1:15:00 PM 3.5 38.3 0.272 7.55 4.89 12.53
3/8/2023 1:30:00 PM 3.52 38.336 0.272 7.55 4.49 12.75
3/8/2023 1:45:00 PM 3.76 38.768 0.288 7.55 5.18 12.53
3/8/2023 2:00:00 PM 3.74 38.732 0.278 7.59 5.17 13.01
3/8/2023 2:15:00 PM 3.89 39.002 0.286 7.57 4.98 12.62
3/8/2023 2:30:00 PM 3.98 39.164 0.315 7.58 4.96 12.56
3/8/2023 2:45:00 PM 3.98 39.164 0.293 7.58 4.75 12.23
3/8/2023 3:00:00 PM 4.34 39.812 0.306 7.59 5.48 12.5
3/8/2023 3:15:00 PM 3.95 39.11 0.294 7.58 5.12 12.15
3/8/2023 3:30:00 PM 4.01 39.218 0.296 7.57 4.68 12.53
3/8/2023 3:45:00 PM 3.98 39.164 0.284 7.58 4.93 12.52
3/8/2023 4:00:00 PM 3.95 39.11 0.283 7.6 4.68 12.72
3/8/2023 4:15:00 PM 4.16 39.488 0.308 7.61 4.83 12.45
3/8/2023 4:30:00 PM 3.92 39.056 0.28 7.59 4.87 12.32
3/8/2023 4:45:00 PM 4.06 39.308 0.275 7.58 4.68 12.52
3/8/2023 5:00:00 PM 3.96 39.128 0.272 7.59 4.87 12.44
3/8/2023 5:15:00 PM 4.04 39.272 0.279 7.56 4.26 12.46
3/8/2023 5:30:00 PM 3.99 39.182 0.272 7.59 4.62 12.43
3/8/2023 5:45:00 PM 3.95 39.11 0.275 7.56 4.46 12.26
3/8/2023 6:00:00 PM 4.05 39.29 0.288 7.57 5.17 12.29
3/8/2023 6:15:00 PM 3.84 38.912 0.272 7.59 5.87 12.43
3/8/2023 6:30:00 PM 3.84 38.912 0.275 7.55 4.75 12.17
3/8/2023 6:45:00 PM 3.98 39.164 0.293 7.57 4.64 12.12
3/8/2023 7:00:00 PM 3.9 39.02 0.283 7.54 4.92 12.16
3/8/2023 7:15:00 PM 3.86 38.948 0.29 7.54 8.01 12.1
3/8/2023 7:30:00 PM 3.82 38.876 0.287 7.55 4.65 12.17

These are provisional data and have not been subject to a quality assurance process, but rather are the raw data reported by the instrument.
H: value is above sensor operating range
L: value is below sensor operating range
Offline: station is not reporting data
NC: parameter is not collected at site

Data Availability & Limitations

Uncertainty and potential for error can be associated with environmental monitoring data. Provisional data have not been subject to a quality assurance process, but rather are the raw data reported by the instrument. Data users are cautioned to consider carefully the provisional nature of the information before using it for decisions that concern personal or public safety or the conduct of business that involves substantial monetary or operational consequences.

Approved data are currently available by request by emailing: [email protected]. Approved data have been subject to a quality assurance process to correct for equipment or fouling drift. Data recorded during equipment malfunctions have been removed.

View Historical Stations that have been discontinued.